<?xml version="1.0" encoding="UTF-8" standalone="no" ?>
<gpx xmlns="http://www.topografix.com/GPX/1/1" xmlns:xsi="http://www.w3.org/2001/XMLSchema-instance" xsi:schemaLocation="http://www.topografix.com/GPX/1/1 http://www.topografix.com/GPX/1/1/gpx.xsd" version="1.1" creator="VisuGPX - https://www.visugpx.com">
  <metadata>
    <name>Auvernier, Boudry, Le Villaret</name>
  </metadata>
  <trk>
    <name><![CDATA[Auvernier, Boudry, Le Villaret]]></name>
    <extensions>
      <line xmlns="http://www.topografix.com/GPX/gpx_style/0/2">
        <color>0000FF</color>
        <width>4</width>
      </line>
    </extensions>
    <trkseg>
      <trkpt lat="46.97304" lon="6.87589">
        <ele>430.6066253</ele>
        <time>2021-05-08T08:45:00.000Z</time>
      </trkpt>
      <trkpt lat="46.97304" lon="6.87588">
        <ele>430.69409248</ele>
        <time>2021-05-08T08:45:02.209Z</time>
      </trkpt>
      <trkpt lat="46.97304" lon="6.87588">
        <ele>430.69409248</ele>
        <time>2021-05-08T08:45:02.209Z</time>
      </trkpt>
      <trkpt lat="46.97305" lon="6.87576">
        <ele>430.7</ele>
        <time>2021-05-08T08:45:10.781Z</time>
      </trkpt>
      <trkpt lat="46.97307" lon="6.87558">
        <ele>430.7</ele>
        <time>2021-05-08T08:45:23.628Z</time>
      </trkpt>
      <trkpt lat="46.97308" lon="6.87543">
        <ele>430.7</ele>
        <time>2021-05-08T08:45:34.245Z</time>
      </trkpt>
      <trkpt lat="46.97308" lon="6.87532">
        <ele>430.7</ele>
        <time>2021-05-08T08:45:41.994Z</time>
      </trkpt>
      <trkpt lat="46.97306" lon="6.87523">
        <ele>430.7</ele>
        <time>2021-05-08T08:45:48.661Z</time>
      </trkpt>
      <trkpt lat="46.97301" lon="6.87511">
        <ele>430.6</ele>
        <time>2021-05-08T08:45:52.105Z</time>
      </trkpt>
      <trkpt lat="46.9729" lon="6.87491">
        <ele>430.6</ele>
        <time>2021-05-08T08:46:10.200Z</time>
      </trkpt>
      <trkpt lat="46.97286" lon="6.87499">
        <ele>430.6</ele>
        <time>2021-05-08T08:46:17.187Z</time>
      </trkpt>
      <trkpt lat="46.97283" lon="6.87501">
        <ele>430.6</ele>
        <time>2021-05-08T08:46:20.590Z</time>
      </trkpt>
      <trkpt lat="46.97277" lon="6.87503">
        <ele>430.4</ele>
        <time>2021-05-08T08:46:22.299Z</time>
      </trkpt>
      <trkpt lat="46.97271" lon="6.87505">
        <ele>430.3</ele>
        <time>2021-05-08T08:46:24.350Z</time>
      </trkpt>
      <trkpt lat="46.97269" lon="6.87506">
        <ele>430.3</ele>
        <time>2021-05-08T08:46:26.531Z</time>
      </trkpt>
      <trkpt lat="46.97269" lon="6.87507">
        <ele>430.3</ele>
        <time>2021-05-08T08:46:27.236Z</time>
      </trkpt>
      <trkpt lat="46.97271" lon="6.87517">
        <ele>429.9</ele>
        <time>2021-05-08T08:46:28.825Z</time>
      </trkpt>
      <trkpt lat="46.97272" lon="6.87522">
        <ele>429.5</ele>
        <time>2021-05-08T08:46:29.624Z</time>
      </trkpt>
      <trkpt lat="46.97272" lon="6.87523">
        <ele>429.5</ele>
        <time>2021-05-08T08:46:30.329Z</time>
      </trkpt>
      <trkpt lat="46.97272" lon="6.87524">
        <ele>429.5</ele>
        <time>2021-05-08T08:46:31.033Z</time>
      </trkpt>
      <trkpt lat="46.97271" lon="6.87525">
        <ele>429.6</ele>
        <time>2021-05-08T08:46:33.812Z</time>
      </trkpt>
      <trkpt lat="46.97269" lon="6.87524">
        <ele>429.6</ele>
        <time>2021-05-08T08:46:35.994Z</time>
      </trkpt>
      <trkpt lat="46.97264" lon="6.87512">
        <ele>428.4</ele>
        <time>2021-05-08T08:46:38.150Z</time>
      </trkpt>
      <trkpt lat="46.97263" lon="6.87509">
        <ele>428.2</ele>
        <time>2021-05-08T08:46:38.662Z</time>
      </trkpt>
      <trkpt lat="46.97262" lon="6.87508">
        <ele>428.3</ele>
        <time>2021-05-08T08:46:41.441Z</time>
      </trkpt>
      <trkpt lat="46.97261" lon="6.87507">
        <ele>428.5</ele>
        <time>2021-05-08T08:46:46.262Z</time>
      </trkpt>
      <trkpt lat="46.97211" lon="6.87552">
        <ele>431.2</ele>
        <time>2021-05-08T08:48:29.488Z</time>
      </trkpt>
      <trkpt lat="46.9721" lon="6.87553">
        <ele>429</ele>
        <time>2021-05-08T08:48:29.760Z</time>
      </trkpt>
      <trkpt lat="46.97209" lon="6.87552">
        <ele>429.1</ele>
        <time>2021-05-08T08:48:32.539Z</time>
      </trkpt>
      <trkpt lat="46.97208" lon="6.87551">
        <ele>429.1</ele>
        <time>2021-05-08T08:48:33.789Z</time>
      </trkpt>
      <trkpt lat="46.97205" lon="6.87544">
        <ele>429.70106361784</ele>
        <time>2021-05-08T08:48:49.966Z</time>
      </trkpt>
      <trkpt lat="46.97202" lon="6.87542">
        <ele>429.9</ele>
        <time>2021-05-08T08:48:56.349Z</time>
      </trkpt>
      <trkpt lat="46.97197" lon="6.87537">
        <ele>430.6</ele>
        <time>2021-05-08T08:49:15.523Z</time>
      </trkpt>
      <trkpt lat="46.97195" lon="6.87536">
        <ele>430.6</ele>
        <time>2021-05-08T08:49:17.704Z</time>
      </trkpt>
      <trkpt lat="46.97192" lon="6.87537">
        <ele>430.6</ele>
        <time>2021-05-08T08:49:20.880Z</time>
      </trkpt>
      <trkpt lat="46.97189" lon="6.87538">
        <ele>430.6</ele>
        <time>2021-05-08T08:49:24.057Z</time>
      </trkpt>
      <trkpt lat="46.97186" lon="6.8754">
        <ele>430.6</ele>
        <time>2021-05-08T08:49:27.459Z</time>
      </trkpt>
      <trkpt lat="46.97182" lon="6.87533">
        <ele>430.7</ele>
        <time>2021-05-08T08:49:35.000Z</time>
      </trkpt>
      <trkpt lat="46.97179" lon="6.87526">
        <ele>430.9</ele>
        <time>2021-05-08T08:49:43.624Z</time>
      </trkpt>
      <trkpt lat="46.97177" lon="6.87522">
        <ele>430.9</ele>
        <time>2021-05-08T08:49:47.117Z</time>
      </trkpt>
      <trkpt lat="46.97178" lon="6.87523">
        <ele>430.9</ele>
        <time>2021-05-08T08:49:47.993Z</time>
      </trkpt>
      <trkpt lat="46.97177" lon="6.87522">
        <ele>430.9</ele>
        <time>2021-05-08T08:49:48.868Z</time>
      </trkpt>
      <trkpt lat="46.97174" lon="6.87513">
        <ele>431.19888937077</ele>
        <time>2021-05-08T08:50:00.639Z</time>
      </trkpt>
      <trkpt lat="46.9717" lon="6.87504">
        <ele>431.2</ele>
        <time>2021-05-08T08:50:08.216Z</time>
      </trkpt>
      <trkpt lat="46.97162" lon="6.87508">
        <ele>431.2</ele>
        <time>2021-05-08T08:50:16.943Z</time>
      </trkpt>
      <trkpt lat="46.97158" lon="6.8751">
        <ele>431.2</ele>
        <time>2021-05-08T08:50:21.306Z</time>
      </trkpt>
      <trkpt lat="46.97154" lon="6.87511">
        <ele>431.1</ele>
        <time>2021-05-08T08:50:22.532Z</time>
      </trkpt>
      <trkpt lat="46.97147" lon="6.87511">
        <ele>430.99994557143</ele>
        <time>2021-05-08T08:50:24.922Z</time>
      </trkpt>
      <trkpt lat="46.97142" lon="6.87511">
        <ele>430.90068817857</ele>
        <time>2021-05-08T08:50:26.518Z</time>
      </trkpt>
      <trkpt lat="46.97136" lon="6.87514">
        <ele>430.89933337514</ele>
        <time>2021-05-08T08:50:33.041Z</time>
      </trkpt>
      <trkpt lat="46.97131" lon="6.87517">
        <ele>430.8</ele>
        <time>2021-05-08T08:50:34.796Z</time>
      </trkpt>
      <trkpt lat="46.97128" lon="6.87521">
        <ele>430.8</ele>
        <time>2021-05-08T08:50:38.983Z</time>
      </trkpt>
      <trkpt lat="46.97126" lon="6.87525">
        <ele>430.8</ele>
        <time>2021-05-08T08:50:42.476Z</time>
      </trkpt>
      <trkpt lat="46.97125" lon="6.87527">
        <ele>430.8</ele>
        <time>2021-05-08T08:50:44.223Z</time>
      </trkpt>
      <trkpt lat="46.97125" lon="6.8753">
        <ele>430.8</ele>
        <time>2021-05-08T08:50:46.336Z</time>
      </trkpt>
      <trkpt lat="46.97119" lon="6.8753">
        <ele>430.8</ele>
        <time>2021-05-08T08:50:52.531Z</time>
      </trkpt>
      <trkpt lat="46.97119" lon="6.87526">
        <ele>430.9</ele>
        <time>2021-05-08T08:50:56.772Z</time>
      </trkpt>
      <trkpt lat="46.97106" lon="6.87487">
        <ele>430.7</ele>
        <time>2021-05-08T08:51:24.482Z</time>
      </trkpt>
      <trkpt lat="46.97105" lon="6.87485">
        <ele>430.7</ele>
        <time>2021-05-08T08:51:26.229Z</time>
      </trkpt>
      <trkpt lat="46.97103" lon="6.87482">
        <ele>430.7</ele>
        <time>2021-05-08T08:51:29.183Z</time>
      </trkpt>
      <trkpt lat="46.971" lon="6.87474">
        <ele>430.6</ele>
        <time>2021-05-08T08:51:31.264Z</time>
      </trkpt>
      <trkpt lat="46.97093" lon="6.87454">
        <ele>430.6</ele>
        <time>2021-05-08T08:51:47.099Z</time>
      </trkpt>
      <trkpt lat="46.97092" lon="6.87444">
        <ele>430.5937988503</ele>
        <time>2021-05-08T08:51:54.122Z</time>
      </trkpt>
      <trkpt lat="46.97091" lon="6.8744">
        <ele>429.70715353605</ele>
        <time>2021-05-08T08:51:54.775Z</time>
      </trkpt>
      <trkpt lat="46.97088" lon="6.87431">
        <ele>430.69223177436</ele>
        <time>2021-05-08T08:52:21.992Z</time>
      </trkpt>
      <trkpt lat="46.97075" lon="6.87399">
        <ele>430.7</ele>
        <time>2021-05-08T08:52:48.301Z</time>
      </trkpt>
      <trkpt lat="46.97062" lon="6.8737">
        <ele>430.79997479063</ele>
        <time>2021-05-08T08:53:13.729Z</time>
      </trkpt>
      <trkpt lat="46.97058" lon="6.87359">
        <ele>430.70008615792</ele>
        <time>2021-05-08T08:53:16.729Z</time>
      </trkpt>
      <trkpt lat="46.97054" lon="6.87348">
        <ele>430.8</ele>
        <time>2021-05-08T08:53:26.568Z</time>
      </trkpt>
      <trkpt lat="46.97054" lon="6.87343">
        <ele>430.8</ele>
        <time>2021-05-08T08:53:30.091Z</time>
      </trkpt>
      <trkpt lat="46.97048" lon="6.87343">
        <ele>430.89863999518</ele>
        <time>2021-05-08T08:53:37.383Z</time>
      </trkpt>
      <trkpt lat="46.97044" lon="6.87344">
        <ele>430.70051838476</ele>
        <time>2021-05-08T08:53:38.349Z</time>
      </trkpt>
      <trkpt lat="46.97039" lon="6.87348">
        <ele>430.7</ele>
        <time>2021-05-08T08:53:44.222Z</time>
      </trkpt>
      <trkpt lat="46.97034" lon="6.87353">
        <ele>430.40270936943</ele>
        <time>2021-05-08T08:53:45.660Z</time>
      </trkpt>
      <trkpt lat="46.97024" lon="6.87365">
        <ele>430.59945476976</ele>
        <time>2021-05-08T08:54:01.165Z</time>
      </trkpt>
      <trkpt lat="46.97016" lon="6.87376">
        <ele>430.39996765496</ele>
        <time>2021-05-08T08:54:04.736Z</time>
      </trkpt>
      <trkpt lat="46.97008" lon="6.87387">
        <ele>430.3</ele>
        <time>2021-05-08T08:54:08.742Z</time>
      </trkpt>
      <trkpt lat="46.97005" lon="6.87391">
        <ele>430.4</ele>
        <time>2021-05-08T08:54:14.151Z</time>
      </trkpt>
      <trkpt lat="46.97006" lon="6.87391">
        <ele>430.3</ele>
        <time>2021-05-08T08:54:14.299Z</time>
      </trkpt>
      <trkpt lat="46.97005" lon="6.87391">
        <ele>430.4</ele>
        <time>2021-05-08T08:54:16.913Z</time>
      </trkpt>
      <trkpt lat="46.97001" lon="6.87396">
        <ele>430.4</ele>
        <time>2021-05-08T08:54:22.341Z</time>
      </trkpt>
      <trkpt lat="46.96986" lon="6.87415">
        <ele>430.2</ele>
        <time>2021-05-08T08:54:29.489Z</time>
      </trkpt>
      <trkpt lat="46.96983" lon="6.87417">
        <ele>430.2</ele>
        <time>2021-05-08T08:54:32.891Z</time>
      </trkpt>
      <trkpt lat="46.96976" lon="6.87419">
        <ele>430.2</ele>
        <time>2021-05-08T08:54:40.254Z</time>
      </trkpt>
      <trkpt lat="46.96971" lon="6.8742">
        <ele>430.2</ele>
        <time>2021-05-08T08:54:45.464Z</time>
      </trkpt>
      <trkpt lat="46.96964" lon="6.87419">
        <ele>430.2004544411</ele>
        <time>2021-05-08T08:54:52.729Z</time>
      </trkpt>
      <trkpt lat="46.96958" lon="6.87417">
        <ele>430.29977622929</ele>
        <time>2021-05-08T08:55:00.184Z</time>
      </trkpt>
      <trkpt lat="46.96941" lon="6.8741">
        <ele>430.3</ele>
        <time>2021-05-08T08:55:18.416Z</time>
      </trkpt>
      <trkpt lat="46.96937" lon="6.87409">
        <ele>430.200032276</ele>
        <time>2021-05-08T08:55:19.642Z</time>
      </trkpt>
      <trkpt lat="46.96924" lon="6.87406">
        <ele>429.89942041071</ele>
        <time>2021-05-08T08:55:23.700Z</time>
      </trkpt>
      <trkpt lat="46.96919" lon="6.87406">
        <ele>429.80016305357</ele>
        <time>2021-05-08T08:55:25.295Z</time>
      </trkpt>
      <trkpt lat="46.9691" lon="6.87404">
        <ele>430</ele>
        <time>2021-05-08T08:55:37.058Z</time>
      </trkpt>
      <trkpt lat="46.96905" lon="6.87401">
        <ele>429.9</ele>
        <time>2021-05-08T08:55:38.810Z</time>
      </trkpt>
      <trkpt lat="46.96901" lon="6.87397">
        <ele>429.9</ele>
        <time>2021-05-08T08:55:43.810Z</time>
      </trkpt>
      <trkpt lat="46.96896" lon="6.87393">
        <ele>429.9</ele>
        <time>2021-05-08T08:55:49.691Z</time>
      </trkpt>
      <trkpt lat="46.96889" lon="6.8739">
        <ele>430.1</ele>
        <time>2021-05-08T08:55:59.746Z</time>
      </trkpt>
      <trkpt lat="46.96885" lon="6.87388">
        <ele>429.90035691902</ele>
        <time>2021-05-08T08:56:00.766Z</time>
      </trkpt>
      <trkpt lat="46.9688" lon="6.87384">
        <ele>430</ele>
        <time>2021-05-08T08:56:07.769Z</time>
      </trkpt>
      <trkpt lat="46.96872" lon="6.8738">
        <ele>429.9</ele>
        <time>2021-05-08T08:56:10.748Z</time>
      </trkpt>
      <trkpt lat="46.96866" lon="6.87378">
        <ele>429.9</ele>
        <time>2021-05-08T08:56:17.100Z</time>
      </trkpt>
      <trkpt lat="46.96856" lon="6.87375">
        <ele>430</ele>
        <time>2021-05-08T08:56:28.677Z</time>
      </trkpt>
      <trkpt lat="46.96852" lon="6.87373">
        <ele>430</ele>
        <time>2021-05-08T08:56:33.040Z</time>
      </trkpt>
      <trkpt lat="46.96846" lon="6.8737">
        <ele>430</ele>
        <time>2021-05-08T08:56:39.585Z</time>
      </trkpt>
      <trkpt lat="46.96839" lon="6.87366">
        <ele>429.9</ele>
        <time>2021-05-08T08:56:42.183Z</time>
      </trkpt>
      <trkpt lat="46.96832" lon="6.87361">
        <ele>429.9</ele>
        <time>2021-05-08T08:56:50.222Z</time>
      </trkpt>
      <trkpt lat="46.96812" lon="6.87351">
        <ele>429.9</ele>
        <time>2021-05-08T08:57:12.039Z</time>
      </trkpt>
      <trkpt lat="46.96807" lon="6.87347">
        <ele>429.9</ele>
        <time>2021-05-08T08:57:17.920Z</time>
      </trkpt>
      <trkpt lat="46.96804" lon="6.87344">
        <ele>429.9</ele>
        <time>2021-05-08T08:57:21.669Z</time>
      </trkpt>
      <trkpt lat="46.96801" lon="6.87339">
        <ele>429.60135473103</ele>
        <time>2021-05-08T08:57:22.611Z</time>
      </trkpt>
      <trkpt lat="46.96796" lon="6.87336">
        <ele>429.8</ele>
        <time>2021-05-08T08:57:31.022Z</time>
      </trkpt>
      <trkpt lat="46.96793" lon="6.87336">
        <ele>429.8</ele>
        <time>2021-05-08T08:57:34.119Z</time>
      </trkpt>
      <trkpt lat="46.96791" lon="6.87337">
        <ele>429.8</ele>
        <time>2021-05-08T08:57:36.300Z</time>
      </trkpt>
      <trkpt lat="46.96788" lon="6.87338">
        <ele>429.8</ele>
        <time>2021-05-08T08:57:39.477Z</time>
      </trkpt>
      <trkpt lat="46.96785" lon="6.87338">
        <ele>429.8</ele>
        <time>2021-05-08T08:57:42.574Z</time>
      </trkpt>
      <trkpt lat="46.96781" lon="6.87336">
        <ele>429.9</ele>
        <time>2021-05-08T08:57:48.144Z</time>
      </trkpt>
      <trkpt lat="46.96776" lon="6.87332">
        <ele>429.9</ele>
        <time>2021-05-08T08:57:54.025Z</time>
      </trkpt>
      <trkpt lat="46.96768" lon="6.87328">
        <ele>429.9</ele>
        <time>2021-05-08T08:58:02.752Z</time>
      </trkpt>
      <trkpt lat="46.96761" lon="6.87322">
        <ele>429.9</ele>
        <time>2021-05-08T08:58:11.124Z</time>
      </trkpt>
      <trkpt lat="46.96756" lon="6.87318">
        <ele>430</ele>
        <time>2021-05-08T08:58:18.132Z</time>
      </trkpt>
      <trkpt lat="46.96749" lon="6.87311">
        <ele>430.19914995467</ele>
        <time>2021-05-08T08:58:29.281Z</time>
      </trkpt>
      <trkpt lat="46.96741" lon="6.87305">
        <ele>430.30063988193</ele>
        <time>2021-05-08T08:58:39.629Z</time>
      </trkpt>
      <trkpt lat="46.96735" lon="6.87302">
        <ele>430.49876037749</ele>
        <time>2021-05-08T08:58:48.799Z</time>
      </trkpt>
      <trkpt lat="46.96724" lon="6.87298">
        <ele>430.2</ele>
        <time>2021-05-08T08:58:52.159Z</time>
      </trkpt>
      <trkpt lat="46.96718" lon="6.87298">
        <ele>430.2</ele>
        <time>2021-05-08T08:58:58.354Z</time>
      </trkpt>
      <trkpt lat="46.96712" lon="6.87296">
        <ele>430.1</ele>
        <time>2021-05-08T08:59:00.404Z</time>
      </trkpt>
      <trkpt lat="46.96705" lon="6.87292">
        <ele>430.2</ele>
        <time>2021-05-08T08:59:09.238Z</time>
      </trkpt>
      <trkpt lat="46.967" lon="6.87291">
        <ele>430.30038513333</ele>
        <time>2021-05-08T08:59:15.608Z</time>
      </trkpt>
      <trkpt lat="46.96696" lon="6.87291">
        <ele>430.39920128889</ele>
        <time>2021-05-08T08:59:20.946Z</time>
      </trkpt>
      <trkpt lat="46.96685" lon="6.87298">
        <ele>430.4</ele>
        <time>2021-05-08T08:59:33.334Z</time>
      </trkpt>
      <trkpt lat="46.96673" lon="6.87309">
        <ele>430.4</ele>
        <time>2021-05-08T08:59:47.947Z</time>
      </trkpt>
      <trkpt lat="46.96667" lon="6.87315">
        <ele>430.39963119702</ele>
        <time>2021-05-08T08:59:55.440Z</time>
      </trkpt>
      <trkpt lat="46.96663" lon="6.87319">
        <ele>430.3</ele>
        <time>2021-05-08T08:59:56.973Z</time>
      </trkpt>
      <trkpt lat="46.96664" lon="6.8732">
        <ele>430.3</ele>
        <time>2021-05-08T08:59:57.780Z</time>
      </trkpt>
      <trkpt lat="46.96663" lon="6.87319">
        <ele>430.3</ele>
        <time>2021-05-08T08:59:58.587Z</time>
      </trkpt>
      <trkpt lat="46.96651" lon="6.87334">
        <ele>430.4</ele>
        <time>2021-05-08T09:00:15.874Z</time>
      </trkpt>
      <trkpt lat="46.96646" lon="6.87348">
        <ele>430.2</ele>
        <time>2021-05-08T09:00:19.369Z</time>
      </trkpt>
      <trkpt lat="46.96641" lon="6.87352">
        <ele>430.2</ele>
        <time>2021-05-08T09:00:25.250Z</time>
      </trkpt>
      <trkpt lat="46.96629" lon="6.8737">
        <ele>430.1</ele>
        <time>2021-05-08T09:00:41.527Z</time>
      </trkpt>
      <trkpt lat="46.96613" lon="6.87387">
        <ele>430.3</ele>
        <time>2021-05-08T09:01:04.015Z</time>
      </trkpt>
      <trkpt lat="46.966" lon="6.874">
        <ele>430.3</ele>
        <time>2021-05-08T09:01:20.263Z</time>
      </trkpt>
      <trkpt lat="46.9659" lon="6.87405">
        <ele>430.4</ele>
        <time>2021-05-08T09:01:32.207Z</time>
      </trkpt>
      <trkpt lat="46.96573" lon="6.87409">
        <ele>430.5</ele>
        <time>2021-05-08T09:01:50.981Z</time>
      </trkpt>
      <trkpt lat="46.96545" lon="6.8741">
        <ele>430.7</ele>
        <time>2021-05-08T09:02:21.920Z</time>
      </trkpt>
      <trkpt lat="46.96529" lon="6.87411">
        <ele>430.7</ele>
        <time>2021-05-08T09:02:38.453Z</time>
      </trkpt>
      <trkpt lat="46.96526" lon="6.87412">
        <ele>430.7</ele>
        <time>2021-05-08T09:02:41.629Z</time>
      </trkpt>
      <trkpt lat="46.9652" lon="6.87418">
        <ele>430.59980212846</ele>
        <time>2021-05-08T09:02:44.125Z</time>
      </trkpt>
      <trkpt lat="46.96517" lon="6.87423">
        <ele>430.5</ele>
        <time>2021-05-08T09:02:45.540Z</time>
      </trkpt>
      <trkpt lat="46.96516" lon="6.87426">
        <ele>430.40148981231</ele>
        <time>2021-05-08T09:02:46.110Z</time>
      </trkpt>
      <trkpt lat="46.96513" lon="6.87427">
        <ele>430.5</ele>
        <time>2021-05-08T09:02:50.605Z</time>
      </trkpt>
      <trkpt lat="46.96506" lon="6.87427">
        <ele>430.39965522414</ele>
        <time>2021-05-08T09:02:52.994Z</time>
      </trkpt>
      <trkpt lat="46.96499" lon="6.87426">
        <ele>430.3</ele>
        <time>2021-05-08T09:02:55.399Z</time>
      </trkpt>
      <trkpt lat="46.96479" lon="6.8742">
        <ele>430.2997781789</ele>
        <time>2021-05-08T09:03:16.471Z</time>
      </trkpt>
      <trkpt lat="46.96475" lon="6.87417">
        <ele>430.2</ele>
        <time>2021-05-08T09:03:17.867Z</time>
      </trkpt>
      <trkpt lat="46.96472" lon="6.87412">
        <ele>430.40030070039</ele>
        <time>2021-05-08T09:03:25.734Z</time>
      </trkpt>
      <trkpt lat="46.96469" lon="6.87408">
        <ele>430.8</ele>
        <time>2021-05-08T09:03:36.471Z</time>
      </trkpt>
      <trkpt lat="46.96467" lon="6.87407">
        <ele>430.60191776642</ele>
        <time>2021-05-08T09:03:36.946Z</time>
      </trkpt>
      <trkpt lat="46.9644" lon="6.87407">
        <ele>430</ele>
        <time>2021-05-08T09:03:45.323Z</time>
      </trkpt>
      <trkpt lat="46.9642" lon="6.87407">
        <ele>429.90022835051</ele>
        <time>2021-05-08T09:04:04.505Z</time>
      </trkpt>
      <trkpt lat="46.9641" lon="6.87407">
        <ele>430</ele>
        <time>2021-05-08T09:04:15.867Z</time>
      </trkpt>
      <trkpt lat="46.96395" lon="6.87406">
        <ele>430</ele>
        <time>2021-05-08T09:04:31.369Z</time>
      </trkpt>
      <trkpt lat="46.96381" lon="6.87403">
        <ele>430.1</ele>
        <time>2021-05-08T09:04:46.987Z</time>
      </trkpt>
      <trkpt lat="46.96373" lon="6.87401">
        <ele>430</ele>
        <time>2021-05-08T09:04:49.828Z</time>
      </trkpt>
      <trkpt lat="46.96365" lon="6.87398">
        <ele>430.1</ele>
        <time>2021-05-08T09:04:59.417Z</time>
      </trkpt>
      <trkpt lat="46.96358" lon="6.87394">
        <ele>430.1</ele>
        <time>2021-05-08T09:05:07.174Z</time>
      </trkpt>
      <trkpt lat="46.96354" lon="6.87386">
        <ele>430.4</ele>
        <time>2021-05-08T09:05:18.937Z</time>
      </trkpt>
      <trkpt lat="46.96351" lon="6.8738">
        <ele>430.4</ele>
        <time>2021-05-08T09:05:24.178Z</time>
      </trkpt>
      <trkpt lat="46.96348" lon="6.87371">
        <ele>430.10224780923</ele>
        <time>2021-05-08T09:05:25.884Z</time>
      </trkpt>
      <trkpt lat="46.96342" lon="6.8736">
        <ele>430.1</ele>
        <time>2021-05-08T09:05:35.770Z</time>
      </trkpt>
      <trkpt lat="46.96334" lon="6.87347">
        <ele>430.2</ele>
        <time>2021-05-08T09:05:49.127Z</time>
      </trkpt>
      <trkpt lat="46.96329" lon="6.87341">
        <ele>430.20062665975</ele>
        <time>2021-05-08T09:05:55.805Z</time>
      </trkpt>
      <trkpt lat="46.96324" lon="6.87337">
        <ele>430.3</ele>
        <time>2021-05-08T09:06:02.805Z</time>
      </trkpt>
      <trkpt lat="46.9632" lon="6.87333">
        <ele>430.6</ele>
        <time>2021-05-08T09:06:12.290Z</time>
      </trkpt>
      <trkpt lat="46.96318" lon="6.87332">
        <ele>430.6</ele>
        <time>2021-05-08T09:06:14.471Z</time>
      </trkpt>
      <trkpt lat="46.96317" lon="6.8733">
        <ele>430.6</ele>
        <time>2021-05-08T09:06:16.218Z</time>
      </trkpt>
      <trkpt lat="46.96309" lon="6.87328">
        <ele>430.50014752134</ele>
        <time>2021-05-08T09:06:19.060Z</time>
      </trkpt>
      <trkpt lat="46.96301" lon="6.87326">
        <ele>430.40036515849</ele>
        <time>2021-05-08T09:06:21.902Z</time>
      </trkpt>
      <trkpt lat="46.96293" lon="6.87323">
        <ele>430.40127065842</ele>
        <time>2021-05-08T09:06:30.436Z</time>
      </trkpt>
      <trkpt lat="46.96286" lon="6.87322">
        <ele>430.6</ele>
        <time>2021-05-08T09:06:40.233Z</time>
      </trkpt>
      <trkpt lat="46.96272" lon="6.87318">
        <ele>430.8</ele>
        <time>2021-05-08T09:06:57.128Z</time>
      </trkpt>
      <trkpt lat="46.96272" lon="6.87318">
        <ele>430.8</ele>
        <time>2021-05-08T09:06:57.425Z</time>
      </trkpt>
      <trkpt lat="46.9626" lon="6.87338">
        <ele>430.09948489308</ele>
        <time>2021-05-08T09:07:02.155Z</time>
      </trkpt>
      <trkpt lat="46.96217" lon="6.87344">
        <ele>429.7</ele>
        <time>2021-05-08T09:07:17.955Z</time>
      </trkpt>
      <trkpt lat="46.96175" lon="6.87352">
        <ele>429.9</ele>
        <time>2021-05-08T09:08:03.930Z</time>
      </trkpt>
      <trkpt lat="46.96141" lon="6.87367">
        <ele>429.7</ele>
        <time>2021-05-08T09:08:36.859Z</time>
      </trkpt>
      <trkpt lat="46.96098" lon="6.87386">
        <ele>429.60055792959</ele>
        <time>2021-05-08T09:09:21.758Z</time>
      </trkpt>
      <trkpt lat="46.96065" lon="6.87393">
        <ele>430.1</ele>
        <time>2021-05-08T09:10:01.896Z</time>
      </trkpt>
      <trkpt lat="46.9604" lon="6.874">
        <ele>430.2</ele>
        <time>2021-05-08T09:10:29.287Z</time>
      </trkpt>
      <trkpt lat="46.9602" lon="6.87404">
        <ele>430.2</ele>
        <time>2021-05-08T09:10:49.916Z</time>
      </trkpt>
      <trkpt lat="46.9602" lon="6.87404">
        <ele>430.2</ele>
        <time>2021-05-08T09:10:50.005Z</time>
      </trkpt>
      <trkpt lat="46.96018" lon="6.87404">
        <ele>430.2</ele>
        <time>2021-05-08T09:10:52.070Z</time>
      </trkpt>
      <trkpt lat="46.96011" lon="6.87405">
        <ele>430.1000752061</ele>
        <time>2021-05-08T09:10:54.474Z</time>
      </trkpt>
      <trkpt lat="46.95999" lon="6.87408">
        <ele>430.10108228889</ele>
        <time>2021-05-08T09:11:07.051Z</time>
      </trkpt>
      <trkpt lat="46.95995" lon="6.87408">
        <ele>430.19989833333</ele>
        <time>2021-05-08T09:11:12.388Z</time>
      </trkpt>
      <trkpt lat="46.9599" lon="6.87405">
        <ele>430.50085239635</ele>
        <time>2021-05-08T09:11:22.520Z</time>
      </trkpt>
      <trkpt lat="46.95986" lon="6.87405">
        <ele>430.6</ele>
        <time>2021-05-08T09:11:27.863Z</time>
      </trkpt>
      <trkpt lat="46.95982" lon="6.87406">
        <ele>430.70110871651</ele>
        <time>2021-05-08T09:11:33.291Z</time>
      </trkpt>
      <trkpt lat="46.95979" lon="6.87406">
        <ele>430.79913419965</ele>
        <time>2021-05-08T09:11:37.711Z</time>
      </trkpt>
      <trkpt lat="46.95975" lon="6.87404">
        <ele>431.39727061314</ele>
        <time>2021-05-08T09:11:54.541Z</time>
      </trkpt>
      <trkpt lat="46.95973" lon="6.87403">
        <ele>431.2</ele>
        <time>2021-05-08T09:11:55.016Z</time>
      </trkpt>
      <trkpt lat="46.95974" lon="6.87404">
        <ele>431.2</ele>
        <time>2021-05-08T09:11:56.088Z</time>
      </trkpt>
      <trkpt lat="46.95973" lon="6.87403">
        <ele>431.2</ele>
        <time>2021-05-08T09:11:57.159Z</time>
      </trkpt>
      <trkpt lat="46.95972" lon="6.87402">
        <ele>431.3</ele>
        <time>2021-05-08T09:11:59.938Z</time>
      </trkpt>
      <trkpt lat="46.95967" lon="6.87399">
        <ele>431.4</ele>
        <time>2021-05-08T09:12:06.655Z</time>
      </trkpt>
      <trkpt lat="46.95964" lon="6.87399">
        <ele>431.4</ele>
        <time>2021-05-08T09:12:09.752Z</time>
      </trkpt>
      <trkpt lat="46.95961" lon="6.874">
        <ele>431.2</ele>
        <time>2021-05-08T09:12:10.394Z</time>
      </trkpt>
      <trkpt lat="46.95955" lon="6.87404">
        <ele>431.19926715234</ele>
        <time>2021-05-08T09:12:17.187Z</time>
      </trkpt>
      <trkpt lat="46.9595" lon="6.87406">
        <ele>431.1</ele>
        <time>2021-05-08T09:12:18.855Z</time>
      </trkpt>
      <trkpt lat="46.95945" lon="6.87408">
        <ele>431.1</ele>
        <time>2021-05-08T09:12:24.206Z</time>
      </trkpt>
      <trkpt lat="46.9594" lon="6.87408">
        <ele>431.2</ele>
        <time>2021-05-08T09:12:30.526Z</time>
      </trkpt>
      <trkpt lat="46.95919" lon="6.87409">
        <ele>431.1</ele>
        <time>2021-05-08T09:12:50.743Z</time>
      </trkpt>
      <trkpt lat="46.95912" lon="6.87402">
        <ele>431.30010259564</ele>
        <time>2021-05-08T09:13:01.907Z</time>
      </trkpt>
      <trkpt lat="46.95905" lon="6.87397">
        <ele>431.4</ele>
        <time>2021-05-08T09:13:11.017Z</time>
      </trkpt>
      <trkpt lat="46.95898" lon="6.87394">
        <ele>431.4</ele>
        <time>2021-05-08T09:13:18.546Z</time>
      </trkpt>
      <trkpt lat="46.95892" lon="6.87393">
        <ele>431.39843590935</ele>
        <time>2021-05-08T09:13:24.756Z</time>
      </trkpt>
      <trkpt lat="46.9589" lon="6.87393">
        <ele>431.3</ele>
        <time>2021-05-08T09:13:25.231Z</time>
      </trkpt>
      <trkpt lat="46.95891" lon="6.87394">
        <ele>431.3</ele>
        <time>2021-05-08T09:13:26.081Z</time>
      </trkpt>
      <trkpt lat="46.9589" lon="6.87393">
        <ele>431.3</ele>
        <time>2021-05-08T09:13:26.931Z</time>
      </trkpt>
      <trkpt lat="46.95839" lon="6.87396">
        <ele>431.4</ele>
        <time>2021-05-08T09:14:20.588Z</time>
      </trkpt>
      <trkpt lat="46.95826" lon="6.87398">
        <ele>431.39975592761</ele>
        <time>2021-05-08T09:14:34.079Z</time>
      </trkpt>
      <trkpt lat="46.9582" lon="6.87401">
        <ele>431.3</ele>
        <time>2021-05-08T09:14:36.205Z</time>
      </trkpt>
      <trkpt lat="46.95815" lon="6.87403">
        <ele>431.3</ele>
        <time>2021-05-08T09:14:41.556Z</time>
      </trkpt>
      <trkpt lat="46.95808" lon="6.87407">
        <ele>431.5</ele>
        <time>2021-05-08T09:14:51.814Z</time>
      </trkpt>
      <trkpt lat="46.95801" lon="6.87406">
        <ele>431.20188614411</ele>
        <time>2021-05-08T09:14:53.589Z</time>
      </trkpt>
      <trkpt lat="46.95791" lon="6.87405">
        <ele>431.1</ele>
        <time>2021-05-08T09:14:57.199Z</time>
      </trkpt>
      <trkpt lat="46.9579" lon="6.87405">
        <ele>431.1</ele>
        <time>2021-05-08T09:14:58.231Z</time>
      </trkpt>
      <trkpt lat="46.95791" lon="6.87406">
        <ele>431.1</ele>
        <time>2021-05-08T09:14:58.808Z</time>
      </trkpt>
      <trkpt lat="46.9579" lon="6.87405">
        <ele>431.1</ele>
        <time>2021-05-08T09:14:59.386Z</time>
      </trkpt>
      <trkpt lat="46.95777" lon="6.87407">
        <ele>431.29932072469</ele>
        <time>2021-05-08T09:15:15.071Z</time>
      </trkpt>
      <trkpt lat="46.95773" lon="6.87408">
        <ele>431.20025951254</ele>
        <time>2021-05-08T09:15:16.300Z</time>
      </trkpt>
      <trkpt lat="46.9575" lon="6.87404">
        <ele>431.29920454245</ele>
        <time>2021-05-08T09:15:41.186Z</time>
      </trkpt>
      <trkpt lat="46.95746" lon="6.87404">
        <ele>431.2004214847</ele>
        <time>2021-05-08T09:15:42.394Z</time>
      </trkpt>
      <trkpt lat="46.95742" lon="6.87406">
        <ele>430.8</ele>
        <time>2021-05-08T09:15:43.344Z</time>
      </trkpt>
      <trkpt lat="46.95739" lon="6.87407">
        <ele>430.8</ele>
        <time>2021-05-08T09:15:46.520Z</time>
      </trkpt>
      <trkpt lat="46.95727" lon="6.87406">
        <ele>430.49987967807</ele>
        <time>2021-05-08T09:15:50.138Z</time>
      </trkpt>
      <trkpt lat="46.95716" lon="6.87406">
        <ele>430.4011529886</ele>
        <time>2021-05-08T09:15:54.163Z</time>
      </trkpt>
      <trkpt lat="46.95706" lon="6.87406">
        <ele>430.7</ele>
        <time>2021-05-08T09:16:08.378Z</time>
      </trkpt>
      <trkpt lat="46.95682" lon="6.87404">
        <ele>431</ele>
        <time>2021-05-08T09:16:36.398Z</time>
      </trkpt>
      <trkpt lat="46.95657" lon="6.87406">
        <ele>431.00074105882</ele>
        <time>2021-05-08T09:17:02.253Z</time>
      </trkpt>
      <trkpt lat="46.95655" lon="6.87405">
        <ele>431.09840784602</ele>
        <time>2021-05-08T09:17:05.976Z</time>
      </trkpt>
      <trkpt lat="46.95641" lon="6.87398">
        <ele>431.3</ele>
        <time>2021-05-08T09:17:23.426Z</time>
      </trkpt>
      <trkpt lat="46.95637" lon="6.87398">
        <ele>431.2</ele>
        <time>2021-05-08T09:17:24.630Z</time>
      </trkpt>
      <trkpt lat="46.95626" lon="6.87396">
        <ele>431.1</ele>
        <time>2021-05-08T09:17:28.683Z</time>
      </trkpt>
      <trkpt lat="46.95612" lon="6.87394">
        <ele>430.9</ele>
        <time>2021-05-08T09:17:33.490Z</time>
      </trkpt>
      <trkpt lat="46.95609" lon="6.87394">
        <ele>430.9</ele>
        <time>2021-05-08T09:17:36.588Z</time>
      </trkpt>
      <trkpt lat="46.95606" lon="6.87395">
        <ele>430.99885526885</ele>
        <time>2021-05-08T09:17:41.088Z</time>
      </trkpt>
      <trkpt lat="46.956" lon="6.87391">
        <ele>431.1</ele>
        <time>2021-05-08T09:17:49.007Z</time>
      </trkpt>
      <trkpt lat="46.95574" lon="6.8738">
        <ele>430.3</ele>
        <time>2021-05-08T09:17:56.759Z</time>
      </trkpt>
      <trkpt lat="46.95568" lon="6.87378">
        <ele>430.00060668613</ele>
        <time>2021-05-08T09:17:58.226Z</time>
      </trkpt>
      <trkpt lat="46.95564" lon="6.87376">
        <ele>430.2</ele>
        <time>2021-05-08T09:18:05.718Z</time>
      </trkpt>
      <trkpt lat="46.95565" lon="6.87376">
        <ele>430.2</ele>
        <time>2021-05-08T09:18:06.784Z</time>
      </trkpt>
      <trkpt lat="46.95564" lon="6.87376">
        <ele>430.2</ele>
        <time>2021-05-08T09:18:07.850Z</time>
      </trkpt>
      <trkpt lat="46.95564" lon="6.87375">
        <ele>430.49672676927</ele>
        <time>2021-05-08T09:18:10.568Z</time>
      </trkpt>
      <trkpt lat="46.95556" lon="6.87376">
        <ele>430.2</ele>
        <time>2021-05-08T09:18:12.701Z</time>
      </trkpt>
      <trkpt lat="46.95548" lon="6.87374">
        <ele>430.2</ele>
        <time>2021-05-08T09:18:21.080Z</time>
      </trkpt>
      <trkpt lat="46.9554" lon="6.87373">
        <ele>430.20069516981</ele>
        <time>2021-05-08T09:18:29.375Z</time>
      </trkpt>
      <trkpt lat="46.95535" lon="6.87371">
        <ele>430.39860470755</ele>
        <time>2021-05-08T09:18:37.604Z</time>
      </trkpt>
      <trkpt lat="46.95529" lon="6.87369">
        <ele>430.700534415</ele>
        <time>2021-05-08T09:18:48.645Z</time>
      </trkpt>
      <trkpt lat="46.95524" lon="6.87368">
        <ele>430.79971347</ele>
        <time>2021-05-08T09:18:54.999Z</time>
      </trkpt>
      <trkpt lat="46.95519" lon="6.87363">
        <ele>431.30069650998</ele>
        <time>2021-05-08T09:19:08.913Z</time>
      </trkpt>
      <trkpt lat="46.95516" lon="6.87362">
        <ele>431.7</ele>
        <time>2021-05-08T09:19:20.551Z</time>
      </trkpt>
      <trkpt lat="46.95512" lon="6.87359">
        <ele>431.401888204</ele>
        <time>2021-05-08T09:19:21.478Z</time>
      </trkpt>
      <trkpt lat="46.95507" lon="6.87355">
        <ele>431.59977395083</ele>
        <time>2021-05-08T09:19:30.104Z</time>
      </trkpt>
      <trkpt lat="46.95501" lon="6.87349">
        <ele>431.89399662294</ele>
        <time>2021-05-08T09:19:42.027Z</time>
      </trkpt>
      <trkpt lat="46.95497" lon="6.87346">
        <ele>431.00379114957</ele>
        <time>2021-05-08T09:19:43.037Z</time>
      </trkpt>
      <trkpt lat="46.95495" lon="6.87339">
        <ele>431</ele>
        <time>2021-05-08T09:19:48.325Z</time>
      </trkpt>
      <trkpt lat="46.95493" lon="6.8733">
        <ele>431.1</ele>
        <time>2021-05-08T09:19:56.097Z</time>
      </trkpt>
      <trkpt lat="46.9549" lon="6.8732">
        <ele>431.2</ele>
        <time>2021-05-08T09:20:04.872Z</time>
      </trkpt>
      <trkpt lat="46.95489" lon="6.87314">
        <ele>431.2</ele>
        <time>2021-05-08T09:20:09.224Z</time>
      </trkpt>
      <trkpt lat="46.95486" lon="6.87309">
        <ele>431.2</ele>
        <time>2021-05-08T09:20:13.916Z</time>
      </trkpt>
      <trkpt lat="46.95481" lon="6.87304">
        <ele>431.1</ele>
        <time>2021-05-08T09:20:15.926Z</time>
      </trkpt>
      <trkpt lat="46.95473" lon="6.87293">
        <ele>430.9</ele>
        <time>2021-05-08T09:20:19.496Z</time>
      </trkpt>
      <trkpt lat="46.95464" lon="6.8728">
        <ele>430.9</ele>
        <time>2021-05-08T09:20:32.544Z</time>
      </trkpt>
      <trkpt lat="46.9546" lon="6.87276">
        <ele>430.9</ele>
        <time>2021-05-08T09:20:37.544Z</time>
      </trkpt>
      <trkpt lat="46.9545" lon="6.87271">
        <ele>430.9</ele>
        <time>2021-05-08T09:20:48.452Z</time>
      </trkpt>
      <trkpt lat="46.95442" lon="6.87267">
        <ele>430.9</ele>
        <time>2021-05-08T09:20:57.179Z</time>
      </trkpt>
      <trkpt lat="46.95425" lon="6.87257">
        <ele>430.9</ele>
        <time>2021-05-08T09:21:16.092Z</time>
      </trkpt>
      <trkpt lat="46.95413" lon="6.87249">
        <ele>430.99980297847</ele>
        <time>2021-05-08T09:21:30.717Z</time>
      </trkpt>
      <trkpt lat="46.95403" lon="6.87239">
        <ele>430.9</ele>
        <time>2021-05-08T09:21:35.191Z</time>
      </trkpt>
      <trkpt lat="46.95392" lon="6.87234">
        <ele>431</ele>
        <time>2021-05-08T09:21:48.108Z</time>
      </trkpt>
      <trkpt lat="46.95381" lon="6.8723">
        <ele>430.9</ele>
        <time>2021-05-08T09:21:52.264Z</time>
      </trkpt>
      <trkpt lat="46.95374" lon="6.87229">
        <ele>430.80051492311</ele>
        <time>2021-05-08T09:21:54.670Z</time>
      </trkpt>
      <trkpt lat="46.95367" lon="6.87222">
        <ele>431.1</ele>
        <time>2021-05-08T09:22:07.607Z</time>
      </trkpt>
      <trkpt lat="46.95362" lon="6.87219">
        <ele>431.1</ele>
        <time>2021-05-08T09:22:13.185Z</time>
      </trkpt>
      <trkpt lat="46.95363" lon="6.87219">
        <ele>431.1</ele>
        <time>2021-05-08T09:22:13.987Z</time>
      </trkpt>
      <trkpt lat="46.95362" lon="6.87219">
        <ele>431.1</ele>
        <time>2021-05-08T09:22:14.789Z</time>
      </trkpt>
      <trkpt lat="46.95361" lon="6.87217">
        <ele>431.2</ele>
        <time>2021-05-08T09:22:18.037Z</time>
      </trkpt>
      <trkpt lat="46.95353" lon="6.87215">
        <ele>430.90041654503</ele>
        <time>2021-05-08T09:22:20.195Z</time>
      </trkpt>
      <trkpt lat="46.95349" lon="6.87212">
        <ele>430.99932878465</ele>
        <time>2021-05-08T09:22:26.006Z</time>
      </trkpt>
      <trkpt lat="46.95336" lon="6.87201">
        <ele>431</ele>
        <time>2021-05-08T09:22:41.511Z</time>
      </trkpt>
      <trkpt lat="46.95326" lon="6.87191">
        <ele>431.09998948217</ele>
        <time>2021-05-08T09:22:55.033Z</time>
      </trkpt>
      <trkpt lat="46.95317" lon="6.87185">
        <ele>431.00006951816</ele>
        <time>2021-05-08T09:22:58.597Z</time>
      </trkpt>
      <trkpt lat="46.95306" lon="6.87179">
        <ele>430.9</ele>
        <time>2021-05-08T09:23:02.918Z</time>
      </trkpt>
      <trkpt lat="46.95298" lon="6.87174">
        <ele>430.9</ele>
        <time>2021-05-08T09:23:11.897Z</time>
      </trkpt>
      <trkpt lat="46.95288" lon="6.87169">
        <ele>430.7</ele>
        <time>2021-05-08T09:23:15.307Z</time>
      </trkpt>
      <trkpt lat="46.95278" lon="6.87165">
        <ele>430.69944700811</ele>
        <time>2021-05-08T09:23:26.000Z</time>
      </trkpt>
      <trkpt lat="46.95271" lon="6.87162">
        <ele>430.60007061441</ele>
        <time>2021-05-08T09:23:28.511Z</time>
      </trkpt>
      <trkpt lat="46.95247" lon="6.87136">
        <ele>430.90022000611</ele>
        <time>2021-05-08T09:24:02.453Z</time>
      </trkpt>
      <trkpt lat="46.9524" lon="6.87131">
        <ele>431</ele>
        <time>2021-05-08T09:24:11.562Z</time>
      </trkpt>
      <trkpt lat="46.9523" lon="6.87127">
        <ele>430.9</ele>
        <time>2021-05-08T09:24:15.321Z</time>
      </trkpt>
      <trkpt lat="46.95214" lon="6.8712">
        <ele>430.9</ele>
        <time>2021-05-08T09:24:32.560Z</time>
      </trkpt>
      <trkpt lat="46.95206" lon="6.87117">
        <ele>430.7</ele>
        <time>2021-05-08T09:24:35.067Z</time>
      </trkpt>
      <trkpt lat="46.952" lon="6.87116">
        <ele>430.7</ele>
        <time>2021-05-08T09:24:41.301Z</time>
      </trkpt>
      <trkpt lat="46.95195" lon="6.87116">
        <ele>430.8</ele>
        <time>2021-05-08T09:24:47.621Z</time>
      </trkpt>
      <trkpt lat="46.95189" lon="6.87117">
        <ele>430.7</ele>
        <time>2021-05-08T09:24:49.625Z</time>
      </trkpt>
      <trkpt lat="46.9517" lon="6.87123">
        <ele>430.9</ele>
        <time>2021-05-08T09:25:11.779Z</time>
      </trkpt>
      <trkpt lat="46.95161" lon="6.87128">
        <ele>431.1</ele>
        <time>2021-05-08T09:25:24.052Z</time>
      </trkpt>
      <trkpt lat="46.95152" lon="6.87134">
        <ele>431.1</ele>
        <time>2021-05-08T09:25:34.261Z</time>
      </trkpt>
      <trkpt lat="46.95147" lon="6.87137">
        <ele>431.09957386667</ele>
        <time>2021-05-08T09:25:39.832Z</time>
      </trkpt>
      <trkpt lat="46.95143" lon="6.87139">
        <ele>430.30685456001</ele>
        <time>2021-05-08T09:25:40.782Z</time>
      </trkpt>
      <trkpt lat="46.95137" lon="6.8714">
        <ele>430.1</ele>
        <time>2021-05-08T09:25:42.430Z</time>
      </trkpt>
      <trkpt lat="46.95129" lon="6.87134">
        <ele>430.39990235596</ele>
        <time>2021-05-08T09:25:55.793Z</time>
      </trkpt>
      <trkpt lat="46.95126" lon="6.87134">
        <ele>430.3</ele>
        <time>2021-05-08T09:25:56.620Z</time>
      </trkpt>
      <trkpt lat="46.95123" lon="6.87136">
        <ele>430.1</ele>
        <time>2021-05-08T09:25:57.331Z</time>
      </trkpt>
      <trkpt lat="46.9512" lon="6.87136">
        <ele>430</ele>
        <time>2021-05-08T09:25:58.158Z</time>
      </trkpt>
      <trkpt lat="46.95107" lon="6.87126">
        <ele>430.3</ele>
        <time>2021-05-08T09:26:16.806Z</time>
      </trkpt>
      <trkpt lat="46.95101" lon="6.87122">
        <ele>430.59872100367</ele>
        <time>2021-05-08T09:26:28.352Z</time>
      </trkpt>
      <trkpt lat="46.95094" lon="6.8712">
        <ele>430.6</ele>
        <time>2021-05-08T09:26:35.727Z</time>
      </trkpt>
      <trkpt lat="46.95089" lon="6.87117">
        <ele>430.6</ele>
        <time>2021-05-08T09:26:41.305Z</time>
      </trkpt>
      <trkpt lat="46.95085" lon="6.87115">
        <ele>430.50004886679</ele>
        <time>2021-05-08T09:26:42.596Z</time>
      </trkpt>
      <trkpt lat="46.95077" lon="6.87113">
        <ele>430.7</ele>
        <time>2021-05-08T09:26:53.417Z</time>
      </trkpt>
      <trkpt lat="46.95077" lon="6.87114">
        <ele>430.7</ele>
        <time>2021-05-08T09:26:53.890Z</time>
      </trkpt>
      <trkpt lat="46.95077" lon="6.87113">
        <ele>430.7</ele>
        <time>2021-05-08T09:26:54.363Z</time>
      </trkpt>
      <trkpt lat="46.95073" lon="6.87112">
        <ele>430.9</ele>
        <time>2021-05-08T09:27:01.654Z</time>
      </trkpt>
      <trkpt lat="46.95067" lon="6.87113">
        <ele>430.6</ele>
        <time>2021-05-08T09:27:03.081Z</time>
      </trkpt>
      <trkpt lat="46.95059" lon="6.87109">
        <ele>431.19972820851</ele>
        <time>2021-05-08T09:27:20.768Z</time>
      </trkpt>
      <trkpt lat="46.95049" lon="6.87106">
        <ele>430.90044809072</ele>
        <time>2021-05-08T09:27:23.699Z</time>
      </trkpt>
      <trkpt lat="46.95038" lon="6.87104">
        <ele>430.5</ele>
        <time>2021-05-08T09:27:26.669Z</time>
      </trkpt>
      <trkpt lat="46.95028" lon="6.87105">
        <ele>429.60110772657</ele>
        <time>2021-05-08T09:27:28.922Z</time>
      </trkpt>
      <trkpt lat="46.9502" lon="6.87104">
        <ele>430</ele>
        <time>2021-05-08T09:27:43.386Z</time>
      </trkpt>
      <trkpt lat="46.95015" lon="6.87101">
        <ele>430.5</ele>
        <time>2021-05-08T09:27:56.908Z</time>
      </trkpt>
      <trkpt lat="46.95011" lon="6.87099">
        <ele>430.8</ele>
        <time>2021-05-08T09:28:05.754Z</time>
      </trkpt>
      <trkpt lat="46.95004" lon="6.87099">
        <ele>430.70040469499</ele>
        <time>2021-05-08T09:28:08.146Z</time>
      </trkpt>
      <trkpt lat="46.94997" lon="6.87096">
        <ele>429.90589269436</ele>
        <time>2021-05-08T09:28:09.785Z</time>
      </trkpt>
      <trkpt lat="46.94994" lon="6.87093">
        <ele>430.4031736789</ele>
        <time>2021-05-08T09:28:24.249Z</time>
      </trkpt>
      <trkpt lat="46.94992" lon="6.87089">
        <ele>431.8</ele>
        <time>2021-05-08T09:28:37.727Z</time>
      </trkpt>
      <trkpt lat="46.9499" lon="6.87089">
        <ele>431.8</ele>
        <time>2021-05-08T09:28:39.792Z</time>
      </trkpt>
      <trkpt lat="46.94987" lon="6.87089">
        <ele>431.69960084495</ele>
        <time>2021-05-08T09:28:40.617Z</time>
      </trkpt>
      <trkpt lat="46.94984" lon="6.87089">
        <ele>431.6</ele>
        <time>2021-05-08T09:28:41.445Z</time>
      </trkpt>
      <trkpt lat="46.94977" lon="6.8709">
        <ele>431.4</ele>
        <time>2021-05-08T09:28:43.484Z</time>
      </trkpt>
      <trkpt lat="46.94965" lon="6.87092">
        <ele>431.4</ele>
        <time>2021-05-08T09:28:55.953Z</time>
      </trkpt>
      <trkpt lat="46.94957" lon="6.87094">
        <ele>431.19957570945</ele>
        <time>2021-05-08T09:28:58.403Z</time>
      </trkpt>
      <trkpt lat="46.94955" lon="6.87096">
        <ele>430.6</ele>
        <time>2021-05-08T09:28:58.947Z</time>
      </trkpt>
      <trkpt lat="46.94942" lon="6.87097">
        <ele>431.3</ele>
        <time>2021-05-08T09:29:23.043Z</time>
      </trkpt>
      <trkpt lat="46.94926" lon="6.87099">
        <ele>430.7</ele>
        <time>2021-05-08T09:29:27.293Z</time>
      </trkpt>
      <trkpt lat="46.94917" lon="6.871">
        <ele>430.8</ele>
        <time>2021-05-08T09:29:37.664Z</time>
      </trkpt>
      <trkpt lat="46.94912" lon="6.871">
        <ele>429.9</ele>
        <time>2021-05-08T09:29:38.787Z</time>
      </trkpt>
      <trkpt lat="46.9491" lon="6.87088">
        <ele>430.20216789585</ele>
        <time>2021-05-08T09:29:51.746Z</time>
      </trkpt>
      <trkpt lat="46.94909" lon="6.87083">
        <ele>430.50301719308</ele>
        <time>2021-05-08T09:30:00.048Z</time>
      </trkpt>
      <trkpt lat="46.94907" lon="6.87079">
        <ele>430.90063029088</ele>
        <time>2021-05-08T09:30:11.000Z</time>
      </trkpt>
      <trkpt lat="46.94908" lon="6.87075">
        <ele>431.2</ele>
        <time>2021-05-08T09:30:19.038Z</time>
      </trkpt>
      <trkpt lat="46.9491" lon="6.8707">
        <ele>431.8</ele>
        <time>2021-05-08T09:30:34.791Z</time>
      </trkpt>
      <trkpt lat="46.94914" lon="6.8705">
        <ele>432.90011228653</ele>
        <time>2021-05-08T09:31:06.074Z</time>
      </trkpt>
      <trkpt lat="46.94917" lon="6.87038">
        <ele>433.1</ele>
        <time>2021-05-08T09:31:17.473Z</time>
      </trkpt>
      <trkpt lat="46.94924" lon="6.87014">
        <ele>433.3</ele>
        <time>2021-05-08T09:31:37.974Z</time>
      </trkpt>
      <trkpt lat="46.94931" lon="6.86999">
        <ele>433.4</ele>
        <time>2021-05-08T09:31:51.801Z</time>
      </trkpt>
      <trkpt lat="46.94939" lon="6.86985">
        <ele>433.4</ele>
        <time>2021-05-08T09:32:04.668Z</time>
      </trkpt>
      <trkpt lat="46.94952" lon="6.8697">
        <ele>433.4</ele>
        <time>2021-05-08T09:32:21.752Z</time>
      </trkpt>
      <trkpt lat="46.94957" lon="6.86963">
        <ele>433.40045336003</ele>
        <time>2021-05-08T09:32:28.897Z</time>
      </trkpt>
      <trkpt lat="46.9496" lon="6.86957">
        <ele>433.5</ele>
        <time>2021-05-08T09:32:35.285Z</time>
      </trkpt>
      <trkpt lat="46.94962" lon="6.86951">
        <ele>433.50005156666</ele>
        <time>2021-05-08T09:32:39.992Z</time>
      </trkpt>
      <trkpt lat="46.94962" lon="6.86947">
        <ele>433.6</ele>
        <time>2021-05-08T09:32:44.232Z</time>
      </trkpt>
      <trkpt lat="46.94962" lon="6.86942">
        <ele>433.6</ele>
        <time>2021-05-08T09:32:47.756Z</time>
      </trkpt>
      <trkpt lat="46.9496" lon="6.8693">
        <ele>433.7</ele>
        <time>2021-05-08T09:32:57.522Z</time>
      </trkpt>
      <trkpt lat="46.9496" lon="6.86914">
        <ele>433.8</ele>
        <time>2021-05-08T09:33:09.831Z</time>
      </trkpt>
      <trkpt lat="46.94961" lon="6.86907">
        <ele>433.90006133125</ele>
        <time>2021-05-08T09:33:16.036Z</time>
      </trkpt>
      <trkpt lat="46.94962" lon="6.86901">
        <ele>434.00007964786</ele>
        <time>2021-05-08T09:33:21.597Z</time>
      </trkpt>
      <trkpt lat="46.94965" lon="6.86897">
        <ele>434.09967483268</ele>
        <time>2021-05-08T09:33:27.000Z</time>
      </trkpt>
      <trkpt lat="46.94952" lon="6.86897">
        <ele>433.8</ele>
        <time>2021-05-08T09:33:30.998Z</time>
      </trkpt>
      <trkpt lat="46.94936" lon="6.86897">
        <ele>433.7</ele>
        <time>2021-05-08T09:33:46.073Z</time>
      </trkpt>
      <trkpt lat="46.94926" lon="6.86897">
        <ele>433.7</ele>
        <time>2021-05-08T09:33:56.397Z</time>
      </trkpt>
      <trkpt lat="46.94917" lon="6.86899">
        <ele>433.6</ele>
        <time>2021-05-08T09:33:59.640Z</time>
      </trkpt>
      <trkpt lat="46.9491" lon="6.869">
        <ele>433.6</ele>
        <time>2021-05-08T09:34:06.901Z</time>
      </trkpt>
      <trkpt lat="46.94907" lon="6.86902">
        <ele>433.5</ele>
        <time>2021-05-08T09:34:07.837Z</time>
      </trkpt>
      <trkpt lat="46.94907" lon="6.86902">
        <ele>433.5</ele>
        <time>2021-05-08T09:34:07.902Z</time>
      </trkpt>
      <trkpt lat="46.94907" lon="6.86902">
        <ele>433.5</ele>
        <time>2021-05-08T09:34:07.968Z</time>
      </trkpt>
      <trkpt lat="46.94894" lon="6.86906">
        <ele>433.5</ele>
        <time>2021-05-08T09:34:21.682Z</time>
      </trkpt>
      <trkpt lat="46.94874" lon="6.86913">
        <ele>433.5999142908</ele>
        <time>2021-05-08T09:34:43.899Z</time>
      </trkpt>
      <trkpt lat="46.94871" lon="6.86908">
        <ele>433.50085805747</ele>
        <time>2021-05-08T09:34:45.317Z</time>
      </trkpt>
      <trkpt lat="46.9487" lon="6.869">
        <ele>433.30078180738</ele>
        <time>2021-05-08T09:34:46.806Z</time>
      </trkpt>
      <trkpt lat="46.9487" lon="6.86891">
        <ele>433.4</ele>
        <time>2021-05-08T09:34:54.250Z</time>
      </trkpt>
      <trkpt lat="46.94872" lon="6.86881">
        <ele>433.4</ele>
        <time>2021-05-08T09:35:01.594Z</time>
      </trkpt>
      <trkpt lat="46.94876" lon="6.86871">
        <ele>433.4</ele>
        <time>2021-05-08T09:35:09.762Z</time>
      </trkpt>
      <trkpt lat="46.94878" lon="6.86864">
        <ele>433.59980799221</ele>
        <time>2021-05-08T09:35:18.032Z</time>
      </trkpt>
      <trkpt lat="46.94886" lon="6.86855">
        <ele>433.5</ele>
        <time>2021-05-08T09:35:21.678Z</time>
      </trkpt>
      <trkpt lat="46.94891" lon="6.86845">
        <ele>433.5</ele>
        <time>2021-05-08T09:35:30.413Z</time>
      </trkpt>
      <trkpt lat="46.94898" lon="6.86828">
        <ele>433.6</ele>
        <time>2021-05-08T09:35:45.419Z</time>
      </trkpt>
      <trkpt lat="46.94904" lon="6.86811">
        <ele>433.4</ele>
        <time>2021-05-08T09:35:49.824Z</time>
      </trkpt>
      <trkpt lat="46.94909" lon="6.86794">
        <ele>433.4</ele>
        <time>2021-05-08T09:36:02.869Z</time>
      </trkpt>
      <trkpt lat="46.94914" lon="6.86772">
        <ele>433.49942736245</ele>
        <time>2021-05-08T09:36:20.208Z</time>
      </trkpt>
      <trkpt lat="46.9492" lon="6.86749">
        <ele>433.8</ele>
        <time>2021-05-08T09:36:40.960Z</time>
      </trkpt>
      <trkpt lat="46.94926" lon="6.86725">
        <ele>433.7</ele>
        <time>2021-05-08T09:36:57.518Z</time>
      </trkpt>
      <trkpt lat="46.94926" lon="6.86725">
        <ele>433.7</ele>
        <time>2021-05-08T09:36:57.803Z</time>
      </trkpt>
      <trkpt lat="46.94926" lon="6.86725">
        <ele>433.7</ele>
        <time>2021-05-08T09:36:58.088Z</time>
      </trkpt>
      <trkpt lat="46.94927" lon="6.8672">
        <ele>433.7</ele>
        <time>2021-05-08T09:37:01.760Z</time>
      </trkpt>
      <trkpt lat="46.9493" lon="6.86706">
        <ele>433.99959935779</ele>
        <time>2021-05-08T09:37:16.003Z</time>
      </trkpt>
      <trkpt lat="46.94936" lon="6.86687">
        <ele>434</ele>
        <time>2021-05-08T09:37:30.761Z</time>
      </trkpt>
      <trkpt lat="46.94942" lon="6.8666">
        <ele>434.0996541857</ele>
        <time>2021-05-08T09:37:51.761Z</time>
      </trkpt>
      <trkpt lat="46.94948" lon="6.86649">
        <ele>433.9</ele>
        <time>2021-05-08T09:37:54.796Z</time>
      </trkpt>
      <trkpt lat="46.94953" lon="6.86639">
        <ele>433.8</ele>
        <time>2021-05-08T09:37:57.778Z</time>
      </trkpt>
      <trkpt lat="46.94956" lon="6.86631">
        <ele>433.8</ele>
        <time>2021-05-08T09:38:04.210Z</time>
      </trkpt>
      <trkpt lat="46.9496" lon="6.86619">
        <ele>433.8</ele>
        <time>2021-05-08T09:38:13.622Z</time>
      </trkpt>
      <trkpt lat="46.94961" lon="6.86612">
        <ele>433.8</ele>
        <time>2021-05-08T09:38:18.662Z</time>
      </trkpt>
      <trkpt lat="46.94962" lon="6.86607">
        <ele>433.8</ele>
        <time>2021-05-08T09:38:22.334Z</time>
      </trkpt>
      <trkpt lat="46.94961" lon="6.86602">
        <ele>433.7</ele>
        <time>2021-05-08T09:38:23.368Z</time>
      </trkpt>
      <trkpt lat="46.94962" lon="6.86598">
        <ele>433.39943761008</ele>
        <time>2021-05-08T09:38:24.022Z</time>
      </trkpt>
      <trkpt lat="46.94961" lon="6.86596">
        <ele>433.3023649496</ele>
        <time>2021-05-08T09:38:24.397Z</time>
      </trkpt>
      <trkpt lat="46.94959" lon="6.86591">
        <ele>433.49867029875</ele>
        <time>2021-05-08T09:38:31.520Z</time>
      </trkpt>
      <trkpt lat="46.9496" lon="6.86583">
        <ele>433.5</ele>
        <time>2021-05-08T09:38:37.265Z</time>
      </trkpt>
      <trkpt lat="46.94961" lon="6.86573">
        <ele>433.60004026407</ele>
        <time>2021-05-08T09:38:45.478Z</time>
      </trkpt>
      <trkpt lat="46.94964" lon="6.86567">
        <ele>433.8</ele>
        <time>2021-05-08T09:38:53.678Z</time>
      </trkpt>
      <trkpt lat="46.94966" lon="6.8656">
        <ele>433.9</ele>
        <time>2021-05-08T09:39:00.174Z</time>
      </trkpt>
      <trkpt lat="46.94967" lon="6.86547">
        <ele>434</ele>
        <time>2021-05-08T09:39:10.448Z</time>
      </trkpt>
      <trkpt lat="46.94969" lon="6.86528">
        <ele>433.9</ele>
        <time>2021-05-08T09:39:15.339Z</time>
      </trkpt>
      <trkpt lat="46.9497" lon="6.86524">
        <ele>433.9</ele>
        <time>2021-05-08T09:39:18.341Z</time>
      </trkpt>
      <trkpt lat="46.94974" lon="6.86507">
        <ele>433.9</ele>
        <time>2021-05-08T09:39:31.013Z</time>
      </trkpt>
      <trkpt lat="46.94979" lon="6.86487">
        <ele>433.7</ele>
        <time>2021-05-08T09:39:36.012Z</time>
      </trkpt>
      <trkpt lat="46.94991" lon="6.86432">
        <ele>433.9</ele>
        <time>2021-05-08T09:40:18.688Z</time>
      </trkpt>
      <trkpt lat="46.94992" lon="6.86424">
        <ele>434</ele>
        <time>2021-05-08T09:40:25.552Z</time>
      </trkpt>
      <trkpt lat="46.94993" lon="6.86425">
        <ele>434</ele>
        <time>2021-05-08T09:40:26.384Z</time>
      </trkpt>
      <trkpt lat="46.94992" lon="6.86424">
        <ele>434</ele>
        <time>2021-05-08T09:40:27.216Z</time>
      </trkpt>
      <trkpt lat="46.95003" lon="6.86369">
        <ele>434.2</ele>
        <time>2021-05-08T09:41:09.590Z</time>
      </trkpt>
      <trkpt lat="46.95018" lon="6.86307">
        <ele>434.6</ele>
        <time>2021-05-08T09:42:00.066Z</time>
      </trkpt>
      <trkpt lat="46.95033" lon="6.86239">
        <ele>435.1</ele>
        <time>2021-05-08T09:42:55.646Z</time>
      </trkpt>
      <trkpt lat="46.95038" lon="6.86215">
        <ele>435.1</ele>
        <time>2021-05-08T09:43:13.330Z</time>
      </trkpt>
      <trkpt lat="46.95046" lon="6.86174">
        <ele>435.30003320881</ele>
        <time>2021-05-08T09:43:45.400Z</time>
      </trkpt>
      <trkpt lat="46.95057" lon="6.8612">
        <ele>435.6</ele>
        <time>2021-05-08T09:44:28.169Z</time>
      </trkpt>
      <trkpt lat="46.95068" lon="6.86067">
        <ele>435.6</ele>
        <time>2021-05-08T09:45:07.208Z</time>
      </trkpt>
      <trkpt lat="46.95075" lon="6.86023">
        <ele>435.90006296402</ele>
        <time>2021-05-08T09:45:42.163Z</time>
      </trkpt>
      <trkpt lat="46.95085" lon="6.85983">
        <ele>436.1</ele>
        <time>2021-05-08T09:46:14.201Z</time>
      </trkpt>
      <trkpt lat="46.95087" lon="6.85979">
        <ele>436.09723091304</ele>
        <time>2021-05-08T09:46:17.652Z</time>
      </trkpt>
      <trkpt lat="46.95089" lon="6.85976">
        <ele>435.9</ele>
        <time>2021-05-08T09:46:18.295Z</time>
      </trkpt>
      <trkpt lat="46.9509" lon="6.85972">
        <ele>435.9</ele>
        <time>2021-05-08T09:46:21.297Z</time>
      </trkpt>
      <trkpt lat="46.95091" lon="6.85966">
        <ele>435.9</ele>
        <time>2021-05-08T09:46:25.650Z</time>
      </trkpt>
      <trkpt lat="46.95091" lon="6.85957">
        <ele>435.9</ele>
        <time>2021-05-08T09:46:31.992Z</time>
      </trkpt>
      <trkpt lat="46.95092" lon="6.85947">
        <ele>436.1</ele>
        <time>2021-05-08T09:46:41.690Z</time>
      </trkpt>
      <trkpt lat="46.951" lon="6.85911">
        <ele>436.1</ele>
        <time>2021-05-08T09:47:08.371Z</time>
      </trkpt>
      <trkpt lat="46.95109" lon="6.85867">
        <ele>436.3</ele>
        <time>2021-05-08T09:47:42.750Z</time>
      </trkpt>
      <trkpt lat="46.95111" lon="6.85849">
        <ele>436.3</ele>
        <time>2021-05-08T09:47:55.602Z</time>
      </trkpt>
      <trkpt lat="46.95114" lon="6.85832">
        <ele>436.4</ele>
        <time>2021-05-08T09:48:09.000Z</time>
      </trkpt>
      <trkpt lat="46.95115" lon="6.85833">
        <ele>436.4</ele>
        <time>2021-05-08T09:48:09.876Z</time>
      </trkpt>
      <trkpt lat="46.95114" lon="6.85832">
        <ele>436.4</ele>
        <time>2021-05-08T09:48:10.753Z</time>
      </trkpt>
      <trkpt lat="46.95115" lon="6.85829">
        <ele>436.49938380615</ele>
        <time>2021-05-08T09:48:14.670Z</time>
      </trkpt>
      <trkpt lat="46.95122" lon="6.85801">
        <ele>436.7</ele>
        <time>2021-05-08T09:48:37.770Z</time>
      </trkpt>
      <trkpt lat="46.95125" lon="6.85785">
        <ele>436.7</ele>
        <time>2021-05-08T09:48:49.463Z</time>
      </trkpt>
      <trkpt lat="46.95127" lon="6.85776">
        <ele>436.8</ele>
        <time>2021-05-08T09:48:57.235Z</time>
      </trkpt>
      <trkpt lat="46.95129" lon="6.85768">
        <ele>436.8</ele>
        <time>2021-05-08T09:49:03.239Z</time>
      </trkpt>
      <trkpt lat="46.95134" lon="6.85749">
        <ele>436.7</ele>
        <time>2021-05-08T09:49:16.165Z</time>
      </trkpt>
      <trkpt lat="46.95147" lon="6.85702">
        <ele>436.79990077821</ele>
        <time>2021-05-08T09:49:52.873Z</time>
      </trkpt>
      <trkpt lat="46.95154" lon="6.85684">
        <ele>436.9</ele>
        <time>2021-05-08T09:50:08.484Z</time>
      </trkpt>
      <trkpt lat="46.95173" lon="6.85619">
        <ele>437</ele>
        <time>2021-05-08T09:50:59.278Z</time>
      </trkpt>
      <trkpt lat="46.95178" lon="6.85591">
        <ele>437</ele>
        <time>2021-05-08T09:51:19.674Z</time>
      </trkpt>
      <trkpt lat="46.9518" lon="6.85581">
        <ele>437</ele>
        <time>2021-05-08T09:51:27.018Z</time>
      </trkpt>
      <trkpt lat="46.95184" lon="6.85515">
        <ele>436.30029853552</ele>
        <time>2021-05-08T09:51:42.236Z</time>
      </trkpt>
      <trkpt lat="46.95193" lon="6.85472">
        <ele>436.70004759642</ele>
        <time>2021-05-08T09:52:18.223Z</time>
      </trkpt>
      <trkpt lat="46.95196" lon="6.85458">
        <ele>436.8</ele>
        <time>2021-05-08T09:52:29.604Z</time>
      </trkpt>
      <trkpt lat="46.95199" lon="6.85443">
        <ele>437.50026497531</ele>
        <time>2021-05-08T09:52:51.063Z</time>
      </trkpt>
      <trkpt lat="46.95202" lon="6.85431">
        <ele>437.8</ele>
        <time>2021-05-08T09:53:04.205Z</time>
      </trkpt>
      <trkpt lat="46.95206" lon="6.85415">
        <ele>438.3</ele>
        <time>2021-05-08T09:53:24.012Z</time>
      </trkpt>
      <trkpt lat="46.95211" lon="6.85405">
        <ele>438.4</ele>
        <time>2021-05-08T09:53:33.808Z</time>
      </trkpt>
      <trkpt lat="46.95218" lon="6.8539">
        <ele>438.60011096852</ele>
        <time>2021-05-08T09:53:48.833Z</time>
      </trkpt>
      <trkpt lat="46.95232" lon="6.85354">
        <ele>438.8</ele>
        <time>2021-05-08T09:54:20.052Z</time>
      </trkpt>
      <trkpt lat="46.95236" lon="6.85345">
        <ele>438.8</ele>
        <time>2021-05-08T09:54:27.620Z</time>
      </trkpt>
      <trkpt lat="46.95237" lon="6.85346">
        <ele>438.8</ele>
        <time>2021-05-08T09:54:28.583Z</time>
      </trkpt>
      <trkpt lat="46.95236" lon="6.85345">
        <ele>438.8</ele>
        <time>2021-05-08T09:54:29.546Z</time>
      </trkpt>
      <trkpt lat="46.95241" lon="6.85335">
        <ele>439.3</ele>
        <time>2021-05-08T09:54:45.788Z</time>
      </trkpt>
      <trkpt lat="46.95243" lon="6.85328">
        <ele>439.69805597843</ele>
        <time>2021-05-08T09:54:57.134Z</time>
      </trkpt>
      <trkpt lat="46.95246" lon="6.8532">
        <ele>439.7</ele>
        <time>2021-05-08T09:55:03.585Z</time>
      </trkpt>
      <trkpt lat="46.95252" lon="6.85306">
        <ele>439.1</ele>
        <time>2021-05-08T09:55:06.173Z</time>
      </trkpt>
      <trkpt lat="46.95259" lon="6.85294">
        <ele>439.1</ele>
        <time>2021-05-08T09:55:17.297Z</time>
      </trkpt>
      <trkpt lat="46.95268" lon="6.85279">
        <ele>438.9</ele>
        <time>2021-05-08T09:55:21.930Z</time>
      </trkpt>
      <trkpt lat="46.95271" lon="6.85272">
        <ele>438.9</ele>
        <time>2021-05-08T09:55:27.754Z</time>
      </trkpt>
      <trkpt lat="46.95274" lon="6.85266">
        <ele>438.9</ele>
        <time>2021-05-08T09:55:32.995Z</time>
      </trkpt>
      <trkpt lat="46.95286" lon="6.85242">
        <ele>438.7</ele>
        <time>2021-05-08T09:55:40.339Z</time>
      </trkpt>
      <trkpt lat="46.95294" lon="6.85225">
        <ele>438.8</ele>
        <time>2021-05-08T09:55:55.902Z</time>
      </trkpt>
      <trkpt lat="46.95302" lon="6.85207">
        <ele>439</ele>
        <time>2021-05-08T09:56:13.200Z</time>
      </trkpt>
      <trkpt lat="46.95304" lon="6.85197">
        <ele>439</ele>
        <time>2021-05-08T09:56:20.543Z</time>
      </trkpt>
      <trkpt lat="46.95306" lon="6.85191">
        <ele>439</ele>
        <time>2021-05-08T09:56:25.248Z</time>
      </trkpt>
      <trkpt lat="46.95314" lon="6.85168">
        <ele>439.0999061097</ele>
        <time>2021-05-08T09:56:44.436Z</time>
      </trkpt>
      <trkpt lat="46.95318" lon="6.85155">
        <ele>439</ele>
        <time>2021-05-08T09:56:47.937Z</time>
      </trkpt>
      <trkpt lat="46.95319" lon="6.85152">
        <ele>439.1</ele>
        <time>2021-05-08T09:56:51.870Z</time>
      </trkpt>
      <trkpt lat="46.9532" lon="6.8515">
        <ele>439.09717131251</ele>
        <time>2021-05-08T09:56:53.574Z</time>
      </trkpt>
      <trkpt lat="46.9532" lon="6.8515">
        <ele>439.09910150001</ele>
        <time>2021-05-08T09:56:53.656Z</time>
      </trkpt>
      <trkpt lat="46.9532" lon="6.8515">
        <ele>439.09717131251</ele>
        <time>2021-05-08T09:56:53.670Z</time>
      </trkpt>
      <trkpt lat="46.9532" lon="6.85148">
        <ele>439.0020203125</ele>
        <time>2021-05-08T09:56:53.977Z</time>
      </trkpt>
      <trkpt lat="46.95326" lon="6.85126">
        <ele>439.3</ele>
        <time>2021-05-08T09:57:14.062Z</time>
      </trkpt>
      <trkpt lat="46.95328" lon="6.85118">
        <ele>439.19706123717</ele>
        <time>2021-05-08T09:57:15.966Z</time>
      </trkpt>
      <trkpt lat="46.95329" lon="6.85112">
        <ele>438.90043176106</ele>
        <time>2021-05-08T09:57:16.913Z</time>
      </trkpt>
      <trkpt lat="46.95333" lon="6.85087">
        <ele>438.69885837962</ele>
        <time>2021-05-08T09:57:23.115Z</time>
      </trkpt>
      <trkpt lat="46.95337" lon="6.85073">
        <ele>438.69966246065</ele>
        <time>2021-05-08T09:57:33.818Z</time>
      </trkpt>
      <trkpt lat="46.95348" lon="6.85022">
        <ele>438.4</ele>
        <time>2021-05-08T09:57:47.316Z</time>
      </trkpt>
      <trkpt lat="46.9535" lon="6.85008">
        <ele>438.3</ele>
        <time>2021-05-08T09:57:50.828Z</time>
      </trkpt>
      <trkpt lat="46.95353" lon="6.84986">
        <ele>438.5</ele>
        <time>2021-05-08T09:58:08.786Z</time>
      </trkpt>
      <trkpt lat="46.95357" lon="6.84951">
        <ele>438.3</ele>
        <time>2021-05-08T09:58:17.736Z</time>
      </trkpt>
      <trkpt lat="46.95359" lon="6.84931">
        <ele>436.90142303025</ele>
        <time>2021-05-08T09:58:20.837Z</time>
      </trkpt>
      <trkpt lat="46.95364" lon="6.84908">
        <ele>438</ele>
        <time>2021-05-08T09:58:54.229Z</time>
      </trkpt>
      <trkpt lat="46.95364" lon="6.84909">
        <ele>438</ele>
        <time>2021-05-08T09:58:54.913Z</time>
      </trkpt>
      <trkpt lat="46.95364" lon="6.84908">
        <ele>438</ele>
        <time>2021-05-08T09:58:55.597Z</time>
      </trkpt>
      <trkpt lat="46.9537" lon="6.84878">
        <ele>438.7</ele>
        <time>2021-05-08T09:59:27.089Z</time>
      </trkpt>
      <trkpt lat="46.95373" lon="6.84865">
        <ele>438.40349145538</ele>
        <time>2021-05-08T09:59:29.715Z</time>
      </trkpt>
      <trkpt lat="46.95376" lon="6.8486">
        <ele>438.8</ele>
        <time>2021-05-08T09:59:40.567Z</time>
      </trkpt>
      <trkpt lat="46.9538" lon="6.84854">
        <ele>439.6</ele>
        <time>2021-05-08T10:00:03.363Z</time>
      </trkpt>
      <trkpt lat="46.95383" lon="6.8485">
        <ele>439.9</ele>
        <time>2021-05-08T10:00:12.049Z</time>
      </trkpt>
      <trkpt lat="46.95382" lon="6.84848">
        <ele>439.80013192485</ele>
        <time>2021-05-08T10:00:12.419Z</time>
      </trkpt>
      <trkpt lat="46.95374" lon="6.84836">
        <ele>436.2</ele>
        <time>2021-05-08T10:00:14.993Z</time>
      </trkpt>
      <trkpt lat="46.95365" lon="6.84822">
        <ele>436.22315820345</ele>
        <time>2021-05-08T10:00:28.767Z</time>
      </trkpt>
      <trkpt lat="46.9536" lon="6.84813">
        <ele>439.9973367321</ele>
        <time>2021-05-08T10:01:00.309Z</time>
      </trkpt>
      <trkpt lat="46.95359" lon="6.84811">
        <ele>439.90026833952</ele>
        <time>2021-05-08T10:01:00.684Z</time>
      </trkpt>
      <trkpt lat="46.95358" lon="6.84808">
        <ele>439.9</ele>
        <time>2021-05-08T10:01:03.032Z</time>
      </trkpt>
      <trkpt lat="46.95358" lon="6.84804">
        <ele>439.79980034783</ele>
        <time>2021-05-08T10:01:03.760Z</time>
      </trkpt>
      <trkpt lat="46.95358" lon="6.84801">
        <ele>439.70051304348</ele>
        <time>2021-05-08T10:01:04.249Z</time>
      </trkpt>
      <trkpt lat="46.95359" lon="6.84797">
        <ele>439.5</ele>
        <time>2021-05-08T10:01:04.902Z</time>
      </trkpt>
      <trkpt lat="46.95363" lon="6.84788">
        <ele>439.29860243767</ele>
        <time>2021-05-08T10:01:07.049Z</time>
      </trkpt>
      <trkpt lat="46.95367" lon="6.84779">
        <ele>439.1</ele>
        <time>2021-05-08T10:01:09.205Z</time>
      </trkpt>
      <trkpt lat="46.95369" lon="6.84771">
        <ele>438.69943120761</ele>
        <time>2021-05-08T10:01:10.513Z</time>
      </trkpt>
      <trkpt lat="46.95371" lon="6.84764">
        <ele>438.6</ele>
        <time>2021-05-08T10:01:12.178Z</time>
      </trkpt>
      <trkpt lat="46.95372" lon="6.84755">
        <ele>439</ele>
        <time>2021-05-08T10:01:24.573Z</time>
      </trkpt>
      <trkpt lat="46.95372" lon="6.84749">
        <ele>439</ele>
        <time>2021-05-08T10:01:28.801Z</time>
      </trkpt>
      <trkpt lat="46.95371" lon="6.84742">
        <ele>439.1</ele>
        <time>2021-05-08T10:01:35.005Z</time>
      </trkpt>
      <trkpt lat="46.9537" lon="6.84736">
        <ele>439.19918588824</ele>
        <time>2021-05-08T10:01:40.553Z</time>
      </trkpt>
      <trkpt lat="46.95363" lon="6.84724">
        <ele>439.9</ele>
        <time>2021-05-08T10:02:02.130Z</time>
      </trkpt>
      <trkpt lat="46.95351" lon="6.84702">
        <ele>440.30015041782</ele>
        <time>2021-05-08T10:02:26.650Z</time>
      </trkpt>
      <trkpt lat="46.95335" lon="6.84677">
        <ele>440.70038513692</ele>
        <time>2021-05-08T10:02:55.288Z</time>
      </trkpt>
      <trkpt lat="46.95332" lon="6.84672">
        <ele>440.9</ele>
        <time>2021-05-08T10:03:03.138Z</time>
      </trkpt>
      <trkpt lat="46.95332" lon="6.84669">
        <ele>440.9</ele>
        <time>2021-05-08T10:03:05.252Z</time>
      </trkpt>
      <trkpt lat="46.95333" lon="6.84666">
        <ele>440.11213407999</ele>
        <time>2021-05-08T10:03:05.765Z</time>
      </trkpt>
      <trkpt lat="46.95338" lon="6.84655">
        <ele>439.1</ele>
        <time>2021-05-08T10:03:07.792Z</time>
      </trkpt>
      <trkpt lat="46.95338" lon="6.84652">
        <ele>439.19893847826</ele>
        <time>2021-05-08T10:03:11.448Z</time>
      </trkpt>
      <trkpt lat="46.95338" lon="6.84648">
        <ele>439.3</ele>
        <time>2021-05-08T10:03:15.713Z</time>
      </trkpt>
      <trkpt lat="46.95335" lon="6.84638">
        <ele>439.99750686991</ele>
        <time>2021-05-08T10:03:34.546Z</time>
      </trkpt>
      <trkpt lat="46.95333" lon="6.84625">
        <ele>440.3</ele>
        <time>2021-05-08T10:03:48.051Z</time>
      </trkpt>
      <trkpt lat="46.95332" lon="6.84614">
        <ele>440.3</ele>
        <time>2021-05-08T10:03:55.871Z</time>
      </trkpt>
      <trkpt lat="46.95332" lon="6.84609">
        <ele>440.3</ele>
        <time>2021-05-08T10:03:59.394Z</time>
      </trkpt>
      <trkpt lat="46.95333" lon="6.8461">
        <ele>440.2</ele>
        <time>2021-05-08T10:03:59.618Z</time>
      </trkpt>
      <trkpt lat="46.95332" lon="6.84609">
        <ele>440.3</ele>
        <time>2021-05-08T10:04:02.303Z</time>
      </trkpt>
      <trkpt lat="46.95332" lon="6.84606">
        <ele>440.3</ele>
        <time>2021-05-08T10:04:04.417Z</time>
      </trkpt>
      <trkpt lat="46.95331" lon="6.84595">
        <ele>440.50051062765</ele>
        <time>2021-05-08T10:04:14.740Z</time>
      </trkpt>
      <trkpt lat="46.95329" lon="6.84588">
        <ele>440.59953159353</ele>
        <time>2021-05-08T10:04:21.223Z</time>
      </trkpt>
      <trkpt lat="46.95325" lon="6.84577">
        <ele>440.69971305427</ele>
        <time>2021-05-08T10:04:31.068Z</time>
      </trkpt>
      <trkpt lat="46.9532" lon="6.84559">
        <ele>440.80039434689</ele>
        <time>2021-05-08T10:04:45.786Z</time>
      </trkpt>
      <trkpt lat="46.95315" lon="6.84548">
        <ele>440.90113242976</ele>
        <time>2021-05-08T10:04:56.160Z</time>
      </trkpt>
      <trkpt lat="46.95312" lon="6.84544">
        <ele>441</ele>
        <time>2021-05-08T10:05:01.552Z</time>
      </trkpt>
      <trkpt lat="46.95305" lon="6.84537">
        <ele>441.1</ele>
        <time>2021-05-08T10:05:11.362Z</time>
      </trkpt>
      <trkpt lat="46.95297" lon="6.84533">
        <ele>441.3</ele>
        <time>2021-05-08T10:05:22.503Z</time>
      </trkpt>
      <trkpt lat="46.95291" lon="6.84531">
        <ele>441.40050662552</ele>
        <time>2021-05-08T10:05:29.973Z</time>
      </trkpt>
      <trkpt lat="46.95285" lon="6.8453">
        <ele>441.6</ele>
        <time>2021-05-08T10:05:38.913Z</time>
      </trkpt>
      <trkpt lat="46.95282" lon="6.84528">
        <ele>441.7</ele>
        <time>2021-05-08T10:05:43.625Z</time>
      </trkpt>
      <trkpt lat="46.95284" lon="6.84524">
        <ele>441.7</ele>
        <time>2021-05-08T10:05:47.119Z</time>
      </trkpt>
      <trkpt lat="46.95285" lon="6.84518">
        <ele>441.70062644737</ele>
        <time>2021-05-08T10:05:51.477Z</time>
      </trkpt>
      <trkpt lat="46.95285" lon="6.84513">
        <ele>441.8</ele>
        <time>2021-05-08T10:05:56.282Z</time>
      </trkpt>
      <trkpt lat="46.95285" lon="6.84508">
        <ele>441.8</ele>
        <time>2021-05-08T10:05:59.806Z</time>
      </trkpt>
      <trkpt lat="46.95284" lon="6.84504">
        <ele>441.8</ele>
        <time>2021-05-08T10:06:02.808Z</time>
      </trkpt>
      <trkpt lat="46.95282" lon="6.845">
        <ele>441.8</ele>
        <time>2021-05-08T10:06:06.302Z</time>
      </trkpt>
      <trkpt lat="46.9528" lon="6.84496">
        <ele>441.8</ele>
        <time>2021-05-08T10:06:09.796Z</time>
      </trkpt>
      <trkpt lat="46.95276" lon="6.84493">
        <ele>441.8</ele>
        <time>2021-05-08T10:06:14.435Z</time>
      </trkpt>
      <trkpt lat="46.95266" lon="6.8449">
        <ele>441.8</ele>
        <time>2021-05-08T10:06:24.974Z</time>
      </trkpt>
      <trkpt lat="46.95262" lon="6.84487">
        <ele>441.9</ele>
        <time>2021-05-08T10:06:30.801Z</time>
      </trkpt>
      <trkpt lat="46.95259" lon="6.84485">
        <ele>441.9</ele>
        <time>2021-05-08T10:06:34.203Z</time>
      </trkpt>
      <trkpt lat="46.95255" lon="6.8448">
        <ele>441.9</ele>
        <time>2021-05-08T10:06:39.632Z</time>
      </trkpt>
      <trkpt lat="46.9525" lon="6.84472">
        <ele>441.9</ele>
        <time>2021-05-08T10:06:47.276Z</time>
      </trkpt>
      <trkpt lat="46.95246" lon="6.84464">
        <ele>441.9</ele>
        <time>2021-05-08T10:06:54.264Z</time>
      </trkpt>
      <trkpt lat="46.95242" lon="6.84458">
        <ele>441.99921892892</ele>
        <time>2021-05-08T10:07:01.290Z</time>
      </trkpt>
      <trkpt lat="46.95238" lon="6.84451">
        <ele>442.1</ele>
        <time>2021-05-08T10:07:08.842Z</time>
      </trkpt>
      <trkpt lat="46.95235" lon="6.84447">
        <ele>442</ele>
        <time>2021-05-08T10:07:10.067Z</time>
      </trkpt>
      <trkpt lat="46.95234" lon="6.84443">
        <ele>442.00121347538</ele>
        <time>2021-05-08T10:07:13.081Z</time>
      </trkpt>
      <trkpt lat="46.95233" lon="6.8444">
        <ele>442.1</ele>
        <time>2021-05-08T10:07:16.983Z</time>
      </trkpt>
      <trkpt lat="46.95233" lon="6.84438">
        <ele>442.1</ele>
        <time>2021-05-08T10:07:18.392Z</time>
      </trkpt>
      <trkpt lat="46.95234" lon="6.84429">
        <ele>442.09995154348</ele>
        <time>2021-05-08T10:07:24.817Z</time>
      </trkpt>
      <trkpt lat="46.95234" lon="6.84423">
        <ele>442</ele>
        <time>2021-05-08T10:07:26.058Z</time>
      </trkpt>
      <trkpt lat="46.95233" lon="6.8442">
        <ele>442.09789931846</ele>
        <time>2021-05-08T10:07:29.937Z</time>
      </trkpt>
      <trkpt lat="46.95232" lon="6.84416">
        <ele>442.1</ele>
        <time>2021-05-08T10:07:32.959Z</time>
      </trkpt>
      <trkpt lat="46.9523" lon="6.84413">
        <ele>442.1</ele>
        <time>2021-05-08T10:07:35.914Z</time>
      </trkpt>
      <trkpt lat="46.95227" lon="6.84409">
        <ele>442.19918083512</ele>
        <time>2021-05-08T10:07:41.311Z</time>
      </trkpt>
      <trkpt lat="46.95214" lon="6.844">
        <ele>442.2</ele>
        <time>2021-05-08T10:07:56.163Z</time>
      </trkpt>
      <trkpt lat="46.95209" lon="6.84395">
        <ele>442.2</ele>
        <time>2021-05-08T10:08:02.412Z</time>
      </trkpt>
      <trkpt lat="46.95207" lon="6.84393">
        <ele>442.1</ele>
        <time>2021-05-08T10:08:03.030Z</time>
      </trkpt>
      <trkpt lat="46.95207" lon="6.84393">
        <ele>442.1</ele>
        <time>2021-05-08T10:08:03.292Z</time>
      </trkpt>
      <trkpt lat="46.95207" lon="6.84393">
        <ele>442.1</ele>
        <time>2021-05-08T10:08:03.555Z</time>
      </trkpt>
      <trkpt lat="46.95205" lon="6.84391">
        <ele>442.19988227297</ele>
        <time>2021-05-08T10:08:07.573Z</time>
      </trkpt>
      <trkpt lat="46.95201" lon="6.84385">
        <ele>442.3</ele>
        <time>2021-05-08T10:08:14.610Z</time>
      </trkpt>
      <trkpt lat="46.95198" lon="6.8438">
        <ele>442.30050187448</ele>
        <time>2021-05-08T10:08:19.306Z</time>
      </trkpt>
      <trkpt lat="46.95196" lon="6.84375">
        <ele>442.4</ele>
        <time>2021-05-08T10:08:24.613Z</time>
      </trkpt>
      <trkpt lat="46.95192" lon="6.84367">
        <ele>442.4</ele>
        <time>2021-05-08T10:08:31.601Z</time>
      </trkpt>
      <trkpt lat="46.95191" lon="6.84363">
        <ele>442.4</ele>
        <time>2021-05-08T10:08:34.603Z</time>
      </trkpt>
      <trkpt lat="46.95163" lon="6.84303">
        <ele>442.4</ele>
        <time>2021-05-08T10:09:25.823Z</time>
      </trkpt>
      <trkpt lat="46.95162" lon="6.84297">
        <ele>442.4</ele>
        <time>2021-05-08T10:09:30.176Z</time>
      </trkpt>
      <trkpt lat="46.95151" lon="6.84295">
        <ele>442.7</ele>
        <time>2021-05-08T10:09:45.391Z</time>
      </trkpt>
      <trkpt lat="46.95143" lon="6.84293">
        <ele>442.99907156769</ele>
        <time>2021-05-08T10:09:58.039Z</time>
      </trkpt>
      <trkpt lat="46.95131" lon="6.84291">
        <ele>443.3000627475</ele>
        <time>2021-05-08T10:10:14.195Z</time>
      </trkpt>
      <trkpt lat="46.95126" lon="6.8429">
        <ele>443.39924181</ele>
        <time>2021-05-08T10:10:20.549Z</time>
      </trkpt>
      <trkpt lat="46.9512" lon="6.84288">
        <ele>443.4</ele>
        <time>2021-05-08T10:10:26.909Z</time>
      </trkpt>
      <trkpt lat="46.951" lon="6.84279">
        <ele>443.7</ele>
        <time>2021-05-08T10:10:51.775Z</time>
      </trkpt>
      <trkpt lat="46.95098" lon="6.84279">
        <ele>443.7</ele>
        <time>2021-05-08T10:10:53.839Z</time>
      </trkpt>
      <trkpt lat="46.95094" lon="6.84278">
        <ele>443.89839084251</ele>
        <time>2021-05-08T10:11:01.112Z</time>
      </trkpt>
      <trkpt lat="46.95067" lon="6.84281">
        <ele>443.9</ele>
        <time>2021-05-08T10:11:29.081Z</time>
      </trkpt>
      <trkpt lat="46.95061" lon="6.84281">
        <ele>443.9</ele>
        <time>2021-05-08T10:11:35.276Z</time>
      </trkpt>
      <trkpt lat="46.95057" lon="6.8428">
        <ele>444.1</ele>
        <time>2021-05-08T10:11:42.567Z</time>
      </trkpt>
      <trkpt lat="46.95054" lon="6.84276">
        <ele>444.3</ele>
        <time>2021-05-08T10:11:49.856Z</time>
      </trkpt>
      <trkpt lat="46.95051" lon="6.84271">
        <ele>444.5</ele>
        <time>2021-05-08T10:11:57.716Z</time>
      </trkpt>
      <trkpt lat="46.95043" lon="6.84261">
        <ele>444.59972642397</ele>
        <time>2021-05-08T10:12:09.606Z</time>
      </trkpt>
      <trkpt lat="46.95035" lon="6.84249">
        <ele>444.7</ele>
        <time>2021-05-08T10:12:22.458Z</time>
      </trkpt>
      <trkpt lat="46.95022" lon="6.84233">
        <ele>444.8</ele>
        <time>2021-05-08T10:12:40.987Z</time>
      </trkpt>
      <trkpt lat="46.9501" lon="6.84215">
        <ele>444.8</ele>
        <time>2021-05-08T10:12:58.718Z</time>
      </trkpt>
      <trkpt lat="46.94991" lon="6.8419">
        <ele>444.9</ele>
        <time>2021-05-08T10:13:26.065Z</time>
      </trkpt>
      <trkpt lat="46.94982" lon="6.84177">
        <ele>445</ele>
        <time>2021-05-08T10:13:40.133Z</time>
      </trkpt>
      <trkpt lat="46.94964" lon="6.8415">
        <ele>445.1</ele>
        <time>2021-05-08T10:14:07.710Z</time>
      </trkpt>
      <trkpt lat="46.94954" lon="6.84135">
        <ele>445.2</ele>
        <time>2021-05-08T10:14:23.497Z</time>
      </trkpt>
      <trkpt lat="46.94947" lon="6.84124">
        <ele>445.2</ele>
        <time>2021-05-08T10:14:34.095Z</time>
      </trkpt>
      <trkpt lat="46.94937" lon="6.84104">
        <ele>445.2</ele>
        <time>2021-05-08T10:14:51.566Z</time>
      </trkpt>
      <trkpt lat="46.94932" lon="6.84094">
        <ele>445.4</ele>
        <time>2021-05-08T10:15:02.716Z</time>
      </trkpt>
      <trkpt lat="46.94931" lon="6.84091">
        <ele>445.4</ele>
        <time>2021-05-08T10:15:05.069Z</time>
      </trkpt>
      <trkpt lat="46.94932" lon="6.84092">
        <ele>445.4</ele>
        <time>2021-05-08T10:15:06.011Z</time>
      </trkpt>
      <trkpt lat="46.94931" lon="6.84091">
        <ele>445.4</ele>
        <time>2021-05-08T10:15:06.954Z</time>
      </trkpt>
      <trkpt lat="46.94928" lon="6.84083">
        <ele>445.5</ele>
        <time>2021-05-08T10:15:14.495Z</time>
      </trkpt>
      <trkpt lat="46.94926" lon="6.84075">
        <ele>445.3</ele>
        <time>2021-05-08T10:15:16.080Z</time>
      </trkpt>
      <trkpt lat="46.94922" lon="6.84062">
        <ele>445.4</ele>
        <time>2021-05-08T10:15:27.174Z</time>
      </trkpt>
      <trkpt lat="46.94917" lon="6.84048">
        <ele>445.8</ele>
        <time>2021-05-08T10:15:44.037Z</time>
      </trkpt>
      <trkpt lat="46.94914" lon="6.84032">
        <ele>445.8008336147</ele>
        <time>2021-05-08T10:15:55.739Z</time>
      </trkpt>
      <trkpt lat="46.94913" lon="6.84027">
        <ele>445.9</ele>
        <time>2021-05-08T10:16:00.670Z</time>
      </trkpt>
      <trkpt lat="46.94911" lon="6.84003">
        <ele>445.79654057979</ele>
        <time>2021-05-08T10:16:16.217Z</time>
      </trkpt>
      <trkpt lat="46.94909" lon="6.83995">
        <ele>444.9</ele>
        <time>2021-05-08T10:16:17.524Z</time>
      </trkpt>
      <trkpt lat="46.94909" lon="6.83985">
        <ele>445.6</ele>
        <time>2021-05-08T10:16:36.316Z</time>
      </trkpt>
      <trkpt lat="46.9491" lon="6.83974">
        <ele>445.80015466667</ele>
        <time>2021-05-08T10:16:46.634Z</time>
      </trkpt>
      <trkpt lat="46.9491" lon="6.83963">
        <ele>445.9</ele>
        <time>2021-05-08T10:16:55.462Z</time>
      </trkpt>
      <trkpt lat="46.94911" lon="6.83956">
        <ele>445.9</ele>
        <time>2021-05-08T10:17:00.502Z</time>
      </trkpt>
      <trkpt lat="46.94927" lon="6.83949">
        <ele>445.8</ele>
        <time>2021-05-08T10:17:16.292Z</time>
      </trkpt>
      <trkpt lat="46.9493" lon="6.83945">
        <ele>445.8</ele>
        <time>2021-05-08T10:17:20.480Z</time>
      </trkpt>
      <trkpt lat="46.94934" lon="6.83939">
        <ele>445.89995416091</ele>
        <time>2021-05-08T10:17:27.516Z</time>
      </trkpt>
      <trkpt lat="46.94952" lon="6.83893">
        <ele>445.70026905322</ele>
        <time>2021-05-08T10:18:01.970Z</time>
      </trkpt>
      <trkpt lat="46.9495" lon="6.83882">
        <ele>445.9</ele>
        <time>2021-05-08T10:18:12.463Z</time>
      </trkpt>
      <trkpt lat="46.94953" lon="6.83869">
        <ele>445.8</ele>
        <time>2021-05-08T10:18:15.814Z</time>
      </trkpt>
      <trkpt lat="46.94959" lon="6.83865">
        <ele>445.6010852648</ele>
        <time>2021-05-08T10:18:17.690Z</time>
      </trkpt>
      <trkpt lat="46.94952" lon="6.83837">
        <ele>445.90057317406</ele>
        <time>2021-05-08T10:18:41.978Z</time>
      </trkpt>
      <trkpt lat="46.94949" lon="6.83823">
        <ele>446.10102125039</ele>
        <time>2021-05-08T10:18:54.640Z</time>
      </trkpt>
      <trkpt lat="46.94948" lon="6.83815">
        <ele>446.30163045536</ele>
        <time>2021-05-08T10:19:03.207Z</time>
      </trkpt>
      <trkpt lat="46.94948" lon="6.8381">
        <ele>446.5</ele>
        <time>2021-05-08T10:19:09.715Z</time>
      </trkpt>
      <trkpt lat="46.94949" lon="6.83807">
        <ele>446.5</ele>
        <time>2021-05-08T10:19:12.068Z</time>
      </trkpt>
      <trkpt lat="46.94951" lon="6.83801">
        <ele>446.40025816692</ele>
        <time>2021-05-08T10:19:13.489Z</time>
      </trkpt>
      <trkpt lat="46.94956" lon="6.83793">
        <ele>446.10090532195</ele>
        <time>2021-05-08T10:19:15.392Z</time>
      </trkpt>
      <trkpt lat="46.94968" lon="6.83771">
        <ele>445.90018768793</ele>
        <time>2021-05-08T10:19:22.289Z</time>
      </trkpt>
      <trkpt lat="46.94974" lon="6.83758">
        <ele>446</ele>
        <time>2021-05-08T10:19:34.380Z</time>
      </trkpt>
      <trkpt lat="46.94975" lon="6.83759">
        <ele>446</ele>
        <time>2021-05-08T10:19:35.475Z</time>
      </trkpt>
      <trkpt lat="46.94974" lon="6.83758">
        <ele>446</ele>
        <time>2021-05-08T10:19:36.569Z</time>
      </trkpt>
      <trkpt lat="46.94989" lon="6.83731">
        <ele>446.2</ele>
        <time>2021-05-08T10:20:03.152Z</time>
      </trkpt>
      <trkpt lat="46.94995" lon="6.8372">
        <ele>446.20076728158</ele>
        <time>2021-05-08T10:20:13.082Z</time>
      </trkpt>
      <trkpt lat="46.95" lon="6.83713">
        <ele>446.3</ele>
        <time>2021-05-08T10:20:21.302Z</time>
      </trkpt>
      <trkpt lat="46.95006" lon="6.83706">
        <ele>446.4</ele>
        <time>2021-05-08T10:20:30.295Z</time>
      </trkpt>
      <trkpt lat="46.95017" lon="6.83697">
        <ele>446.40008081587</ele>
        <time>2021-05-08T10:20:43.303Z</time>
      </trkpt>
      <trkpt lat="46.95031" lon="6.83685">
        <ele>446.59948192462</ele>
        <time>2021-05-08T10:21:02.174Z</time>
      </trkpt>
      <trkpt lat="46.95049" lon="6.83674">
        <ele>446.8</ele>
        <time>2021-05-08T10:21:24.402Z</time>
      </trkpt>
      <trkpt lat="46.95061" lon="6.83666">
        <ele>447.00036993211</ele>
        <time>2021-05-08T10:21:40.214Z</time>
      </trkpt>
      <trkpt lat="46.95071" lon="6.83658">
        <ele>447.3</ele>
        <time>2021-05-08T10:21:55.710Z</time>
      </trkpt>
      <trkpt lat="46.95077" lon="6.83653">
        <ele>447.59855596241</ele>
        <time>2021-05-08T10:22:07.512Z</time>
      </trkpt>
      <trkpt lat="46.95094" lon="6.83635">
        <ele>448.6</ele>
        <time>2021-05-08T10:22:44.825Z</time>
      </trkpt>
      <trkpt lat="46.95102" lon="6.83625">
        <ele>449.3</ele>
        <time>2021-05-08T10:23:06.120Z</time>
      </trkpt>
      <trkpt lat="46.9511" lon="6.83614">
        <ele>450.3</ele>
        <time>2021-05-08T10:23:33.236Z</time>
      </trkpt>
      <trkpt lat="46.95117" lon="6.83603">
        <ele>451.1</ele>
        <time>2021-05-08T10:23:55.918Z</time>
      </trkpt>
      <trkpt lat="46.95125" lon="6.83593">
        <ele>451.90047895752</ele>
        <time>2021-05-08T10:24:18.822Z</time>
      </trkpt>
      <trkpt lat="46.95131" lon="6.83586">
        <ele>452.5</ele>
        <time>2021-05-08T10:24:35.801Z</time>
      </trkpt>
      <trkpt lat="46.95135" lon="6.8358">
        <ele>452.5</ele>
        <time>2021-05-08T10:24:41.711Z</time>
      </trkpt>
      <trkpt lat="46.95139" lon="6.83576">
        <ele>452.5</ele>
        <time>2021-05-08T10:24:46.711Z</time>
      </trkpt>
      <trkpt lat="46.95146" lon="6.83571">
        <ele>452.40038960228</ele>
        <time>2021-05-08T10:24:49.421Z</time>
      </trkpt>
      <trkpt lat="46.95154" lon="6.83564">
        <ele>452</ele>
        <time>2021-05-08T10:24:51.760Z</time>
      </trkpt>
      <trkpt lat="46.95166" lon="6.83554">
        <ele>451.1</ele>
        <time>2021-05-08T10:24:54.635Z</time>
      </trkpt>
      <trkpt lat="46.95167" lon="6.83554">
        <ele>451.1</ele>
        <time>2021-05-08T10:24:55.629Z</time>
      </trkpt>
      <trkpt lat="46.95166" lon="6.83554">
        <ele>451.1</ele>
        <time>2021-05-08T10:24:56.623Z</time>
      </trkpt>
      <trkpt lat="46.9517" lon="6.83551">
        <ele>450.80173276757</ele>
        <time>2021-05-08T10:24:57.551Z</time>
      </trkpt>
      <trkpt lat="46.95177" lon="6.83544">
        <ele>450.3</ele>
        <time>2021-05-08T10:24:59.400Z</time>
      </trkpt>
      <trkpt lat="46.95181" lon="6.83539">
        <ele>449.9</ele>
        <time>2021-05-08T10:25:00.582Z</time>
      </trkpt>
      <trkpt lat="46.95205" lon="6.83501">
        <ele>449.30050346585</ele>
        <time>2021-05-08T10:25:12.256Z</time>
      </trkpt>
      <trkpt lat="46.95213" lon="6.83491">
        <ele>449.4</ele>
        <time>2021-05-08T10:25:24.143Z</time>
      </trkpt>
      <trkpt lat="46.95226" lon="6.83475">
        <ele>449.4</ele>
        <time>2021-05-08T10:25:41.672Z</time>
      </trkpt>
      <trkpt lat="46.95233" lon="6.83466">
        <ele>449.4</ele>
        <time>2021-05-08T10:25:51.287Z</time>
      </trkpt>
      <trkpt lat="46.95238" lon="6.8346">
        <ele>449.49987345592</ele>
        <time>2021-05-08T10:25:59.060Z</time>
      </trkpt>
      <trkpt lat="46.95243" lon="6.83452">
        <ele>449.4</ele>
        <time>2021-05-08T10:26:01.614Z</time>
      </trkpt>
      <trkpt lat="46.95248" lon="6.83442">
        <ele>449.5</ele>
        <time>2021-05-08T10:26:11.410Z</time>
      </trkpt>
      <trkpt lat="46.95259" lon="6.83419">
        <ele>449.6</ele>
        <time>2021-05-08T10:26:32.194Z</time>
      </trkpt>
      <trkpt lat="46.95265" lon="6.83407">
        <ele>449.600159904</ele>
        <time>2021-05-08T10:26:42.678Z</time>
      </trkpt>
      <trkpt lat="46.95282" lon="6.83373">
        <ele>449.80042941805</ele>
        <time>2021-05-08T10:27:14.401Z</time>
      </trkpt>
      <trkpt lat="46.95291" lon="6.83356">
        <ele>450</ele>
        <time>2021-05-08T10:27:31.717Z</time>
      </trkpt>
      <trkpt lat="46.95295" lon="6.83349">
        <ele>450.00017551795</ele>
        <time>2021-05-08T10:27:38.152Z</time>
      </trkpt>
      <trkpt lat="46.95299" lon="6.83345">
        <ele>450.09982498974</ele>
        <time>2021-05-08T10:27:44.313Z</time>
      </trkpt>
      <trkpt lat="46.95305" lon="6.8334">
        <ele>450.3</ele>
        <time>2021-05-08T10:27:54.017Z</time>
      </trkpt>
      <trkpt lat="46.95309" lon="6.83338">
        <ele>450.4</ele>
        <time>2021-05-08T10:27:59.588Z</time>
      </trkpt>
      <trkpt lat="46.95314" lon="6.83336">
        <ele>450.5</ele>
        <time>2021-05-08T10:28:06.087Z</time>
      </trkpt>
      <trkpt lat="46.9532" lon="6.83334">
        <ele>450.7</ele>
        <time>2021-05-08T10:28:15.133Z</time>
      </trkpt>
      <trkpt lat="46.95325" lon="6.83334">
        <ele>450.79916264286</ele>
        <time>2021-05-08T10:28:21.441Z</time>
      </trkpt>
      <trkpt lat="46.95334" lon="6.83333">
        <ele>451</ele>
        <time>2021-05-08T10:28:33.144Z</time>
      </trkpt>
      <trkpt lat="46.95342" lon="6.83333">
        <ele>451.1</ele>
        <time>2021-05-08T10:28:42.471Z</time>
      </trkpt>
      <trkpt lat="46.95346" lon="6.83332">
        <ele>451.1</ele>
        <time>2021-05-08T10:28:46.661Z</time>
      </trkpt>
      <trkpt lat="46.95355" lon="6.83329">
        <ele>451.2</ele>
        <time>2021-05-08T10:28:57.239Z</time>
      </trkpt>
      <trkpt lat="46.95378" lon="6.8332">
        <ele>451.39915084007</ele>
        <time>2021-05-08T10:29:23.856Z</time>
      </trkpt>
      <trkpt lat="46.95396" lon="6.83313">
        <ele>451.50011752366</ele>
        <time>2021-05-08T10:29:44.087Z</time>
      </trkpt>
      <trkpt lat="46.95405" lon="6.8331">
        <ele>451.6</ele>
        <time>2021-05-08T10:29:54.665Z</time>
      </trkpt>
      <trkpt lat="46.95415" lon="6.83305">
        <ele>451.7</ele>
        <time>2021-05-08T10:30:06.609Z</time>
      </trkpt>
      <trkpt lat="46.95422" lon="6.833">
        <ele>451.9</ele>
        <time>2021-05-08T10:30:17.122Z</time>
      </trkpt>
      <trkpt lat="46.95423" lon="6.83301">
        <ele>451.9</ele>
        <time>2021-05-08T10:30:17.951Z</time>
      </trkpt>
      <trkpt lat="46.95422" lon="6.833">
        <ele>451.9</ele>
        <time>2021-05-08T10:30:18.780Z</time>
      </trkpt>
      <trkpt lat="46.95424" lon="6.83299">
        <ele>451.9</ele>
        <time>2021-05-08T10:30:20.961Z</time>
      </trkpt>
      <trkpt lat="46.95432" lon="6.83293">
        <ele>452.1</ele>
        <time>2021-05-08T10:30:32.615Z</time>
      </trkpt>
      <trkpt lat="46.95441" lon="6.83285">
        <ele>452.4</ele>
        <time>2021-05-08T10:30:47.322Z</time>
      </trkpt>
      <trkpt lat="46.95454" lon="6.8327">
        <ele>452.6</ele>
        <time>2021-05-08T10:31:06.533Z</time>
      </trkpt>
      <trkpt lat="46.95463" lon="6.83258">
        <ele>452.8</ele>
        <time>2021-05-08T10:31:21.323Z</time>
      </trkpt>
      <trkpt lat="46.95469" lon="6.83248">
        <ele>452.80009057809</ele>
        <time>2021-05-08T10:31:30.706Z</time>
      </trkpt>
      <trkpt lat="46.95474" lon="6.83238">
        <ele>452.9</ele>
        <time>2021-05-08T10:31:40.500Z</time>
      </trkpt>
      <trkpt lat="46.95479" lon="6.83226">
        <ele>453</ele>
        <time>2021-05-08T10:31:51.453Z</time>
      </trkpt>
      <trkpt lat="46.95485" lon="6.83208">
        <ele>453</ele>
        <time>2021-05-08T10:32:05.569Z</time>
      </trkpt>
      <trkpt lat="46.95493" lon="6.83182">
        <ele>453.20016758082</ele>
        <time>2021-05-08T10:32:27.756Z</time>
      </trkpt>
      <trkpt lat="46.95497" lon="6.83172">
        <ele>453.30004044769</ele>
        <time>2021-05-08T10:32:36.991Z</time>
      </trkpt>
      <trkpt lat="46.955" lon="6.83167">
        <ele>453.39928508461</ele>
        <time>2021-05-08T10:32:42.856Z</time>
      </trkpt>
      <trkpt lat="46.95505" lon="6.83161">
        <ele>453.7</ele>
        <time>2021-05-08T10:32:54.263Z</time>
      </trkpt>
      <trkpt lat="46.9551" lon="6.83156">
        <ele>454.09666759301</ele>
        <time>2021-05-08T10:33:06.429Z</time>
      </trkpt>
      <trkpt lat="46.95516" lon="6.83153">
        <ele>454.6</ele>
        <time>2021-05-08T10:33:20.603Z</time>
      </trkpt>
      <trkpt lat="46.95523" lon="6.8315">
        <ele>455.30440852227</ele>
        <time>2021-05-08T10:33:39.552Z</time>
      </trkpt>
      <trkpt lat="46.95529" lon="6.83148">
        <ele>455.90302347245</ele>
        <time>2021-05-08T10:33:55.646Z</time>
      </trkpt>
      <trkpt lat="46.95535" lon="6.83147">
        <ele>456.60087309091</ele>
        <time>2021-05-08T10:34:14.757Z</time>
      </trkpt>
      <trkpt lat="46.95538" lon="6.83147">
        <ele>457</ele>
        <time>2021-05-08T10:34:26.636Z</time>
      </trkpt>
      <trkpt lat="46.95539" lon="6.83142">
        <ele>457</ele>
        <time>2021-05-08T10:34:30.307Z</time>
      </trkpt>
      <trkpt lat="46.95541" lon="6.83139">
        <ele>457</ele>
        <time>2021-05-08T10:34:33.262Z</time>
      </trkpt>
      <trkpt lat="46.95544" lon="6.83137">
        <ele>457</ele>
        <time>2021-05-08T10:34:36.665Z</time>
      </trkpt>
      <trkpt lat="46.95551" lon="6.83134">
        <ele>457</ele>
        <time>2021-05-08T10:34:44.194Z</time>
      </trkpt>
      <trkpt lat="46.95576" lon="6.83125">
        <ele>457.2</ele>
        <time>2021-05-08T10:35:12.808Z</time>
      </trkpt>
      <trkpt lat="46.95594" lon="6.8312">
        <ele>457.5</ele>
        <time>2021-05-08T10:35:35.059Z</time>
      </trkpt>
      <trkpt lat="46.95597" lon="6.83118">
        <ele>457.10158472146</ele>
        <time>2021-05-08T10:35:35.800Z</time>
      </trkpt>
      <trkpt lat="46.956" lon="6.83116">
        <ele>457.5</ele>
        <time>2021-05-08T10:35:46.909Z</time>
      </trkpt>
      <trkpt lat="46.95614" lon="6.83081">
        <ele>457.49805984348</ele>
        <time>2021-05-08T10:36:15.465Z</time>
      </trkpt>
      <trkpt lat="46.95616" lon="6.83075">
        <ele>457.3</ele>
        <time>2021-05-08T10:36:16.604Z</time>
      </trkpt>
      <trkpt lat="46.95618" lon="6.83072">
        <ele>457.20044292794</ele>
        <time>2021-05-08T10:36:17.381Z</time>
      </trkpt>
      <trkpt lat="46.95621" lon="6.83069">
        <ele>457.10031602317</ele>
        <time>2021-05-08T10:36:18.444Z</time>
      </trkpt>
      <trkpt lat="46.95628" lon="6.83065">
        <ele>456.90047111168</ele>
        <time>2021-05-08T10:36:20.665Z</time>
      </trkpt>
      <trkpt lat="46.95636" lon="6.8306">
        <ele>456.8</ele>
        <time>2021-05-08T10:36:23.741Z</time>
      </trkpt>
      <trkpt lat="46.95644" lon="6.83057">
        <ele>456.8</ele>
        <time>2021-05-08T10:36:32.266Z</time>
      </trkpt>
      <trkpt lat="46.95662" lon="6.8305">
        <ele>456.7</ele>
        <time>2021-05-08T10:36:50.031Z</time>
      </trkpt>
      <trkpt lat="46.95681" lon="6.83041">
        <ele>456.5</ele>
        <time>2021-05-08T10:36:57.237Z</time>
      </trkpt>
      <trkpt lat="46.95699" lon="6.83029">
        <ele>456.6</ele>
        <time>2021-05-08T10:37:18.644Z</time>
      </trkpt>
      <trkpt lat="46.95712" lon="6.83021">
        <ele>456.6</ele>
        <time>2021-05-08T10:37:33.201Z</time>
      </trkpt>
      <trkpt lat="46.95713" lon="6.83021">
        <ele>456.6</ele>
        <time>2021-05-08T10:37:33.722Z</time>
      </trkpt>
      <trkpt lat="46.95712" lon="6.83021">
        <ele>456.6</ele>
        <time>2021-05-08T10:37:34.242Z</time>
      </trkpt>
      <trkpt lat="46.95772" lon="6.82979">
        <ele>458.5</ele>
        <time>2021-05-08T10:39:07.229Z</time>
      </trkpt>
      <trkpt lat="46.95789" lon="6.82966">
        <ele>459.30207469316</ele>
        <time>2021-05-08T10:39:39.322Z</time>
      </trkpt>
      <trkpt lat="46.95809" lon="6.82953">
        <ele>459.3</ele>
        <time>2021-05-08T10:40:01.877Z</time>
      </trkpt>
      <trkpt lat="46.95829" lon="6.82942">
        <ele>458.4</ele>
        <time>2021-05-08T10:40:07.281Z</time>
      </trkpt>
      <trkpt lat="46.95855" lon="6.82927">
        <ele>457.69965582268</ele>
        <time>2021-05-08T10:40:15.684Z</time>
      </trkpt>
      <trkpt lat="46.95863" lon="6.82922">
        <ele>457.6</ele>
        <time>2021-05-08T10:40:18.763Z</time>
      </trkpt>
      <trkpt lat="46.95864" lon="6.82923">
        <ele>457.6</ele>
        <time>2021-05-08T10:40:19.769Z</time>
      </trkpt>
      <trkpt lat="46.95863" lon="6.82922">
        <ele>457.6</ele>
        <time>2021-05-08T10:40:20.774Z</time>
      </trkpt>
      <trkpt lat="46.95882" lon="6.82912">
        <ele>457.60069576307</ele>
        <time>2021-05-08T10:40:41.623Z</time>
      </trkpt>
      <trkpt lat="46.95902" lon="6.82902">
        <ele>458.1011855105</ele>
        <time>2021-05-08T10:41:09.484Z</time>
      </trkpt>
      <trkpt lat="46.95918" lon="6.82894">
        <ele>458.4</ele>
        <time>2021-05-08T10:41:30.309Z</time>
      </trkpt>
      <trkpt lat="46.9594" lon="6.82881">
        <ele>458.5</ele>
        <time>2021-05-08T10:41:55.783Z</time>
      </trkpt>
      <trkpt lat="46.95949" lon="6.82874">
        <ele>458.5</ele>
        <time>2021-05-08T10:42:06.302Z</time>
      </trkpt>
      <trkpt lat="46.95957" lon="6.82864">
        <ele>458.50039410226</ele>
        <time>2021-05-08T10:42:17.162Z</time>
      </trkpt>
      <trkpt lat="46.95969" lon="6.82847">
        <ele>458.5</ele>
        <time>2021-05-08T10:42:34.388Z</time>
      </trkpt>
      <trkpt lat="46.95979" lon="6.82834">
        <ele>458.3002597437</ele>
        <time>2021-05-08T10:42:38.916Z</time>
      </trkpt>
      <trkpt lat="46.95999" lon="6.82807">
        <ele>458.7</ele>
        <time>2021-05-08T10:43:11.360Z</time>
      </trkpt>
      <trkpt lat="46.96003" lon="6.82798">
        <ele>458.9</ele>
        <time>2021-05-08T10:43:21.449Z</time>
      </trkpt>
      <trkpt lat="46.96003" lon="6.82795">
        <ele>458.99842735472</ele>
        <time>2021-05-08T10:43:25.099Z</time>
      </trkpt>
      <trkpt lat="46.96004" lon="6.82789">
        <ele>459.10051495652</ele>
        <time>2021-05-08T10:43:30.692Z</time>
      </trkpt>
      <trkpt lat="46.96004" lon="6.82783">
        <ele>459.19979013044</ele>
        <time>2021-05-08T10:43:36.126Z</time>
      </trkpt>
      <trkpt lat="46.96002" lon="6.82772">
        <ele>457.3</ele>
        <time>2021-05-08T10:43:37.873Z</time>
      </trkpt>
      <trkpt lat="46.96001" lon="6.82763">
        <ele>472.9</ele>
        <time>2021-05-08T10:44:02.655Z</time>
      </trkpt>
      <trkpt lat="46.96" lon="6.82752">
        <ele>482.4</ele>
        <time>2021-05-08T10:44:32.814Z</time>
      </trkpt>
      <trkpt lat="46.96" lon="6.82739">
        <ele>489.90018106507</ele>
        <time>2021-05-08T10:45:08.146Z</time>
      </trkpt>
      <trkpt lat="46.96001" lon="6.82728">
        <ele>490.1</ele>
        <time>2021-05-08T10:45:18.457Z</time>
      </trkpt>
      <trkpt lat="46.96002" lon="6.82719">
        <ele>486.28906831412</ele>
        <time>2021-05-08T10:45:19.855Z</time>
      </trkpt>
      <trkpt lat="46.96004" lon="6.82711">
        <ele>481.81455279885</ele>
        <time>2021-05-08T10:45:21.162Z</time>
      </trkpt>
      <trkpt lat="46.96008" lon="6.82699">
        <ele>460.4</ele>
        <time>2021-05-08T10:45:23.211Z</time>
      </trkpt>
      <trkpt lat="46.96011" lon="6.82693">
        <ele>460.7997355272</ele>
        <time>2021-05-08T10:45:34.501Z</time>
      </trkpt>
      <trkpt lat="46.96014" lon="6.82685">
        <ele>461.3</ele>
        <time>2021-05-08T10:45:48.533Z</time>
      </trkpt>
      <trkpt lat="46.96021" lon="6.82672">
        <ele>460.8</ele>
        <time>2021-05-08T10:45:51.336Z</time>
      </trkpt>
      <trkpt lat="46.96028" lon="6.82659">
        <ele>461</ele>
        <time>2021-05-08T10:46:05.261Z</time>
      </trkpt>
      <trkpt lat="46.96041" lon="6.82641">
        <ele>461.6</ele>
        <time>2021-05-08T10:46:31.917Z</time>
      </trkpt>
      <trkpt lat="46.96061" lon="6.8262">
        <ele>462.09872308438</ele>
        <time>2021-05-08T10:47:03.110Z</time>
      </trkpt>
      <trkpt lat="46.9607" lon="6.82608">
        <ele>463.4</ele>
        <time>2021-05-08T10:47:38.148Z</time>
      </trkpt>
      <trkpt lat="46.96081" lon="6.82598">
        <ele>462.50293926347</ele>
        <time>2021-05-08T10:47:41.058Z</time>
      </trkpt>
      <trkpt lat="46.96091" lon="6.82587">
        <ele>463.39927050244</ele>
        <time>2021-05-08T10:48:07.368Z</time>
      </trkpt>
      <trkpt lat="46.96101" lon="6.8258">
        <ele>463</ele>
        <time>2021-05-08T10:48:10.340Z</time>
      </trkpt>
      <trkpt lat="46.9611" lon="6.82574">
        <ele>463.10047078679</ele>
        <time>2021-05-08T10:48:21.596Z</time>
      </trkpt>
      <trkpt lat="46.96116" lon="6.82569">
        <ele>463.2004342548</ele>
        <time>2021-05-08T10:48:29.812Z</time>
      </trkpt>
      <trkpt lat="46.96121" lon="6.82563">
        <ele>463.5</ele>
        <time>2021-05-08T10:48:41.206Z</time>
      </trkpt>
      <trkpt lat="46.96126" lon="6.82555">
        <ele>463.69962295348</ele>
        <time>2021-05-08T10:48:51.356Z</time>
      </trkpt>
      <trkpt lat="46.96135" lon="6.82541">
        <ele>463.7010123129</ele>
        <time>2021-05-08T10:49:04.921Z</time>
      </trkpt>
      <trkpt lat="46.96147" lon="6.82521">
        <ele>464.3</ele>
        <time>2021-05-08T10:49:31.797Z</time>
      </trkpt>
      <trkpt lat="46.96151" lon="6.82511">
        <ele>464.60038437629</ele>
        <time>2021-05-08T10:49:44.320Z</time>
      </trkpt>
      <trkpt lat="46.96154" lon="6.82504">
        <ele>464.8</ele>
        <time>2021-05-08T10:49:52.937Z</time>
      </trkpt>
      <trkpt lat="46.96155" lon="6.82494">
        <ele>464.9</ele>
        <time>2021-05-08T10:50:01.148Z</time>
      </trkpt>
      <trkpt lat="46.96156" lon="6.82484">
        <ele>464.90068857407</ele>
        <time>2021-05-08T10:50:08.276Z</time>
      </trkpt>
      <trkpt lat="46.96156" lon="6.82477">
        <ele>464.99934811111</ele>
        <time>2021-05-08T10:50:14.359Z</time>
      </trkpt>
      <trkpt lat="46.96154" lon="6.82466">
        <ele>465.2</ele>
        <time>2021-05-08T10:50:24.865Z</time>
      </trkpt>
      <trkpt lat="46.96152" lon="6.82458">
        <ele>465.29941714697</ele>
        <time>2021-05-08T10:50:31.983Z</time>
      </trkpt>
      <trkpt lat="46.96149" lon="6.82448">
        <ele>465.3</ele>
        <time>2021-05-08T10:50:39.685Z</time>
      </trkpt>
      <trkpt lat="46.96132" lon="6.82412">
        <ele>465.90048381722</ele>
        <time>2021-05-08T10:51:17.489Z</time>
      </trkpt>
      <trkpt lat="46.96126" lon="6.82399">
        <ele>466.30022343157</ele>
        <time>2021-05-08T10:51:34.291Z</time>
      </trkpt>
      <trkpt lat="46.96118" lon="6.82371">
        <ele>466.6</ele>
        <time>2021-05-08T10:51:58.946Z</time>
      </trkpt>
      <trkpt lat="46.96111" lon="6.82348">
        <ele>467.2</ele>
        <time>2021-05-08T10:52:25.031Z</time>
      </trkpt>
      <trkpt lat="46.96096" lon="6.82288">
        <ele>467.9</ele>
        <time>2021-05-08T10:53:17.815Z</time>
      </trkpt>
      <trkpt lat="46.9609" lon="6.82269">
        <ele>468.2</ele>
        <time>2021-05-08T10:53:36.078Z</time>
      </trkpt>
      <trkpt lat="46.9609" lon="6.82256">
        <ele>468.2</ele>
        <time>2021-05-08T10:53:45.238Z</time>
      </trkpt>
      <trkpt lat="46.96091" lon="6.82246">
        <ele>468.20058930739</ele>
        <time>2021-05-08T10:53:52.365Z</time>
      </trkpt>
      <trkpt lat="46.96092" lon="6.82238">
        <ele>468.3</ele>
        <time>2021-05-08T10:53:59.220Z</time>
      </trkpt>
      <trkpt lat="46.96095" lon="6.82231">
        <ele>468.39962592541</ele>
        <time>2021-05-08T10:54:06.168Z</time>
      </trkpt>
      <trkpt lat="46.96097" lon="6.82224">
        <ele>468.3</ele>
        <time>2021-05-08T10:54:07.833Z</time>
      </trkpt>
      <trkpt lat="46.96101" lon="6.82217">
        <ele>468.3</ele>
        <time>2021-05-08T10:54:14.265Z</time>
      </trkpt>
      <trkpt lat="46.96106" lon="6.82211">
        <ele>468.30003636524</ele>
        <time>2021-05-08T10:54:20.938Z</time>
      </trkpt>
      <trkpt lat="46.96111" lon="6.82205">
        <ele>468.4</ele>
        <time>2021-05-08T10:54:28.711Z</time>
      </trkpt>
      <trkpt lat="46.96131" lon="6.82184">
        <ele>468.4</ele>
        <time>2021-05-08T10:54:54.113Z</time>
      </trkpt>
      <trkpt lat="46.96145" lon="6.8217">
        <ele>468.5</ele>
        <time>2021-05-08T10:55:12.612Z</time>
      </trkpt>
      <trkpt lat="46.96159" lon="6.82155">
        <ele>468.6</ele>
        <time>2021-05-08T10:55:31.515Z</time>
      </trkpt>
      <trkpt lat="46.96167" lon="6.82147">
        <ele>468.6</ele>
        <time>2021-05-08T10:55:41.515Z</time>
      </trkpt>
      <trkpt lat="46.96174" lon="6.82141">
        <ele>468.6</ele>
        <time>2021-05-08T10:55:49.887Z</time>
      </trkpt>
      <trkpt lat="46.96184" lon="6.82135">
        <ele>468.60033661038</ele>
        <time>2021-05-08T10:56:01.046Z</time>
      </trkpt>
      <trkpt lat="46.96193" lon="6.82128">
        <ele>468.9</ele>
        <time>2021-05-08T10:56:15.444Z</time>
      </trkpt>
      <trkpt lat="46.96213" lon="6.82117">
        <ele>468.6</ele>
        <time>2021-05-08T10:56:22.761Z</time>
      </trkpt>
      <trkpt lat="46.96224" lon="6.82114">
        <ele>468.8</ele>
        <time>2021-05-08T10:56:36.574Z</time>
      </trkpt>
      <trkpt lat="46.96238" lon="6.8211">
        <ele>468.3</ele>
        <time>2021-05-08T10:56:40.436Z</time>
      </trkpt>
      <trkpt lat="46.96245" lon="6.82113">
        <ele>468.99561374324</ele>
        <time>2021-05-08T10:56:59.173Z</time>
      </trkpt>
      <trkpt lat="46.96259" lon="6.82106">
        <ele>470.70447331667</ele>
        <time>2021-05-08T10:57:45.963Z</time>
      </trkpt>
      <trkpt lat="46.9627" lon="6.8209">
        <ele>469.19816639094</ele>
        <time>2021-05-08T10:57:49.447Z</time>
      </trkpt>
      <trkpt lat="46.96276" lon="6.82084">
        <ele>469.1</ele>
        <time>2021-05-08T10:57:51.952Z</time>
      </trkpt>
      <trkpt lat="46.96281" lon="6.82097">
        <ele>469.6</ele>
        <time>2021-05-08T10:58:10.228Z</time>
      </trkpt>
      <trkpt lat="46.9628" lon="6.82116">
        <ele>476</ele>
        <time>2021-05-08T10:59:02.016Z</time>
      </trkpt>
      <trkpt lat="46.96279" lon="6.82124">
        <ele>475.9</ele>
        <time>2021-05-08T10:59:03.827Z</time>
      </trkpt>
      <trkpt lat="46.96277" lon="6.82132">
        <ele>478.2</ele>
        <time>2021-05-08T10:59:26.981Z</time>
      </trkpt>
      <trkpt lat="46.96269" lon="6.82144">
        <ele>479.6</ele>
        <time>2021-05-08T11:00:06.243Z</time>
      </trkpt>
      <trkpt lat="46.96268" lon="6.82144">
        <ele>479.6</ele>
        <time>2021-05-08T11:00:07.276Z</time>
      </trkpt>
      <trkpt lat="46.96261" lon="6.82157">
        <ele>482.50283819599</ele>
        <time>2021-05-08T11:00:52.277Z</time>
      </trkpt>
      <trkpt lat="46.96256" lon="6.82171">
        <ele>484.40234040188</ele>
        <time>2021-05-08T11:01:35.219Z</time>
      </trkpt>
      <trkpt lat="46.96253" lon="6.82185">
        <ele>487.908276649</ele>
        <time>2021-05-08T11:02:15.098Z</time>
      </trkpt>
      <trkpt lat="46.96251" lon="6.82195">
        <ele>489.50702904347</ele>
        <time>2021-05-08T11:02:43.417Z</time>
      </trkpt>
      <trkpt lat="46.96251" lon="6.82198">
        <ele>489.9</ele>
        <time>2021-05-08T11:02:51.570Z</time>
      </trkpt>
      <trkpt lat="46.96252" lon="6.82199">
        <ele>490.09280871911</ele>
        <time>2021-05-08T11:02:54.741Z</time>
      </trkpt>
      <trkpt lat="46.96251" lon="6.82198">
        <ele>489.9</ele>
        <time>2021-05-08T11:02:54.920Z</time>
      </trkpt>
      <trkpt lat="46.96251" lon="6.82208">
        <ele>491.5</ele>
        <time>2021-05-08T11:03:22.097Z</time>
      </trkpt>
      <trkpt lat="46.96253" lon="6.82221">
        <ele>493.9</ele>
        <time>2021-05-08T11:03:58.313Z</time>
      </trkpt>
      <trkpt lat="46.96259" lon="6.82232">
        <ele>497.89180616183</ele>
        <time>2021-05-08T11:04:36.582Z</time>
      </trkpt>
      <trkpt lat="46.96265" lon="6.82244">
        <ele>500.8</ele>
        <time>2021-05-08T11:05:17.010Z</time>
      </trkpt>
      <trkpt lat="46.9627" lon="6.82253">
        <ele>502.7</ele>
        <time>2021-05-08T11:05:48.548Z</time>
      </trkpt>
      <trkpt lat="46.96277" lon="6.82285">
        <ele>503</ele>
        <time>2021-05-08T11:06:15.447Z</time>
      </trkpt>
      <trkpt lat="46.96281" lon="6.82302">
        <ele>504.30915962036</ele>
        <time>2021-05-08T11:06:50.687Z</time>
      </trkpt>
      <trkpt lat="46.96287" lon="6.82321">
        <ele>507.68765512331</ele>
        <time>2021-05-08T11:07:47.582Z</time>
      </trkpt>
      <trkpt lat="46.9629" lon="6.82347">
        <ele>511.5</ele>
        <time>2021-05-08T11:08:59.244Z</time>
      </trkpt>
      <trkpt lat="46.96292" lon="6.8235">
        <ele>511.7</ele>
        <time>2021-05-08T11:09:05.184Z</time>
      </trkpt>
      <trkpt lat="46.96292" lon="6.82354">
        <ele>511.7</ele>
        <time>2021-05-08T11:09:08.002Z</time>
      </trkpt>
      <trkpt lat="46.96296" lon="6.82381">
        <ele>512.20013233346</ele>
        <time>2021-05-08T11:09:33.716Z</time>
      </trkpt>
      <trkpt lat="46.963" lon="6.82406">
        <ele>513.49703548779</ele>
        <time>2021-05-08T11:10:11.255Z</time>
      </trkpt>
      <trkpt lat="46.96301" lon="6.82421">
        <ele>514.59768844354</ele>
        <time>2021-05-08T11:10:40.894Z</time>
      </trkpt>
      <trkpt lat="46.96301" lon="6.82437">
        <ele>515.6</ele>
        <time>2021-05-08T11:11:08.038Z</time>
      </trkpt>
      <trkpt lat="46.96299" lon="6.82449">
        <ele>516.69762756845</ele>
        <time>2021-05-08T11:11:40.109Z</time>
      </trkpt>
      <trkpt lat="46.96295" lon="6.82462">
        <ele>517.4</ele>
        <time>2021-05-08T11:12:00.663Z</time>
      </trkpt>
      <trkpt lat="46.96286" lon="6.82481">
        <ele>518.7995916609</ele>
        <time>2021-05-08T11:12:38.826Z</time>
      </trkpt>
      <trkpt lat="46.96271" lon="6.82508">
        <ele>521.00227944228</ele>
        <time>2021-05-08T11:13:38.382Z</time>
      </trkpt>
      <trkpt lat="46.96269" lon="6.82512">
        <ele>521.29526979933</ele>
        <time>2021-05-08T11:13:46.416Z</time>
      </trkpt>
      <trkpt lat="46.96267" lon="6.82519">
        <ele>521.4</ele>
        <time>2021-05-08T11:13:52.978Z</time>
      </trkpt>
      <trkpt lat="46.96269" lon="6.8252">
        <ele>521.5</ele>
        <time>2021-05-08T11:13:56.727Z</time>
      </trkpt>
      <trkpt lat="46.96271" lon="6.82521">
        <ele>521.7</ele>
        <time>2021-05-08T11:14:02.119Z</time>
      </trkpt>
      <trkpt lat="46.96274" lon="6.8252">
        <ele>522.39170527884</ele>
        <time>2021-05-08T11:14:14.371Z</time>
      </trkpt>
      <trkpt lat="46.96277" lon="6.82521">
        <ele>523.5</ele>
        <time>2021-05-08T11:14:26.622Z</time>
      </trkpt>
      <trkpt lat="46.96278" lon="6.82523">
        <ele>524.09916828901</ele>
        <time>2021-05-08T11:14:33.360Z</time>
      </trkpt>
      <trkpt lat="46.96278" lon="6.82528">
        <ele>524.3</ele>
        <time>2021-05-08T11:14:39.899Z</time>
      </trkpt>
      <trkpt lat="46.96279" lon="6.82551">
        <ele>529.60711069547</ele>
        <time>2021-05-08T11:15:42.532Z</time>
      </trkpt>
      <trkpt lat="46.9628" lon="6.82559">
        <ele>531</ele>
        <time>2021-05-08T11:16:04.635Z</time>
      </trkpt>
      <trkpt lat="46.96281" lon="6.82583">
        <ele>534.19947896052</ele>
        <time>2021-05-08T11:17:09.980Z</time>
      </trkpt>
      <trkpt lat="46.96281" lon="6.82599">
        <ele>535.4</ele>
        <time>2021-05-08T11:17:42.440Z</time>
      </trkpt>
      <trkpt lat="46.96281" lon="6.82599">
        <ele>535.4</ele>
        <time>2021-05-08T11:17:42.766Z</time>
      </trkpt>
      <trkpt lat="46.96281" lon="6.82599">
        <ele>535.4</ele>
        <time>2021-05-08T11:17:43.092Z</time>
      </trkpt>
      <trkpt lat="46.96281" lon="6.82604">
        <ele>535.79787900069</ele>
        <time>2021-05-08T11:17:54.021Z</time>
      </trkpt>
      <trkpt lat="46.96281" lon="6.82621">
        <ele>536.90150047369</ele>
        <time>2021-05-08T11:18:23.756Z</time>
      </trkpt>
      <trkpt lat="46.96281" lon="6.82631">
        <ele>537.5</ele>
        <time>2021-05-08T11:18:40.117Z</time>
      </trkpt>
      <trkpt lat="46.96284" lon="6.82642">
        <ele>538.7</ele>
        <time>2021-05-08T11:19:12.310Z</time>
      </trkpt>
      <trkpt lat="46.96287" lon="6.82656">
        <ele>540.50101445614</ele>
        <time>2021-05-08T11:19:52.188Z</time>
      </trkpt>
      <trkpt lat="46.9629" lon="6.82664">
        <ele>541.6</ele>
        <time>2021-05-08T11:20:16.995Z</time>
      </trkpt>
      <trkpt lat="46.96303" lon="6.82681">
        <ele>542.2</ele>
        <time>2021-05-08T11:20:43.272Z</time>
      </trkpt>
      <trkpt lat="46.96311" lon="6.82695">
        <ele>543.10214093513</ele>
        <time>2021-05-08T11:21:09.635Z</time>
      </trkpt>
      <trkpt lat="46.96318" lon="6.82698">
        <ele>543.5</ele>
        <time>2021-05-08T11:21:23.206Z</time>
      </trkpt>
      <trkpt lat="46.96334" lon="6.82702">
        <ele>544.79806511553</ele>
        <time>2021-05-08T11:21:59.667Z</time>
      </trkpt>
      <trkpt lat="46.96349" lon="6.8271">
        <ele>545.5</ele>
        <time>2021-05-08T11:22:27.261Z</time>
      </trkpt>
      <trkpt lat="46.9636" lon="6.82714">
        <ele>545.1</ele>
        <time>2021-05-08T11:22:30.322Z</time>
      </trkpt>
      <trkpt lat="46.96361" lon="6.82717">
        <ele>544.70342131076</ele>
        <time>2021-05-08T11:22:30.835Z</time>
      </trkpt>
      <trkpt lat="46.96395" lon="6.82701">
        <ele>549.2</ele>
        <time>2021-05-08T11:24:39.102Z</time>
      </trkpt>
      <trkpt lat="46.96399" lon="6.82709">
        <ele>549.4</ele>
        <time>2021-05-08T11:24:48.682Z</time>
      </trkpt>
      <trkpt lat="46.96404" lon="6.8272">
        <ele>549.7</ele>
        <time>2021-05-08T11:25:02.074Z</time>
      </trkpt>
      <trkpt lat="46.96411" lon="6.82731">
        <ele>550.1</ele>
        <time>2021-05-08T11:25:18.553Z</time>
      </trkpt>
      <trkpt lat="46.96418" lon="6.82742">
        <ele>550.3</ele>
        <time>2021-05-08T11:25:31.452Z</time>
      </trkpt>
      <trkpt lat="46.96419" lon="6.82742">
        <ele>550.3</ele>
        <time>2021-05-08T11:25:32.355Z</time>
      </trkpt>
      <trkpt lat="46.96418" lon="6.82742">
        <ele>550.3</ele>
        <time>2021-05-08T11:25:33.258Z</time>
      </trkpt>
      <trkpt lat="46.96419" lon="6.82743">
        <ele>550.3</ele>
        <time>2021-05-08T11:25:34.508Z</time>
      </trkpt>
      <trkpt lat="46.96428" lon="6.82756">
        <ele>550.09813982868</ele>
        <time>2021-05-08T11:25:38.734Z</time>
      </trkpt>
      <trkpt lat="46.96486" lon="6.8285">
        <ele>549.50110630436</ele>
        <time>2021-05-08T11:26:59.477Z</time>
      </trkpt>
      <trkpt lat="46.965" lon="6.82871">
        <ele>549.3</ele>
        <time>2021-05-08T11:27:06.704Z</time>
      </trkpt>
      <trkpt lat="46.96503" lon="6.82878">
        <ele>549.2</ele>
        <time>2021-05-08T11:27:08.550Z</time>
      </trkpt>
      <trkpt lat="46.96511" lon="6.82893">
        <ele>549.30020812947</ele>
        <time>2021-05-08T11:27:22.983Z</time>
      </trkpt>
      <trkpt lat="46.9652" lon="6.82911">
        <ele>549.5</ele>
        <time>2021-05-08T11:27:40.851Z</time>
      </trkpt>
      <trkpt lat="46.96526" lon="6.82923">
        <ele>549.9</ele>
        <time>2021-05-08T11:27:57.251Z</time>
      </trkpt>
      <trkpt lat="46.96529" lon="6.82932">
        <ele>550.3</ele>
        <time>2021-05-08T11:28:10.319Z</time>
      </trkpt>
      <trkpt lat="46.96531" lon="6.82938">
        <ele>550.4</ele>
        <time>2021-05-08T11:28:16.208Z</time>
      </trkpt>
      <trkpt lat="46.96533" lon="6.82947">
        <ele>550.4</ele>
        <time>2021-05-08T11:28:22.876Z</time>
      </trkpt>
      <trkpt lat="46.96535" lon="6.82964">
        <ele>550.2</ele>
        <time>2021-05-08T11:28:26.764Z</time>
      </trkpt>
      <trkpt lat="46.9654" lon="6.83001">
        <ele>549.7</ele>
        <time>2021-05-08T11:28:35.020Z</time>
      </trkpt>
      <trkpt lat="46.96541" lon="6.83011">
        <ele>549.6002949515</ele>
        <time>2021-05-08T11:28:37.371Z</time>
      </trkpt>
      <trkpt lat="46.96543" lon="6.83022">
        <ele>549.6</ele>
        <time>2021-05-08T11:28:45.386Z</time>
      </trkpt>
      <trkpt lat="46.96547" lon="6.83037">
        <ele>549.7</ele>
        <time>2021-05-08T11:28:57.764Z</time>
      </trkpt>
      <trkpt lat="46.96551" lon="6.83053">
        <ele>549.69877398573</ele>
        <time>2021-05-08T11:29:09.750Z</time>
      </trkpt>
      <trkpt lat="46.96553" lon="6.83061">
        <ele>549.5</ele>
        <time>2021-05-08T11:29:11.338Z</time>
      </trkpt>
      <trkpt lat="46.96565" lon="6.83096">
        <ele>548.20021661577</ele>
        <time>2021-05-08T11:29:17.713Z</time>
      </trkpt>
      <trkpt lat="46.96572" lon="6.8312">
        <ele>546.5005343054</ele>
        <time>2021-05-08T11:29:21.717Z</time>
      </trkpt>
      <trkpt lat="46.96576" lon="6.83132">
        <ele>545.6</ele>
        <time>2021-05-08T11:29:23.765Z</time>
      </trkpt>
      <trkpt lat="46.96578" lon="6.83137">
        <ele>545.5</ele>
        <time>2021-05-08T11:29:24.952Z</time>
      </trkpt>
      <trkpt lat="46.96585" lon="6.83148">
        <ele>545.7</ele>
        <time>2021-05-08T11:29:37.850Z</time>
      </trkpt>
      <trkpt lat="46.96602" lon="6.83177">
        <ele>545.8</ele>
        <time>2021-05-08T11:30:05.765Z</time>
      </trkpt>
      <trkpt lat="46.96605" lon="6.83182">
        <ele>545.8</ele>
        <time>2021-05-08T11:30:10.455Z</time>
      </trkpt>
      <trkpt lat="46.96605" lon="6.83183">
        <ele>545.8</ele>
        <time>2021-05-08T11:30:11.074Z</time>
      </trkpt>
      <trkpt lat="46.96605" lon="6.83182">
        <ele>545.8</ele>
        <time>2021-05-08T11:30:11.693Z</time>
      </trkpt>
      <trkpt lat="46.96613" lon="6.83196">
        <ele>545.9</ele>
        <time>2021-05-08T11:30:25.578Z</time>
      </trkpt>
      <trkpt lat="46.96619" lon="6.83207">
        <ele>545.9</ele>
        <time>2021-05-08T11:30:35.500Z</time>
      </trkpt>
      <trkpt lat="46.96622" lon="6.83209">
        <ele>545.9007043082</ele>
        <time>2021-05-08T11:30:38.909Z</time>
      </trkpt>
      <trkpt lat="46.96625" lon="6.8321">
        <ele>546</ele>
        <time>2021-05-08T11:30:43.418Z</time>
      </trkpt>
      <trkpt lat="46.96627" lon="6.8321">
        <ele>546</ele>
        <time>2021-05-08T11:30:45.483Z</time>
      </trkpt>
      <trkpt lat="46.96633" lon="6.83207">
        <ele>545.5</ele>
        <time>2021-05-08T11:30:46.908Z</time>
      </trkpt>
      <trkpt lat="46.96637" lon="6.83206">
        <ele>545.19792898378</ele>
        <time>2021-05-08T11:30:47.820Z</time>
      </trkpt>
      <trkpt lat="46.96639" lon="6.83208">
        <ele>545</ele>
        <time>2021-05-08T11:30:48.364Z</time>
      </trkpt>
      <trkpt lat="46.96643" lon="6.83211">
        <ele>544.80173548003</ele>
        <time>2021-05-08T11:30:49.480Z</time>
      </trkpt>
      <trkpt lat="46.96648" lon="6.83216">
        <ele>544.6</ele>
        <time>2021-05-08T11:30:51.148Z</time>
      </trkpt>
      <trkpt lat="46.96653" lon="6.83223">
        <ele>544.5</ele>
        <time>2021-05-08T11:30:53.504Z</time>
      </trkpt>
      <trkpt lat="46.9666" lon="6.83237">
        <ele>544.59992200903</ele>
        <time>2021-05-08T11:31:06.755Z</time>
      </trkpt>
      <trkpt lat="46.96669" lon="6.83257">
        <ele>544.40001170601</ele>
        <time>2021-05-08T11:31:12.486Z</time>
      </trkpt>
      <trkpt lat="46.96687" lon="6.83299">
        <ele>545.7995573616</ele>
        <time>2021-05-08T11:32:08.731Z</time>
      </trkpt>
      <trkpt lat="46.96719" lon="6.83374">
        <ele>546.50041874054</ele>
        <time>2021-05-08T11:33:18.464Z</time>
      </trkpt>
      <trkpt lat="46.96736" lon="6.83415">
        <ele>545.70018514438</ele>
        <time>2021-05-08T11:33:28.378Z</time>
      </trkpt>
      <trkpt lat="46.96745" lon="6.83439">
        <ele>545</ele>
        <time>2021-05-08T11:33:33.319Z</time>
      </trkpt>
      <trkpt lat="46.96746" lon="6.83439">
        <ele>545</ele>
        <time>2021-05-08T11:33:34.007Z</time>
      </trkpt>
      <trkpt lat="46.96745" lon="6.83439">
        <ele>545</ele>
        <time>2021-05-08T11:33:34.695Z</time>
      </trkpt>
      <trkpt lat="46.96747" lon="6.83445">
        <ele>544.8</ele>
        <time>2021-05-08T11:33:35.829Z</time>
      </trkpt>
      <trkpt lat="46.96761" lon="6.83477">
        <ele>544.30001940693</ele>
        <time>2021-05-08T11:33:44.164Z</time>
      </trkpt>
      <trkpt lat="46.96772" lon="6.83502">
        <ele>544</ele>
        <time>2021-05-08T11:33:51.053Z</time>
      </trkpt>
      <trkpt lat="46.96785" lon="6.83534">
        <ele>544</ele>
        <time>2021-05-08T11:34:17.290Z</time>
      </trkpt>
      <trkpt lat="46.96802" lon="6.83574">
        <ele>543.4</ele>
        <time>2021-05-08T11:34:27.698Z</time>
      </trkpt>
      <trkpt lat="46.96818" lon="6.83608">
        <ele>543.8</ele>
        <time>2021-05-08T11:35:01.143Z</time>
      </trkpt>
      <trkpt lat="46.96832" lon="6.83637">
        <ele>543.80094921193</ele>
        <time>2021-05-08T11:35:26.178Z</time>
      </trkpt>
      <trkpt lat="46.9684" lon="6.83657">
        <ele>543.20017324483</ele>
        <time>2021-05-08T11:35:30.340Z</time>
      </trkpt>
      <trkpt lat="46.96853" lon="6.83687">
        <ele>542.7</ele>
        <time>2021-05-08T11:35:38.010Z</time>
      </trkpt>
      <trkpt lat="46.9686" lon="6.83703">
        <ele>542.5</ele>
        <time>2021-05-08T11:35:42.376Z</time>
      </trkpt>
      <trkpt lat="46.96861" lon="6.83704">
        <ele>542.4</ele>
        <time>2021-05-08T11:35:42.530Z</time>
      </trkpt>
      <trkpt lat="46.9686" lon="6.83703">
        <ele>542.5</ele>
        <time>2021-05-08T11:35:45.249Z</time>
      </trkpt>
      <trkpt lat="46.96871" lon="6.8373">
        <ele>542.4</ele>
        <time>2021-05-08T11:36:05.927Z</time>
      </trkpt>
      <trkpt lat="46.96874" lon="6.83734">
        <ele>542.4</ele>
        <time>2021-05-08T11:36:10.114Z</time>
      </trkpt>
      <trkpt lat="46.9688" lon="6.83747">
        <ele>542.8</ele>
        <time>2021-05-08T11:36:26.920Z</time>
      </trkpt>
      <trkpt lat="46.96884" lon="6.83753">
        <ele>543.2</ele>
        <time>2021-05-08T11:36:38.800Z</time>
      </trkpt>
      <trkpt lat="46.96886" lon="6.83757">
        <ele>543.2</ele>
        <time>2021-05-08T11:36:42.294Z</time>
      </trkpt>
      <trkpt lat="46.96889" lon="6.83751">
        <ele>543.59764963325</ele>
        <time>2021-05-08T11:36:53.546Z</time>
      </trkpt>
      <trkpt lat="46.96897" lon="6.8373">
        <ele>544.4</ele>
        <time>2021-05-08T11:37:22.959Z</time>
      </trkpt>
      <trkpt lat="46.96901" lon="6.83735">
        <ele>544.3</ele>
        <time>2021-05-08T11:37:24.653Z</time>
      </trkpt>
      <trkpt lat="46.96905" lon="6.83741">
        <ele>544</ele>
        <time>2021-05-08T11:37:25.974Z</time>
      </trkpt>
      <trkpt lat="46.96908" lon="6.83749">
        <ele>543.90048684046</ele>
        <time>2021-05-08T11:37:28.057Z</time>
      </trkpt>
      <trkpt lat="46.96912" lon="6.83761">
        <ele>543.59945639004</ele>
        <time>2021-05-08T11:37:30.576Z</time>
      </trkpt>
      <trkpt lat="46.96914" lon="6.83766">
        <ele>543.4</ele>
        <time>2021-05-08T11:37:31.504Z</time>
      </trkpt>
      <trkpt lat="46.96914" lon="6.83767">
        <ele>543.4</ele>
        <time>2021-05-08T11:37:32.245Z</time>
      </trkpt>
      <trkpt lat="46.96914" lon="6.83766">
        <ele>543.4</ele>
        <time>2021-05-08T11:37:32.985Z</time>
      </trkpt>
      <trkpt lat="46.96916" lon="6.83771">
        <ele>543.20230318101</ele>
        <time>2021-05-08T11:37:33.917Z</time>
      </trkpt>
      <trkpt lat="46.96923" lon="6.83786">
        <ele>542.59956490814</ele>
        <time>2021-05-08T11:37:36.876Z</time>
      </trkpt>
      <trkpt lat="46.96944" lon="6.83824">
        <ele>541</ele>
        <time>2021-05-08T11:37:44.883Z</time>
      </trkpt>
      <trkpt lat="46.96953" lon="6.8384">
        <ele>540.4</ele>
        <time>2021-05-08T11:37:48.452Z</time>
      </trkpt>
      <trkpt lat="46.96975" lon="6.83877">
        <ele>538.1</ele>
        <time>2021-05-08T11:37:55.979Z</time>
      </trkpt>
      <trkpt lat="46.96985" lon="6.83893">
        <ele>537.00169002721</ele>
        <time>2021-05-08T11:37:59.307Z</time>
      </trkpt>
      <trkpt lat="46.97002" lon="6.83923">
        <ele>535.10131779456</ele>
        <time>2021-05-08T11:38:05.287Z</time>
      </trkpt>
      <trkpt lat="46.97009" lon="6.83936">
        <ele>534.69988048633</ele>
        <time>2021-05-08T11:38:08.333Z</time>
      </trkpt>
      <trkpt lat="46.97015" lon="6.83947">
        <ele>534.6</ele>
        <time>2021-05-08T11:38:11.783Z</time>
      </trkpt>
      <trkpt lat="46.97021" lon="6.83958">
        <ele>534.69977263656</ele>
        <time>2021-05-08T11:38:22.746Z</time>
      </trkpt>
      <trkpt lat="46.97028" lon="6.83971">
        <ele>535.20131072243</ele>
        <time>2021-05-08T11:38:42.404Z</time>
      </trkpt>
      <trkpt lat="46.97032" lon="6.83982">
        <ele>535.8</ele>
        <time>2021-05-08T11:39:00.125Z</time>
      </trkpt>
      <trkpt lat="46.97037" lon="6.83983">
        <ele>536.30404197828</ele>
        <time>2021-05-08T11:39:13.658Z</time>
      </trkpt>
      <trkpt lat="46.97041" lon="6.83983">
        <ele>536.69917768608</ele>
        <time>2021-05-08T11:39:24.271Z</time>
      </trkpt>
      <trkpt lat="46.97046" lon="6.83981">
        <ele>537.69445727462</ele>
        <time>2021-05-08T11:39:44.910Z</time>
      </trkpt>
      <trkpt lat="46.97052" lon="6.83973">
        <ele>538.8</ele>
        <time>2021-05-08T11:40:17.211Z</time>
      </trkpt>
      <trkpt lat="46.97056" lon="6.83967">
        <ele>539.99297533334</ele>
        <time>2021-05-08T11:40:40.004Z</time>
      </trkpt>
      <trkpt lat="46.97062" lon="6.83964">
        <ele>541.2</ele>
        <time>2021-05-08T11:41:05.249Z</time>
      </trkpt>
      <trkpt lat="46.97069" lon="6.83964">
        <ele>542.6</ele>
        <time>2021-05-08T11:41:33.123Z</time>
      </trkpt>
      <trkpt lat="46.97082" lon="6.8396">
        <ele>544.30013852707</ele>
        <time>2021-05-08T11:42:22.160Z</time>
      </trkpt>
      <trkpt lat="46.9709" lon="6.83957">
        <ele>544.80124158919</ele>
        <time>2021-05-08T11:42:38.188Z</time>
      </trkpt>
      <trkpt lat="46.97091" lon="6.83956">
        <ele>544.9</ele>
        <time>2021-05-08T11:42:40.944Z</time>
      </trkpt>
      <trkpt lat="46.97092" lon="6.83957">
        <ele>544.9</ele>
        <time>2021-05-08T11:42:41.674Z</time>
      </trkpt>
      <trkpt lat="46.97091" lon="6.83956">
        <ele>544.9</ele>
        <time>2021-05-08T11:42:42.405Z</time>
      </trkpt>
      <trkpt lat="46.97098" lon="6.8395">
        <ele>545.1</ele>
        <time>2021-05-08T11:42:53.220Z</time>
      </trkpt>
      <trkpt lat="46.97107" lon="6.83942">
        <ele>546.1</ele>
        <time>2021-05-08T11:43:20.167Z</time>
      </trkpt>
      <trkpt lat="46.97118" lon="6.83926">
        <ele>547.2003555269</ele>
        <time>2021-05-08T11:43:52.608Z</time>
      </trkpt>
      <trkpt lat="46.97122" lon="6.83923">
        <ele>547.8988561933</ele>
        <time>2021-05-08T11:44:10.501Z</time>
      </trkpt>
      <trkpt lat="46.97129" lon="6.8392">
        <ele>549.19923836785</ele>
        <time>2021-05-08T11:44:39.543Z</time>
      </trkpt>
      <trkpt lat="46.97146" lon="6.83929">
        <ele>549.90017107405</ele>
        <time>2021-05-08T11:45:08.483Z</time>
      </trkpt>
      <trkpt lat="46.97181" lon="6.83948">
        <ele>551.8</ele>
        <time>2021-05-08T11:46:16.260Z</time>
      </trkpt>
      <trkpt lat="46.97208" lon="6.8397">
        <ele>551.8</ele>
        <time>2021-05-08T11:46:48.153Z</time>
      </trkpt>
      <trkpt lat="46.97222" lon="6.8398">
        <ele>552.5</ele>
        <time>2021-05-08T11:47:15.366Z</time>
      </trkpt>
      <trkpt lat="46.97232" lon="6.83988">
        <ele>552.6</ele>
        <time>2021-05-08T11:47:28.157Z</time>
      </trkpt>
      <trkpt lat="46.97246" lon="6.83996">
        <ele>553</ele>
        <time>2021-05-08T11:47:48.672Z</time>
      </trkpt>
      <trkpt lat="46.97264" lon="6.84009">
        <ele>553.60277017265</ele>
        <time>2021-05-08T11:48:17.253Z</time>
      </trkpt>
      <trkpt lat="46.97293" lon="6.84023">
        <ele>556.00070984041</ele>
        <time>2021-05-08T11:49:25.046Z</time>
      </trkpt>
      <trkpt lat="46.97301" lon="6.84025">
        <ele>556.69918418626</ele>
        <time>2021-05-08T11:49:44.229Z</time>
      </trkpt>
      <trkpt lat="46.97314" lon="6.84025">
        <ele>557.80297732304</ele>
        <time>2021-05-08T11:50:14.655Z</time>
      </trkpt>
      <trkpt lat="46.97333" lon="6.84023">
        <ele>559.9</ele>
        <time>2021-05-08T11:51:11.370Z</time>
      </trkpt>
      <trkpt lat="46.97338" lon="6.84021">
        <ele>561</ele>
        <time>2021-05-08T11:51:32.009Z</time>
      </trkpt>
      <trkpt lat="46.97343" lon="6.84019">
        <ele>561.6</ele>
        <time>2021-05-08T11:51:48.449Z</time>
      </trkpt>
      <trkpt lat="46.97346" lon="6.84016">
        <ele>561.99872985366</ele>
        <time>2021-05-08T11:51:59.228Z</time>
      </trkpt>
      <trkpt lat="46.97353" lon="6.84018">
        <ele>562.20127831589</ele>
        <time>2021-05-08T11:52:09.179Z</time>
      </trkpt>
      <trkpt lat="46.97359" lon="6.84021">
        <ele>562.39939714788</ele>
        <time>2021-05-08T11:52:18.349Z</time>
      </trkpt>
      <trkpt lat="46.97369" lon="6.84029">
        <ele>562.8</ele>
        <time>2021-05-08T11:52:35.699Z</time>
      </trkpt>
      <trkpt lat="46.97378" lon="6.84037">
        <ele>563.10053406127</ele>
        <time>2021-05-08T11:52:50.414Z</time>
      </trkpt>
      <trkpt lat="46.97383" lon="6.84044">
        <ele>563.3</ele>
        <time>2021-05-08T11:53:00.116Z</time>
      </trkpt>
      <trkpt lat="46.9739" lon="6.84053">
        <ele>563.4</ele>
        <time>2021-05-08T11:53:10.779Z</time>
      </trkpt>
      <trkpt lat="46.97395" lon="6.84062">
        <ele>563.49961349679</ele>
        <time>2021-05-08T11:53:20.019Z</time>
      </trkpt>
      <trkpt lat="46.974" lon="6.84073">
        <ele>563.5</ele>
        <time>2021-05-08T11:53:29.333Z</time>
      </trkpt>
      <trkpt lat="46.97411" lon="6.84104">
        <ele>563.99951420544</ele>
        <time>2021-05-08T11:53:59.792Z</time>
      </trkpt>
      <trkpt lat="46.97415" lon="6.84122">
        <ele>564.2</ele>
        <time>2021-05-08T11:54:15.337Z</time>
      </trkpt>
      <trkpt lat="46.97419" lon="6.84144">
        <ele>564.69931249618</ele>
        <time>2021-05-08T11:54:38.067Z</time>
      </trkpt>
      <trkpt lat="46.97423" lon="6.84159">
        <ele>565.00069632276</ele>
        <time>2021-05-08T11:54:53.218Z</time>
      </trkpt>
      <trkpt lat="46.97428" lon="6.8419">
        <ele>565.5</ele>
        <time>2021-05-08T11:55:21.637Z</time>
      </trkpt>
      <trkpt lat="46.97433" lon="6.84218">
        <ele>565.3</ele>
        <time>2021-05-08T11:55:28.753Z</time>
      </trkpt>
      <trkpt lat="46.97436" lon="6.84235">
        <ele>565.2</ele>
        <time>2021-05-08T11:55:33.174Z</time>
      </trkpt>
      <trkpt lat="46.97436" lon="6.84244">
        <ele>565.19977021655</ele>
        <time>2021-05-08T11:55:39.510Z</time>
      </trkpt>
      <trkpt lat="46.97437" lon="6.84252">
        <ele>565.1</ele>
        <time>2021-05-08T11:55:41.321Z</time>
      </trkpt>
      <trkpt lat="46.97436" lon="6.84262">
        <ele>565</ele>
        <time>2021-05-08T11:55:43.669Z</time>
      </trkpt>
      <trkpt lat="46.97435" lon="6.84274">
        <ele>564.7</ele>
        <time>2021-05-08T11:55:45.874Z</time>
      </trkpt>
      <trkpt lat="46.97433" lon="6.84289">
        <ele>564.49895036163</ele>
        <time>2021-05-08T11:55:49.225Z</time>
      </trkpt>
      <trkpt lat="46.97433" lon="6.84297">
        <ele>564.3</ele>
        <time>2021-05-08T11:55:50.683Z</time>
      </trkpt>
      <trkpt lat="46.97433" lon="6.84308">
        <ele>564.20012895238</ele>
        <time>2021-05-08T11:55:53.278Z</time>
      </trkpt>
      <trkpt lat="46.97432" lon="6.8432">
        <ele>563.8</ele>
        <time>2021-05-08T11:55:55.247Z</time>
      </trkpt>
      <trkpt lat="46.97432" lon="6.84321">
        <ele>563.8</ele>
        <time>2021-05-08T11:55:55.951Z</time>
      </trkpt>
      <trkpt lat="46.97433" lon="6.84322">
        <ele>563.8</ele>
        <time>2021-05-08T11:55:57.166Z</time>
      </trkpt>
      <trkpt lat="46.97432" lon="6.84321">
        <ele>563.8</ele>
        <time>2021-05-08T11:55:58.380Z</time>
      </trkpt>
      <trkpt lat="46.97433" lon="6.8434">
        <ele>562.69619648622</ele>
        <time>2021-05-08T11:56:01.303Z</time>
      </trkpt>
      <trkpt lat="46.97434" lon="6.84353">
        <ele>561.7</ele>
        <time>2021-05-08T11:56:03.309Z</time>
      </trkpt>
      <trkpt lat="46.97434" lon="6.84368">
        <ele>560.8</ele>
        <time>2021-05-08T11:56:05.609Z</time>
      </trkpt>
      <trkpt lat="46.97433" lon="6.84371">
        <ele>560.6</ele>
        <time>2021-05-08T11:56:06.122Z</time>
      </trkpt>
      <trkpt lat="46.97433" lon="6.84388">
        <ele>558.40648665984</ele>
        <time>2021-05-08T11:56:08.729Z</time>
      </trkpt>
      <trkpt lat="46.97434" lon="6.84406">
        <ele>556.4</ele>
        <time>2021-05-08T11:56:11.498Z</time>
      </trkpt>
      <trkpt lat="46.97434" lon="6.84412">
        <ele>555.6</ele>
        <time>2021-05-08T11:56:12.418Z</time>
      </trkpt>
      <trkpt lat="46.97433" lon="6.84419">
        <ele>555.09679114461</ele>
        <time>2021-05-08T11:56:13.515Z</time>
      </trkpt>
      <trkpt lat="46.97431" lon="6.84425">
        <ele>554.49937469851</ele>
        <time>2021-05-08T11:56:14.539Z</time>
      </trkpt>
      <trkpt lat="46.97429" lon="6.84431">
        <ele>553.99807820747</ele>
        <time>2021-05-08T11:56:15.563Z</time>
      </trkpt>
      <trkpt lat="46.97427" lon="6.84436">
        <ele>553.69771909664</ele>
        <time>2021-05-08T11:56:16.452Z</time>
      </trkpt>
      <trkpt lat="46.97425" lon="6.8444">
        <ele>553.50241947785</ele>
        <time>2021-05-08T11:56:17.199Z</time>
      </trkpt>
      <trkpt lat="46.97417" lon="6.84445">
        <ele>553.10018399096</ele>
        <time>2021-05-08T11:56:19.318Z</time>
      </trkpt>
      <trkpt lat="46.97401" lon="6.84455">
        <ele>552.6</ele>
        <time>2021-05-08T11:56:24.343Z</time>
      </trkpt>
      <trkpt lat="46.97392" lon="6.84459">
        <ele>552.4</ele>
        <time>2021-05-08T11:56:27.296Z</time>
      </trkpt>
      <trkpt lat="46.97386" lon="6.84464">
        <ele>552.4</ele>
        <time>2021-05-08T11:56:34.421Z</time>
      </trkpt>
      <trkpt lat="46.97375" lon="6.84475">
        <ele>552.7</ele>
        <time>2021-05-08T11:56:51.744Z</time>
      </trkpt>
      <trkpt lat="46.97367" lon="6.84483">
        <ele>553.4</ele>
        <time>2021-05-08T11:57:12.215Z</time>
      </trkpt>
      <trkpt lat="46.97363" lon="6.84487">
        <ele>554.1</ele>
        <time>2021-05-08T11:57:31.498Z</time>
      </trkpt>
      <trkpt lat="46.9736" lon="6.84492">
        <ele>554.8</ele>
        <time>2021-05-08T11:57:49.589Z</time>
      </trkpt>
      <trkpt lat="46.97353" lon="6.84503">
        <ele>556</ele>
        <time>2021-05-08T11:58:22.583Z</time>
      </trkpt>
      <trkpt lat="46.97352" lon="6.84508">
        <ele>556.09984053483</ele>
        <time>2021-05-08T11:58:27.525Z</time>
      </trkpt>
      <trkpt lat="46.9735" lon="6.84516">
        <ele>556.1</ele>
        <time>2021-05-08T11:58:33.528Z</time>
      </trkpt>
      <trkpt lat="46.97349" lon="6.84524">
        <ele>555.69697946991</ele>
        <time>2021-05-08T11:58:34.775Z</time>
      </trkpt>
      <trkpt lat="46.97348" lon="6.8453">
        <ele>555.40045492213</ele>
        <time>2021-05-08T11:58:35.722Z</time>
      </trkpt>
      <trkpt lat="46.97348" lon="6.84542">
        <ele>554.49817164286</ele>
        <time>2021-05-08T11:58:37.563Z</time>
      </trkpt>
      <trkpt lat="46.97348" lon="6.84553">
        <ele>553.9</ele>
        <time>2021-05-08T11:58:39.250Z</time>
      </trkpt>
      <trkpt lat="46.97348" lon="6.8456">
        <ele>553.5</ele>
        <time>2021-05-08T11:58:40.323Z</time>
      </trkpt>
      <trkpt lat="46.97349" lon="6.84561">
        <ele>553.5</ele>
        <time>2021-05-08T11:58:41.211Z</time>
      </trkpt>
      <trkpt lat="46.97348" lon="6.8456">
        <ele>553.5</ele>
        <time>2021-05-08T11:58:42.098Z</time>
      </trkpt>
      <trkpt lat="46.97348" lon="6.84579">
        <ele>552.7</ele>
        <time>2021-05-08T11:58:44.872Z</time>
      </trkpt>
      <trkpt lat="46.97348" lon="6.84586">
        <ele>552.5</ele>
        <time>2021-05-08T11:58:46.083Z</time>
      </trkpt>
      <trkpt lat="46.97346" lon="6.84594">
        <ele>552.20125619318</ele>
        <time>2021-05-08T11:58:47.437Z</time>
      </trkpt>
      <trkpt lat="46.97342" lon="6.84612">
        <ele>552.30007403493</ele>
        <time>2021-05-08T11:59:01.777Z</time>
      </trkpt>
      <trkpt lat="46.97351" lon="6.84624">
        <ele>553.10136358969</ele>
        <time>2021-05-08T11:59:26.288Z</time>
      </trkpt>
      <trkpt lat="46.97365" lon="6.84638">
        <ele>553.89988207919</ele>
        <time>2021-05-08T11:59:56.315Z</time>
      </trkpt>
      <trkpt lat="46.97384" lon="6.84658">
        <ele>555.09948576738</ele>
        <time>2021-05-08T12:00:38.901Z</time>
      </trkpt>
      <trkpt lat="46.97397" lon="6.8467">
        <ele>555.89985226011</ele>
        <time>2021-05-08T12:01:07.021Z</time>
      </trkpt>
      <trkpt lat="46.97406" lon="6.84679">
        <ele>556.60020135928</ele>
        <time>2021-05-08T12:01:28.720Z</time>
      </trkpt>
      <trkpt lat="46.97427" lon="6.84696">
        <ele>558.19784137243</ele>
        <time>2021-05-08T12:02:17.310Z</time>
      </trkpt>
      <trkpt lat="46.97437" lon="6.84705">
        <ele>559.00244924188</ele>
        <time>2021-05-08T12:02:41.428Z</time>
      </trkpt>
      <trkpt lat="46.97461" lon="6.84727">
        <ele>560.90094233211</ele>
        <time>2021-05-08T12:03:38.962Z</time>
      </trkpt>
      <trkpt lat="46.97477" lon="6.84742">
        <ele>561.9</ele>
        <time>2021-05-08T12:04:13.843Z</time>
      </trkpt>
      <trkpt lat="46.97496" lon="6.84761">
        <ele>563</ele>
        <time>2021-05-08T12:04:54.781Z</time>
      </trkpt>
      <trkpt lat="46.97491" lon="6.84756">
        <ele>562.7</ele>
        <time>2021-05-08T12:04:56.213Z</time>
      </trkpt>
      <trkpt lat="46.97492" lon="6.84757">
        <ele>562.7</ele>
        <time>2021-05-08T12:04:57.109Z</time>
      </trkpt>
      <trkpt lat="46.97491" lon="6.84756">
        <ele>562.7</ele>
        <time>2021-05-08T12:04:58.006Z</time>
      </trkpt>
      <trkpt lat="46.97496" lon="6.84761">
        <ele>563</ele>
        <time>2021-05-08T12:05:08.902Z</time>
      </trkpt>
      <trkpt lat="46.97514" lon="6.84778">
        <ele>564.1008850983</ele>
        <time>2021-05-08T12:05:47.918Z</time>
      </trkpt>
      <trkpt lat="46.97523" lon="6.84787">
        <ele>564.9</ele>
        <time>2021-05-08T12:06:11.137Z</time>
      </trkpt>
      <trkpt lat="46.97529" lon="6.84793">
        <ele>565.4</ele>
        <time>2021-05-08T12:06:26.096Z</time>
      </trkpt>
      <trkpt lat="46.9754" lon="6.84807">
        <ele>566.29781493834</ele>
        <time>2021-05-08T12:06:54.563Z</time>
      </trkpt>
      <trkpt lat="46.97562" lon="6.8484">
        <ele>567.2</ele>
        <time>2021-05-08T12:07:38.631Z</time>
      </trkpt>
      <trkpt lat="46.97574" lon="6.84858">
        <ele>567.49947259583</ele>
        <time>2021-05-08T12:07:59.728Z</time>
      </trkpt>
      <trkpt lat="46.9759" lon="6.84881">
        <ele>567.9</ele>
        <time>2021-05-08T12:08:27.394Z</time>
      </trkpt>
      <trkpt lat="46.97594" lon="6.84886">
        <ele>567.9</ele>
        <time>2021-05-08T12:08:32.822Z</time>
      </trkpt>
      <trkpt lat="46.976" lon="6.84896">
        <ele>567.79872308</ele>
        <time>2021-05-08T12:08:36.052Z</time>
      </trkpt>
      <trkpt lat="46.97603" lon="6.84901">
        <ele>567.60030782</ele>
        <time>2021-05-08T12:08:37.185Z</time>
      </trkpt>
      <trkpt lat="46.97618" lon="6.84928">
        <ele>566.90048175006</ele>
        <time>2021-05-08T12:08:43.998Z</time>
      </trkpt>
      <trkpt lat="46.97655" lon="6.84993">
        <ele>565.2</ele>
        <time>2021-05-08T12:09:00.564Z</time>
      </trkpt>
      <trkpt lat="46.9766" lon="6.85002">
        <ele>565.00018460724</ele>
        <time>2021-05-08T12:09:02.941Z</time>
      </trkpt>
      <trkpt lat="46.97687" lon="6.85051">
        <ele>564.3</ele>
        <time>2021-05-08T12:09:17.254Z</time>
      </trkpt>
      <trkpt lat="46.97696" lon="6.85069">
        <ele>564.1</ele>
        <time>2021-05-08T12:09:22.529Z</time>
      </trkpt>
      <trkpt lat="46.97718" lon="6.85111">
        <ele>564</ele>
        <time>2021-05-08T12:09:58.309Z</time>
      </trkpt>
      <trkpt lat="46.97731" lon="6.85134">
        <ele>564</ele>
        <time>2021-05-08T12:10:19.347Z</time>
      </trkpt>
      <trkpt lat="46.97752" lon="6.85171">
        <ele>564.6</ele>
        <time>2021-05-08T12:11:00.062Z</time>
      </trkpt>
      <trkpt lat="46.97764" lon="6.8519">
        <ele>564.40072881635</ele>
        <time>2021-05-08T12:11:06.331Z</time>
      </trkpt>
      <trkpt lat="46.97774" lon="6.85207">
        <ele>563.80040074863</ele>
        <time>2021-05-08T12:11:10.313Z</time>
      </trkpt>
      <trkpt lat="46.97778" lon="6.85216">
        <ele>563.50106192026</ele>
        <time>2021-05-08T12:11:12.189Z</time>
      </trkpt>
      <trkpt lat="46.97784" lon="6.8523">
        <ele>563.4</ele>
        <time>2021-05-08T12:11:16.317Z</time>
      </trkpt>
      <trkpt lat="46.97788" lon="6.85243">
        <ele>563.5</ele>
        <time>2021-05-08T12:11:27.406Z</time>
      </trkpt>
      <trkpt lat="46.97789" lon="6.85251">
        <ele>563.59989757629</ele>
        <time>2021-05-08T12:11:34.266Z</time>
      </trkpt>
      <trkpt lat="46.97791" lon="6.85261">
        <ele>563.9</ele>
        <time>2021-05-08T12:11:46.233Z</time>
      </trkpt>
      <trkpt lat="46.97794" lon="6.85277">
        <ele>564.50139604516</ele>
        <time>2021-05-08T12:12:07.096Z</time>
      </trkpt>
      <trkpt lat="46.97797" lon="6.85299">
        <ele>565.69900732492</ele>
        <time>2021-05-08T12:12:41.002Z</time>
      </trkpt>
      <trkpt lat="46.97799" lon="6.8531">
        <ele>566</ele>
        <time>2021-05-08T12:12:53.433Z</time>
      </trkpt>
      <trkpt lat="46.97801" lon="6.85319">
        <ele>566.3</ele>
        <time>2021-05-08T12:13:04.826Z</time>
      </trkpt>
      <trkpt lat="46.97805" lon="6.85328">
        <ele>566.8</ele>
        <time>2021-05-08T12:13:19.849Z</time>
      </trkpt>
      <trkpt lat="46.97806" lon="6.85329">
        <ele>566.8</ele>
        <time>2021-05-08T12:13:20.566Z</time>
      </trkpt>
      <trkpt lat="46.97805" lon="6.85328">
        <ele>566.8</ele>
        <time>2021-05-08T12:13:21.282Z</time>
      </trkpt>
      <trkpt lat="46.97808" lon="6.85336">
        <ele>567.1</ele>
        <time>2021-05-08T12:13:32.392Z</time>
      </trkpt>
      <trkpt lat="46.9782" lon="6.85359">
        <ele>567.60008162345</ele>
        <time>2021-05-08T12:13:58.943Z</time>
      </trkpt>
      <trkpt lat="46.97822" lon="6.85364">
        <ele>567.7</ele>
        <time>2021-05-08T12:14:04.255Z</time>
      </trkpt>
      <trkpt lat="46.97827" lon="6.85376">
        <ele>568.1</ele>
        <time>2021-05-08T12:14:20.279Z</time>
      </trkpt>
      <trkpt lat="46.9783" lon="6.85385">
        <ele>568.4</ele>
        <time>2021-05-08T12:14:32.079Z</time>
      </trkpt>
      <trkpt lat="46.97833" lon="6.85395">
        <ele>568.60091556719</ele>
        <time>2021-05-08T12:14:42.297Z</time>
      </trkpt>
      <trkpt lat="46.97834" lon="6.85404">
        <ele>568.8987820424</ele>
        <time>2021-05-08T12:14:53.373Z</time>
      </trkpt>
      <trkpt lat="46.97836" lon="6.85414">
        <ele>569.3</ele>
        <time>2021-05-08T12:15:06.773Z</time>
      </trkpt>
      <trkpt lat="46.97837" lon="6.85444">
        <ele>570.50262544996</ele>
        <time>2021-05-08T12:15:45.998Z</time>
      </trkpt>
      <trkpt lat="46.97838" lon="6.85455">
        <ele>571.2</ele>
        <time>2021-05-08T12:16:04.873Z</time>
      </trkpt>
      <trkpt lat="46.97841" lon="6.8547">
        <ele>572.30346889118</ele>
        <time>2021-05-08T12:16:34.507Z</time>
      </trkpt>
      <trkpt lat="46.97843" lon="6.85477">
        <ele>572.8</ele>
        <time>2021-05-08T12:16:47.873Z</time>
      </trkpt>
      <trkpt lat="46.97845" lon="6.85482">
        <ele>572.99970888589</ele>
        <time>2021-05-08T12:16:55.035Z</time>
      </trkpt>
      <trkpt lat="46.9785" lon="6.855">
        <ele>573.80060486294</ele>
        <time>2021-05-08T12:17:20.722Z</time>
      </trkpt>
      <trkpt lat="46.97854" lon="6.8551">
        <ele>573.89997767692</ele>
        <time>2021-05-08T12:17:29.949Z</time>
      </trkpt>
      <trkpt lat="46.9786" lon="6.8553">
        <ele>573.60155144007</ele>
        <time>2021-05-08T12:17:34.696Z</time>
      </trkpt>
      <trkpt lat="46.97871" lon="6.85559">
        <ele>572.99912790303</ele>
        <time>2021-05-08T12:17:41.390Z</time>
      </trkpt>
      <trkpt lat="46.97874" lon="6.85572">
        <ele>572.59928884804</ele>
        <time>2021-05-08T12:17:43.745Z</time>
      </trkpt>
      <trkpt lat="46.97876" lon="6.85581">
        <ele>572.40046321068</ele>
        <time>2021-05-08T12:17:45.572Z</time>
      </trkpt>
      <trkpt lat="46.97879" lon="6.85592">
        <ele>572.2</ele>
        <time>2021-05-08T12:17:48.009Z</time>
      </trkpt>
      <trkpt lat="46.97884" lon="6.85626">
        <ele>571.9</ele>
        <time>2021-05-08T12:17:56.283Z</time>
      </trkpt>
      <trkpt lat="46.97887" lon="6.85645">
        <ele>571.8</ele>
        <time>2021-05-08T12:18:01.249Z</time>
      </trkpt>
      <trkpt lat="46.97891" lon="6.85661">
        <ele>571.7</ele>
        <time>2021-05-08T12:18:05.525Z</time>
      </trkpt>
      <trkpt lat="46.97894" lon="6.85669">
        <ele>571.8</ele>
        <time>2021-05-08T12:18:13.063Z</time>
      </trkpt>
      <trkpt lat="46.97894" lon="6.8567">
        <ele>571.8</ele>
        <time>2021-05-08T12:18:13.763Z</time>
      </trkpt>
      <trkpt lat="46.97894" lon="6.85669">
        <ele>571.8</ele>
        <time>2021-05-08T12:18:14.463Z</time>
      </trkpt>
      <trkpt lat="46.97897" lon="6.85679">
        <ele>571.9</ele>
        <time>2021-05-08T12:18:23.235Z</time>
      </trkpt>
      <trkpt lat="46.97909" lon="6.85713">
        <ele>571.9</ele>
        <time>2021-05-08T12:18:50.198Z</time>
      </trkpt>
      <trkpt lat="46.97923" lon="6.85748">
        <ele>571.4</ele>
        <time>2021-05-08T12:18:59.222Z</time>
      </trkpt>
      <trkpt lat="46.97934" lon="6.85774">
        <ele>571.2</ele>
        <time>2021-05-08T12:19:06.797Z</time>
      </trkpt>
      <trkpt lat="46.97948" lon="6.85807">
        <ele>570.6</ele>
        <time>2021-05-08T12:19:14.991Z</time>
      </trkpt>
      <trkpt lat="46.97972" lon="6.85861">
        <ele>569.9</ele>
        <time>2021-05-08T12:19:29.703Z</time>
      </trkpt>
      <trkpt lat="46.97992" lon="6.85906">
        <ele>569</ele>
        <time>2021-05-08T12:19:40.783Z</time>
      </trkpt>
      <trkpt lat="46.97985" lon="6.85891">
        <ele>569.3</ele>
        <time>2021-05-08T12:19:57.228Z</time>
      </trkpt>
      <trkpt lat="46.97986" lon="6.85891">
        <ele>569.4</ele>
        <time>2021-05-08T12:19:59.224Z</time>
      </trkpt>
      <trkpt lat="46.97985" lon="6.85891">
        <ele>569.3</ele>
        <time>2021-05-08T12:19:59.336Z</time>
      </trkpt>
      <trkpt lat="46.97992" lon="6.85906">
        <ele>569</ele>
        <time>2021-05-08T12:20:03.101Z</time>
      </trkpt>
      <trkpt lat="46.97996" lon="6.85916">
        <ele>568.60192848671</ele>
        <time>2021-05-08T12:20:04.959Z</time>
      </trkpt>
      <trkpt lat="46.98002" lon="6.85926">
        <ele>567.99790146765</ele>
        <time>2021-05-08T12:20:06.833Z</time>
      </trkpt>
      <trkpt lat="46.98003" lon="6.8593">
        <ele>567.6</ele>
        <time>2021-05-08T12:20:07.486Z</time>
      </trkpt>
      <trkpt lat="46.98005" lon="6.8593">
        <ele>567.7</ele>
        <time>2021-05-08T12:20:11.096Z</time>
      </trkpt>
      <trkpt lat="46.98008" lon="6.85933">
        <ele>567.9</ele>
        <time>2021-05-08T12:20:17.878Z</time>
      </trkpt>
      <trkpt lat="46.98013" lon="6.8594">
        <ele>568.1</ele>
        <time>2021-05-08T12:20:27.589Z</time>
      </trkpt>
      <trkpt lat="46.9802" lon="6.85952">
        <ele>568.2</ele>
        <time>2021-05-08T12:20:39.743Z</time>
      </trkpt>
      <trkpt lat="46.98025" lon="6.85964">
        <ele>568.30041132663</ele>
        <time>2021-05-08T12:20:50.697Z</time>
      </trkpt>
      <trkpt lat="46.98032" lon="6.85983">
        <ele>568.5</ele>
        <time>2021-05-08T12:21:08.061Z</time>
      </trkpt>
      <trkpt lat="46.98037" lon="6.85996">
        <ele>568.6</ele>
        <time>2021-05-08T12:21:19.611Z</time>
      </trkpt>
      <trkpt lat="46.98046" lon="6.86017">
        <ele>568.8</ele>
        <time>2021-05-08T12:21:39.199Z</time>
      </trkpt>
      <trkpt lat="46.98055" lon="6.86036">
        <ele>569.4</ele>
        <time>2021-05-08T12:22:04.197Z</time>
      </trkpt>
      <trkpt lat="46.98065" lon="6.86058">
        <ele>570.5</ele>
        <time>2021-05-08T12:22:39.281Z</time>
      </trkpt>
      <trkpt lat="46.98078" lon="6.86081">
        <ele>571.89924270358</ele>
        <time>2021-05-08T12:23:21.191Z</time>
      </trkpt>
      <trkpt lat="46.98086" lon="6.86094">
        <ele>572.50161756</ele>
        <time>2021-05-08T12:23:42.814Z</time>
      </trkpt>
      <trkpt lat="46.98111" lon="6.86142">
        <ele>573.6</ele>
        <time>2021-05-08T12:24:39.091Z</time>
      </trkpt>
      <trkpt lat="46.98143" lon="6.86197">
        <ele>572.5</ele>
        <time>2021-05-08T12:24:54.388Z</time>
      </trkpt>
      <trkpt lat="46.98155" lon="6.86221">
        <ele>570.09705471866</ele>
        <time>2021-05-08T12:24:58.951Z</time>
      </trkpt>
      <trkpt lat="46.98161" lon="6.8623">
        <ele>569.09487780899</ele>
        <time>2021-05-08T12:25:00.880Z</time>
      </trkpt>
      <trkpt lat="46.98166" lon="6.86237">
        <ele>568.1</ele>
        <time>2021-05-08T12:25:02.434Z</time>
      </trkpt>
      <trkpt lat="46.98169" lon="6.86239">
        <ele>567.60043655251</ele>
        <time>2021-05-08T12:25:03.175Z</time>
      </trkpt>
      <trkpt lat="46.98173" lon="6.86241">
        <ele>567.3</ele>
        <time>2021-05-08T12:25:04.125Z</time>
      </trkpt>
      <trkpt lat="46.98181" lon="6.86242">
        <ele>566.6</ele>
        <time>2021-05-08T12:25:05.929Z</time>
      </trkpt>
      <trkpt lat="46.98192" lon="6.86243">
        <ele>565.79828774521</ele>
        <time>2021-05-08T12:25:08.406Z</time>
      </trkpt>
      <trkpt lat="46.98215" lon="6.86244">
        <ele>564.3</ele>
        <time>2021-05-08T12:25:13.200Z</time>
      </trkpt>
      <trkpt lat="46.98225" lon="6.86246">
        <ele>563.199927454</ele>
        <time>2021-05-08T12:25:15.469Z</time>
      </trkpt>
      <trkpt lat="46.98229" lon="6.86247">
        <ele>562.9</ele>
        <time>2021-05-08T12:25:16.381Z</time>
      </trkpt>
      <trkpt lat="46.98232" lon="6.86253">
        <ele>562.3</ele>
        <time>2021-05-08T12:25:17.521Z</time>
      </trkpt>
      <trkpt lat="46.98238" lon="6.86272">
        <ele>559.89992560048</ele>
        <time>2021-05-08T12:25:20.732Z</time>
      </trkpt>
      <trkpt lat="46.98247" lon="6.86308">
        <ele>556.30402146202</ele>
        <time>2021-05-08T12:25:26.611Z</time>
      </trkpt>
      <trkpt lat="46.98254" lon="6.86333">
        <ele>553.7</ele>
        <time>2021-05-08T12:25:30.754Z</time>
      </trkpt>
      <trkpt lat="46.98257" lon="6.86344">
        <ele>552.8</ele>
        <time>2021-05-08T12:25:32.571Z</time>
      </trkpt>
      <trkpt lat="46.98258" lon="6.86345">
        <ele>552.6</ele>
        <time>2021-05-08T12:25:32.785Z</time>
      </trkpt>
      <trkpt lat="46.98257" lon="6.86344">
        <ele>552.8</ele>
        <time>2021-05-08T12:25:36.590Z</time>
      </trkpt>
      <trkpt lat="46.98254" lon="6.86333">
        <ele>553.7</ele>
        <time>2021-05-08T12:26:00.989Z</time>
      </trkpt>
      <trkpt lat="46.98266" lon="6.86376">
        <ele>550.5</ele>
        <time>2021-05-08T12:26:08.112Z</time>
      </trkpt>
      <trkpt lat="46.98268" lon="6.86383">
        <ele>550.2</ele>
        <time>2021-05-08T12:26:09.254Z</time>
      </trkpt>
      <trkpt lat="46.98268" lon="6.86388">
        <ele>550.00021489474</ele>
        <time>2021-05-08T12:26:10.002Z</time>
      </trkpt>
      <trkpt lat="46.98278" lon="6.86393">
        <ele>550.9</ele>
        <time>2021-05-08T12:26:34.784Z</time>
      </trkpt>
      <trkpt lat="46.98281" lon="6.86397">
        <ele>551.4</ele>
        <time>2021-05-08T12:26:48.869Z</time>
      </trkpt>
      <trkpt lat="46.9829" lon="6.86409">
        <ele>554.20037362695</ele>
        <time>2021-05-08T12:27:37.316Z</time>
      </trkpt>
      <trkpt lat="46.98307" lon="6.86432">
        <ele>560.6</ele>
        <time>2021-05-08T12:29:09.439Z</time>
      </trkpt>
      <trkpt lat="46.98311" lon="6.86443">
        <ele>562.4984714128</ele>
        <time>2021-05-08T12:29:43.302Z</time>
      </trkpt>
      <trkpt lat="46.98318" lon="6.86459">
        <ele>564.90245246154</ele>
        <time>2021-05-08T12:30:34.937Z</time>
      </trkpt>
      <trkpt lat="46.98321" lon="6.86468">
        <ele>566.09739423999</ele>
        <time>2021-05-08T12:31:02.149Z</time>
      </trkpt>
      <trkpt lat="46.98331" lon="6.86517">
        <ele>565.7</ele>
        <time>2021-05-08T12:31:14.514Z</time>
      </trkpt>
      <trkpt lat="46.98333" lon="6.86526">
        <ele>565.50013575711</ele>
        <time>2021-05-08T12:31:16.337Z</time>
      </trkpt>
      <trkpt lat="46.98336" lon="6.86529">
        <ele>565.6</ele>
        <time>2021-05-08T12:31:21.349Z</time>
      </trkpt>
      <trkpt lat="46.98328" lon="6.86552">
        <ele>563.5</ele>
        <time>2021-05-08T12:31:25.307Z</time>
      </trkpt>
      <trkpt lat="46.98328" lon="6.86553">
        <ele>563.40530209756</ele>
        <time>2021-05-08T12:31:25.438Z</time>
      </trkpt>
      <trkpt lat="46.98328" lon="6.86552">
        <ele>563.5</ele>
        <time>2021-05-08T12:31:27.749Z</time>
      </trkpt>
      <trkpt lat="46.98327" lon="6.86555">
        <ele>563.2</ele>
        <time>2021-05-08T12:31:28.261Z</time>
      </trkpt>
      <trkpt lat="46.98321" lon="6.8657">
        <ele>561.8</ele>
        <time>2021-05-08T12:31:30.927Z</time>
      </trkpt>
      <trkpt lat="46.98315" lon="6.86584">
        <ele>560.49851219588</ele>
        <time>2021-05-08T12:31:33.462Z</time>
      </trkpt>
      <trkpt lat="46.98307" lon="6.86602">
        <ele>558.9</ele>
        <time>2021-05-08T12:31:36.756Z</time>
      </trkpt>
      <trkpt lat="46.98281" lon="6.86655">
        <ele>554.1</ele>
        <time>2021-05-08T12:31:46.765Z</time>
      </trkpt>
      <trkpt lat="46.98272" lon="6.86678">
        <ele>552.4</ele>
        <time>2021-05-08T12:31:50.831Z</time>
      </trkpt>
      <trkpt lat="46.9827" lon="6.86682">
        <ele>552.10061734971</ele>
        <time>2021-05-08T12:31:51.591Z</time>
      </trkpt>
      <trkpt lat="46.98257" lon="6.86715">
        <ele>550.3</ele>
        <time>2021-05-08T12:31:57.434Z</time>
      </trkpt>
      <trkpt lat="46.98248" lon="6.86741">
        <ele>549.1</ele>
        <time>2021-05-08T12:32:01.736Z</time>
      </trkpt>
      <trkpt lat="46.98248" lon="6.86742">
        <ele>549.1</ele>
        <time>2021-05-08T12:32:02.440Z</time>
      </trkpt>
      <trkpt lat="46.98249" lon="6.86742">
        <ele>549.1</ele>
        <time>2021-05-08T12:32:03.107Z</time>
      </trkpt>
      <trkpt lat="46.98248" lon="6.86742">
        <ele>549.1</ele>
        <time>2021-05-08T12:32:03.774Z</time>
      </trkpt>
      <trkpt lat="46.98248" lon="6.86741">
        <ele>549.1</ele>
        <time>2021-05-08T12:32:04.478Z</time>
      </trkpt>
      <trkpt lat="46.98241" lon="6.86757">
        <ele>548.3</ele>
        <time>2021-05-08T12:32:07.253Z</time>
      </trkpt>
      <trkpt lat="46.98229" lon="6.86786">
        <ele>547</ele>
        <time>2021-05-08T12:32:12.428Z</time>
      </trkpt>
      <trkpt lat="46.98228" lon="6.86789">
        <ele>546.9</ele>
        <time>2021-05-08T12:32:12.995Z</time>
      </trkpt>
      <trkpt lat="46.98225" lon="6.86793">
        <ele>546.6</ele>
        <time>2021-05-08T12:32:13.907Z</time>
      </trkpt>
      <trkpt lat="46.98221" lon="6.86799">
        <ele>546.2</ele>
        <time>2021-05-08T12:32:15.193Z</time>
      </trkpt>
      <trkpt lat="46.98214" lon="6.86804">
        <ele>545.8</ele>
        <time>2021-05-08T12:32:17.006Z</time>
      </trkpt>
      <trkpt lat="46.98203" lon="6.86812">
        <ele>545.39889121124</ele>
        <time>2021-05-08T12:32:20.413Z</time>
      </trkpt>
      <trkpt lat="46.98197" lon="6.86815">
        <ele>545.1</ele>
        <time>2021-05-08T12:32:21.945Z</time>
      </trkpt>
      <trkpt lat="46.98192" lon="6.86818">
        <ele>544.80082860663</ele>
        <time>2021-05-08T12:32:23.161Z</time>
      </trkpt>
      <trkpt lat="46.98186" lon="6.86821">
        <ele>544.4029297489</ele>
        <time>2021-05-08T12:32:24.506Z</time>
      </trkpt>
      <trkpt lat="46.98176" lon="6.86824">
        <ele>544</ele>
        <time>2021-05-08T12:32:27.153Z</time>
      </trkpt>
      <trkpt lat="46.98168" lon="6.86828">
        <ele>543.6</ele>
        <time>2021-05-08T12:32:29.193Z</time>
      </trkpt>
      <trkpt lat="46.98168" lon="6.86829">
        <ele>543.6</ele>
        <time>2021-05-08T12:32:29.897Z</time>
      </trkpt>
      <trkpt lat="46.98167" lon="6.8683">
        <ele>543.59599505405</ele>
        <time>2021-05-08T12:32:31.087Z</time>
      </trkpt>
      <trkpt lat="46.98167" lon="6.8683">
        <ele>543.59599505405</ele>
        <time>2021-05-08T12:32:31.087Z</time>
      </trkpt>
      <trkpt lat="46.98166" lon="6.86831">
        <ele>543.5</ele>
        <time>2021-05-08T12:32:31.359Z</time>
      </trkpt>
      <trkpt lat="46.98167" lon="6.86839">
        <ele>543.6</ele>
        <time>2021-05-08T12:32:38.220Z</time>
      </trkpt>
      <trkpt lat="46.98167" lon="6.86841">
        <ele>543.6</ele>
        <time>2021-05-08T12:32:39.628Z</time>
      </trkpt>
      <trkpt lat="46.98169" lon="6.86853">
        <ele>543.7</ele>
        <time>2021-05-08T12:32:49.390Z</time>
      </trkpt>
      <trkpt lat="46.9817" lon="6.86858">
        <ele>543.8</ele>
        <time>2021-05-08T12:32:54.333Z</time>
      </trkpt>
      <trkpt lat="46.98171" lon="6.86859">
        <ele>543.8</ele>
        <time>2021-05-08T12:32:55.295Z</time>
      </trkpt>
      <trkpt lat="46.9817" lon="6.86858">
        <ele>543.8</ele>
        <time>2021-05-08T12:32:56.256Z</time>
      </trkpt>
      <trkpt lat="46.98169" lon="6.86853">
        <ele>543.7</ele>
        <time>2021-05-08T12:32:57.290Z</time>
      </trkpt>
      <trkpt lat="46.98173" lon="6.86874">
        <ele>543.89955441475</ele>
        <time>2021-05-08T12:33:14.798Z</time>
      </trkpt>
      <trkpt lat="46.98178" lon="6.86893">
        <ele>544.2</ele>
        <time>2021-05-08T12:33:32.684Z</time>
      </trkpt>
      <trkpt lat="46.98184" lon="6.86917">
        <ele>544.4</ele>
        <time>2021-05-08T12:33:52.801Z</time>
      </trkpt>
      <trkpt lat="46.98189" lon="6.86937">
        <ele>544.5</ele>
        <time>2021-05-08T12:34:08.812Z</time>
      </trkpt>
      <trkpt lat="46.98206" lon="6.87">
        <ele>543.9001195344</ele>
        <time>2021-05-08T12:34:24.859Z</time>
      </trkpt>
      <trkpt lat="46.98211" lon="6.87017">
        <ele>543.6</ele>
        <time>2021-05-08T12:34:28.712Z</time>
      </trkpt>
      <trkpt lat="46.98211" lon="6.87018">
        <ele>543.6</ele>
        <time>2021-05-08T12:34:29.291Z</time>
      </trkpt>
      <trkpt lat="46.98211" lon="6.87017">
        <ele>543.6</ele>
        <time>2021-05-08T12:34:29.870Z</time>
      </trkpt>
      <trkpt lat="46.98219" lon="6.87049">
        <ele>543.1</ele>
        <time>2021-05-08T12:34:37.149Z</time>
      </trkpt>
      <trkpt lat="46.9822" lon="6.87054">
        <ele>543.1</ele>
        <time>2021-05-08T12:34:40.819Z</time>
      </trkpt>
      <trkpt lat="46.98217" lon="6.87056">
        <ele>543.00010538813</ele>
        <time>2021-05-08T12:34:41.756Z</time>
      </trkpt>
      <trkpt lat="46.9821" lon="6.8706">
        <ele>542.70016580155</ele>
        <time>2021-05-08T12:34:43.696Z</time>
      </trkpt>
      <trkpt lat="46.9819" lon="6.87075">
        <ele>541.19753084865</ele>
        <time>2021-05-08T12:34:48.745Z</time>
      </trkpt>
      <trkpt lat="46.98189" lon="6.87076">
        <ele>541.1</ele>
        <time>2021-05-08T12:34:49.017Z</time>
      </trkpt>
      <trkpt lat="46.98189" lon="6.87077">
        <ele>541.2</ele>
        <time>2021-05-08T12:34:51.055Z</time>
      </trkpt>
      <trkpt lat="46.98189" lon="6.87076">
        <ele>541.1</ele>
        <time>2021-05-08T12:34:51.170Z</time>
      </trkpt>
      <trkpt lat="46.98167" lon="6.87093">
        <ele>538.9</ele>
        <time>2021-05-08T12:34:56.760Z</time>
      </trkpt>
      <trkpt lat="46.9813" lon="6.87123">
        <ele>534.7033402528</ele>
        <time>2021-05-08T12:35:06.263Z</time>
      </trkpt>
      <trkpt lat="46.98114" lon="6.87135">
        <ele>532.7</ele>
        <time>2021-05-08T12:35:10.303Z</time>
      </trkpt>
      <trkpt lat="46.98091" lon="6.87153">
        <ele>529.9</ele>
        <time>2021-05-08T12:35:16.163Z</time>
      </trkpt>
      <trkpt lat="46.98089" lon="6.87154">
        <ele>529.8</ele>
        <time>2021-05-08T12:35:16.673Z</time>
      </trkpt>
      <trkpt lat="46.98087" lon="6.87147">
        <ele>529.99961617195</ele>
        <time>2021-05-08T12:35:24.936Z</time>
      </trkpt>
      <trkpt lat="46.98084" lon="6.8715">
        <ele>529.70028117683</ele>
        <time>2021-05-08T12:35:25.752Z</time>
      </trkpt>
      <trkpt lat="46.98076" lon="6.87156">
        <ele>528.6</ele>
        <time>2021-05-08T12:35:27.772Z</time>
      </trkpt>
      <trkpt lat="46.98076" lon="6.87156">
        <ele>528.77236300002</ele>
        <time>2021-05-08T12:35:28.546Z</time>
      </trkpt>
      <trkpt lat="46.98076" lon="6.87156">
        <ele>528.6</ele>
        <time>2021-05-08T12:35:28.589Z</time>
      </trkpt>
      <trkpt lat="46.98072" lon="6.87158">
        <ele>528.20281405334</ele>
        <time>2021-05-08T12:35:29.539Z</time>
      </trkpt>
      <trkpt lat="46.98066" lon="6.87161">
        <ele>527.59801477802</ele>
        <time>2021-05-08T12:35:30.964Z</time>
      </trkpt>
      <trkpt lat="46.98061" lon="6.87162">
        <ele>527.3</ele>
        <time>2021-05-08T12:35:32.067Z</time>
      </trkpt>
      <trkpt lat="46.98059" lon="6.87166">
        <ele>527.1</ele>
        <time>2021-05-08T12:35:32.806Z</time>
      </trkpt>
      <trkpt lat="46.98057" lon="6.8717">
        <ele>527.1</ele>
        <time>2021-05-08T12:35:36.299Z</time>
      </trkpt>
      <trkpt lat="46.98049" lon="6.8718">
        <ele>524.59368860951</ele>
        <time>2021-05-08T12:35:38.662Z</time>
      </trkpt>
      <trkpt lat="46.98044" lon="6.87184">
        <ele>523.3</ele>
        <time>2021-05-08T12:35:39.942Z</time>
      </trkpt>
      <trkpt lat="46.98038" lon="6.87192">
        <ele>522.2</ele>
        <time>2021-05-08T12:35:41.765Z</time>
      </trkpt>
      <trkpt lat="46.98028" lon="6.87206">
        <ele>520.59643894163</ele>
        <time>2021-05-08T12:35:44.873Z</time>
      </trkpt>
      <trkpt lat="46.98023" lon="6.87213">
        <ele>519.2</ele>
        <time>2021-05-08T12:35:46.427Z</time>
      </trkpt>
      <trkpt lat="46.98023" lon="6.87214">
        <ele>519.2</ele>
        <time>2021-05-08T12:35:47.131Z</time>
      </trkpt>
      <trkpt lat="46.98024" lon="6.87214">
        <ele>519.2</ele>
        <time>2021-05-08T12:35:47.846Z</time>
      </trkpt>
      <trkpt lat="46.98023" lon="6.87214">
        <ele>519.2</ele>
        <time>2021-05-08T12:35:48.561Z</time>
      </trkpt>
      <trkpt lat="46.98018" lon="6.87224">
        <ele>517.7038701579</ele>
        <time>2021-05-08T12:35:50.462Z</time>
      </trkpt>
      <trkpt lat="46.98008" lon="6.87244">
        <ele>517.09531263609</ele>
        <time>2021-05-08T12:35:55.001Z</time>
      </trkpt>
      <trkpt lat="46.98004" lon="6.87252">
        <ele>515.40475972781</ele>
        <time>2021-05-08T12:35:56.522Z</time>
      </trkpt>
      <trkpt lat="46.97997" lon="6.87266">
        <ele>513.19935717526</ele>
        <time>2021-05-08T12:35:59.184Z</time>
      </trkpt>
      <trkpt lat="46.97992" lon="6.87275">
        <ele>512.68965489303</ele>
        <time>2021-05-08T12:36:00.843Z</time>
      </trkpt>
      <trkpt lat="46.97988" lon="6.8728">
        <ele>510.39981947452</ele>
        <time>2021-05-08T12:36:02.025Z</time>
      </trkpt>
      <trkpt lat="46.97985" lon="6.87281">
        <ele>510.19768401887</ele>
        <time>2021-05-08T12:36:02.663Z</time>
      </trkpt>
      <trkpt lat="46.97985" lon="6.87284">
        <ele>509.70226957547</ele>
        <time>2021-05-08T12:36:03.123Z</time>
      </trkpt>
      <trkpt lat="46.97984" lon="6.87288">
        <ele>509.5</ele>
        <time>2021-05-08T12:36:03.776Z</time>
      </trkpt>
      <trkpt lat="46.97962" lon="6.8734">
        <ele>502.49532171812</ele>
        <time>2021-05-08T12:36:13.158Z</time>
      </trkpt>
      <trkpt lat="46.97961" lon="6.87342">
        <ele>502.4</ele>
        <time>2021-05-08T12:36:13.536Z</time>
      </trkpt>
      <trkpt lat="46.97962" lon="6.87342">
        <ele>502.1151589647</ele>
        <time>2021-05-08T12:36:13.706Z</time>
      </trkpt>
      <trkpt lat="46.97961" lon="6.87342">
        <ele>502.4</ele>
        <time>2021-05-08T12:36:16.707Z</time>
      </trkpt>
      <trkpt lat="46.97956" lon="6.87353">
        <ele>500.70768297253</ele>
        <time>2021-05-08T12:36:18.734Z</time>
      </trkpt>
      <trkpt lat="46.97951" lon="6.87364">
        <ele>499.3</ele>
        <time>2021-05-08T12:36:20.761Z</time>
      </trkpt>
      <trkpt lat="46.97946" lon="6.87374">
        <ele>497.90416677827</ele>
        <time>2021-05-08T12:36:22.662Z</time>
      </trkpt>
      <trkpt lat="46.97941" lon="6.87387">
        <ele>495.99522519396</ele>
        <time>2021-05-08T12:36:24.950Z</time>
      </trkpt>
      <trkpt lat="46.97936" lon="6.87396">
        <ele>494.7</ele>
        <time>2021-05-08T12:36:26.730Z</time>
      </trkpt>
      <trkpt lat="46.97933" lon="6.87404">
        <ele>493.58995165217</ele>
        <time>2021-05-08T12:36:28.130Z</time>
      </trkpt>
      <trkpt lat="46.97931" lon="6.87405">
        <ele>492.9</ele>
        <time>2021-05-08T12:36:28.604Z</time>
      </trkpt>
      <trkpt lat="46.97931" lon="6.87404">
        <ele>492.9</ele>
        <time>2021-05-08T12:36:29.309Z</time>
      </trkpt>
      <trkpt lat="46.9793" lon="6.87399">
        <ele>491.21439778346</ele>
        <time>2021-05-08T12:36:30.108Z</time>
      </trkpt>
      <trkpt lat="46.97932" lon="6.87394">
        <ele>489.48490108767</ele>
        <time>2021-05-08T12:36:30.997Z</time>
      </trkpt>
      <trkpt lat="46.97933" lon="6.87391">
        <ele>488.60113586667</ele>
        <time>2021-05-08T12:36:31.509Z</time>
      </trkpt>
      <trkpt lat="46.97933" lon="6.87389">
        <ele>488.7</ele>
        <time>2021-05-08T12:36:34.397Z</time>
      </trkpt>
      <trkpt lat="46.97933" lon="6.87387">
        <ele>488.89475979767</ele>
        <time>2021-05-08T12:36:39.830Z</time>
      </trkpt>
      <trkpt lat="46.97931" lon="6.87385">
        <ele>488.80149883554</ele>
        <time>2021-05-08T12:36:40.464Z</time>
      </trkpt>
      <trkpt lat="46.9793" lon="6.87391">
        <ele>488.4</ele>
        <time>2021-05-08T12:36:41.411Z</time>
      </trkpt>
      <trkpt lat="46.97927" lon="6.87395">
        <ele>490.77399870817</ele>
        <time>2021-05-08T12:36:57.561Z</time>
      </trkpt>
      <trkpt lat="46.97919" lon="6.87413">
        <ele>492.8</ele>
        <time>2021-05-08T12:37:55.924Z</time>
      </trkpt>
      <trkpt lat="46.97916" lon="6.87421">
        <ele>487.8</ele>
        <time>2021-05-08T12:37:57.324Z</time>
      </trkpt>
      <trkpt lat="46.97915" lon="6.87428">
        <ele>487.8</ele>
        <time>2021-05-08T12:38:02.361Z</time>
      </trkpt>
      <trkpt lat="46.97912" lon="6.87437">
        <ele>487.6</ele>
        <time>2021-05-08T12:38:04.325Z</time>
      </trkpt>
      <trkpt lat="46.97908" lon="6.87445">
        <ele>487.20292469823</ele>
        <time>2021-05-08T12:38:05.808Z</time>
      </trkpt>
      <trkpt lat="46.979" lon="6.8746">
        <ele>485.3</ele>
        <time>2021-05-08T12:38:08.728Z</time>
      </trkpt>
      <trkpt lat="46.97901" lon="6.8746">
        <ele>485.3</ele>
        <time>2021-05-08T12:38:09.668Z</time>
      </trkpt>
      <trkpt lat="46.979" lon="6.8746">
        <ele>485.3</ele>
        <time>2021-05-08T12:38:10.609Z</time>
      </trkpt>
      <trkpt lat="46.97893" lon="6.87473">
        <ele>483.3</ele>
        <time>2021-05-08T12:38:13.149Z</time>
      </trkpt>
      <trkpt lat="46.97888" lon="6.87481">
        <ele>482.1020808171</ele>
        <time>2021-05-08T12:38:14.812Z</time>
      </trkpt>
      <trkpt lat="46.97882" lon="6.87492">
        <ele>480.79797960259</ele>
        <time>2021-05-08T12:38:16.972Z</time>
      </trkpt>
      <trkpt lat="46.97881" lon="6.87496">
        <ele>480.50250887061</ele>
        <time>2021-05-08T12:38:17.625Z</time>
      </trkpt>
      <trkpt lat="46.97872" lon="6.87513">
        <ele>477.8</ele>
        <time>2021-05-08T12:38:20.925Z</time>
      </trkpt>
      <trkpt lat="46.97858" lon="6.87548">
        <ele>473.19493459336</ele>
        <time>2021-05-08T12:38:27.146Z</time>
      </trkpt>
      <trkpt lat="46.97857" lon="6.87552">
        <ele>472.8</ele>
        <time>2021-05-08T12:38:27.799Z</time>
      </trkpt>
      <trkpt lat="46.97858" lon="6.87554">
        <ele>472.8</ele>
        <time>2021-05-08T12:38:29.546Z</time>
      </trkpt>
      <trkpt lat="46.97861" lon="6.8755">
        <ele>472.4</ele>
        <time>2021-05-08T12:38:30.457Z</time>
      </trkpt>
      <trkpt lat="46.97867" lon="6.87561">
        <ele>470.4</ele>
        <time>2021-05-08T12:38:32.617Z</time>
      </trkpt>
      <trkpt lat="46.97865" lon="6.87563">
        <ele>470.3</ele>
        <time>2021-05-08T12:38:33.234Z</time>
      </trkpt>
      <trkpt lat="46.9786" lon="6.87554">
        <ele>473</ele>
        <time>2021-05-08T12:39:04.767Z</time>
      </trkpt>
      <trkpt lat="46.97859" lon="6.87552">
        <ele>472.7</ele>
        <time>2021-05-08T12:39:05.147Z</time>
      </trkpt>
      <trkpt lat="46.9785" lon="6.87564">
        <ele>471.99178518717</ele>
        <time>2021-05-08T12:39:07.823Z</time>
      </trkpt>
      <trkpt lat="46.97846" lon="6.8757">
        <ele>469.02073050711</ele>
        <time>2021-05-08T12:39:09.110Z</time>
      </trkpt>
      <trkpt lat="46.97842" lon="6.87578">
        <ele>469.4</ele>
        <time>2021-05-08T12:39:21.829Z</time>
      </trkpt>
      <trkpt lat="46.97841" lon="6.87582">
        <ele>469.4</ele>
        <time>2021-05-08T12:39:24.830Z</time>
      </trkpt>
      <trkpt lat="46.97841" lon="6.87587">
        <ele>468.80439626316</ele>
        <time>2021-05-08T12:39:25.597Z</time>
      </trkpt>
      <trkpt lat="46.97837" lon="6.87593">
        <ele>467.8</ele>
        <time>2021-05-08T12:39:26.883Z</time>
      </trkpt>
      <trkpt lat="46.97834" lon="6.87598">
        <ele>466.70912466077</ele>
        <time>2021-05-08T12:39:27.904Z</time>
      </trkpt>
      <trkpt lat="46.97828" lon="6.87606">
        <ele>464.90172215873</ele>
        <time>2021-05-08T12:39:29.727Z</time>
      </trkpt>
      <trkpt lat="46.9782" lon="6.87615">
        <ele>462.99791548522</ele>
        <time>2021-05-08T12:39:31.994Z</time>
      </trkpt>
      <trkpt lat="46.97796" lon="6.87642">
        <ele>456.99910105601</ele>
        <time>2021-05-08T12:39:38.794Z</time>
      </trkpt>
      <trkpt lat="46.9778" lon="6.8766">
        <ele>453.4</ele>
        <time>2021-05-08T12:39:43.327Z</time>
      </trkpt>
      <trkpt lat="46.97767" lon="6.87668">
        <ele>450.69776696392</ele>
        <time>2021-05-08T12:39:46.496Z</time>
      </trkpt>
      <trkpt lat="46.9776" lon="6.87672">
        <ele>449.79984285664</ele>
        <time>2021-05-08T12:39:48.184Z</time>
      </trkpt>
      <trkpt lat="46.97759" lon="6.87678">
        <ele>449.6</ele>
        <time>2021-05-08T12:39:49.200Z</time>
      </trkpt>
      <trkpt lat="46.97758" lon="6.87684">
        <ele>449.5</ele>
        <time>2021-05-08T12:39:50.487Z</time>
      </trkpt>
      <trkpt lat="46.97757" lon="6.87691">
        <ele>449.4</ele>
        <time>2021-05-08T12:39:52.032Z</time>
      </trkpt>
      <trkpt lat="46.97752" lon="6.87691">
        <ele>448.99904312</ele>
        <time>2021-05-08T12:39:53.156Z</time>
      </trkpt>
      <trkpt lat="46.97748" lon="6.87693">
        <ele>448.7</ele>
        <time>2021-05-08T12:39:54.106Z</time>
      </trkpt>
      <trkpt lat="46.97745" lon="6.87695">
        <ele>448.3</ele>
        <time>2021-05-08T12:39:54.847Z</time>
      </trkpt>
      <trkpt lat="46.97741" lon="6.87699">
        <ele>448.00071398462</ele>
        <time>2021-05-08T12:39:55.882Z</time>
      </trkpt>
      <trkpt lat="46.97728" lon="6.87711">
        <ele>446.7</ele>
        <time>2021-05-08T12:39:59.335Z</time>
      </trkpt>
      <trkpt lat="46.9771" lon="6.87727">
        <ele>445.39840625641</ele>
        <time>2021-05-08T12:40:03.834Z</time>
      </trkpt>
      <trkpt lat="46.97701" lon="6.87738">
        <ele>444.79940016593</ele>
        <time>2021-05-08T12:40:06.569Z</time>
      </trkpt>
      <trkpt lat="46.97694" lon="6.87748">
        <ele>444.19984781691</ele>
        <time>2021-05-08T12:40:08.667Z</time>
      </trkpt>
      <trkpt lat="46.9769" lon="6.87756">
        <ele>443.8</ele>
        <time>2021-05-08T12:40:10.145Z</time>
      </trkpt>
      <trkpt lat="46.97687" lon="6.87761">
        <ele>443.60008468356</ele>
        <time>2021-05-08T12:40:11.274Z</time>
      </trkpt>
      <trkpt lat="46.97677" lon="6.87774">
        <ele>442.79740245478</ele>
        <time>2021-05-08T12:40:14.172Z</time>
      </trkpt>
      <trkpt lat="46.97668" lon="6.87784">
        <ele>442.3</ele>
        <time>2021-05-08T12:40:16.979Z</time>
      </trkpt>
      <trkpt lat="46.97661" lon="6.87792">
        <ele>441.8</ele>
        <time>2021-05-08T12:40:18.962Z</time>
      </trkpt>
      <trkpt lat="46.97645" lon="6.87806">
        <ele>440.49881198702</ele>
        <time>2021-05-08T12:40:23.150Z</time>
      </trkpt>
      <trkpt lat="46.97639" lon="6.87812">
        <ele>440</ele>
        <time>2021-05-08T12:40:24.782Z</time>
      </trkpt>
      <trkpt lat="46.97639" lon="6.87812">
        <ele>440</ele>
        <time>2021-05-08T12:40:24.868Z</time>
      </trkpt>
      <trkpt lat="46.97639" lon="6.87812">
        <ele>440</ele>
        <time>2021-05-08T12:40:24.954Z</time>
      </trkpt>
      <trkpt lat="46.97617" lon="6.87831">
        <ele>438.00114082814</ele>
        <time>2021-05-08T12:40:30.693Z</time>
      </trkpt>
      <trkpt lat="46.97607" lon="6.8784">
        <ele>437.09843258591</ele>
        <time>2021-05-08T12:40:33.330Z</time>
      </trkpt>
      <trkpt lat="46.976" lon="6.87844">
        <ele>436.59844843077</ele>
        <time>2021-05-08T12:40:34.879Z</time>
      </trkpt>
      <trkpt lat="46.97596" lon="6.87848">
        <ele>436.19990473846</ele>
        <time>2021-05-08T12:40:35.967Z</time>
      </trkpt>
      <trkpt lat="46.97592" lon="6.87852">
        <ele>435.8</ele>
        <time>2021-05-08T12:40:37.055Z</time>
      </trkpt>
      <trkpt lat="46.9759" lon="6.87853">
        <ele>435.70074396715</ele>
        <time>2021-05-08T12:40:37.567Z</time>
      </trkpt>
      <trkpt lat="46.97587" lon="6.87854">
        <ele>435.4</ele>
        <time>2021-05-08T12:40:38.258Z</time>
      </trkpt>
      <trkpt lat="46.97582" lon="6.87855">
        <ele>435.1</ele>
        <time>2021-05-08T12:40:39.358Z</time>
      </trkpt>
      <trkpt lat="46.97578" lon="6.87854">
        <ele>434.8</ele>
        <time>2021-05-08T12:40:40.270Z</time>
      </trkpt>
      <trkpt lat="46.97573" lon="6.87849">
        <ele>434.60040785677</ele>
        <time>2021-05-08T12:40:41.943Z</time>
      </trkpt>
      <trkpt lat="46.97566" lon="6.87842">
        <ele>434.49957647076</ele>
        <time>2021-05-08T12:40:44.926Z</time>
      </trkpt>
      <trkpt lat="46.9756" lon="6.8785">
        <ele>434.2</ele>
        <time>2021-05-08T12:40:47.082Z</time>
      </trkpt>
      <trkpt lat="46.97541" lon="6.8788">
        <ele>433.29899447216</ele>
        <time>2021-05-08T12:40:54.861Z</time>
      </trkpt>
      <trkpt lat="46.97536" lon="6.87889">
        <ele>432.8985641717</ele>
        <time>2021-05-08T12:40:56.719Z</time>
      </trkpt>
      <trkpt lat="46.97532" lon="6.87896">
        <ele>432.6</ele>
        <time>2021-05-08T12:40:58.214Z</time>
      </trkpt>
      <trkpt lat="46.97528" lon="6.87891">
        <ele>432.8</ele>
        <time>2021-05-08T12:41:06.544Z</time>
      </trkpt>
      <trkpt lat="46.97517" lon="6.87905">
        <ele>432.2</ele>
        <time>2021-05-08T12:41:10.262Z</time>
      </trkpt>
      <trkpt lat="46.97521" lon="6.87908">
        <ele>432.2</ele>
        <time>2021-05-08T12:41:14.901Z</time>
      </trkpt>
      <trkpt lat="46.97522" lon="6.87912">
        <ele>432.2</ele>
        <time>2021-05-08T12:41:17.901Z</time>
      </trkpt>
      <trkpt lat="46.97522" lon="6.87914">
        <ele>432.2</ele>
        <time>2021-05-08T12:41:19.310Z</time>
      </trkpt>
      <trkpt lat="46.97522" lon="6.87917">
        <ele>432.2</ele>
        <time>2021-05-08T12:41:21.423Z</time>
      </trkpt>
      <trkpt lat="46.97519" lon="6.87923">
        <ele>432.00099854279</ele>
        <time>2021-05-08T12:41:22.743Z</time>
      </trkpt>
      <trkpt lat="46.975" lon="6.87956">
        <ele>432</ele>
        <time>2021-05-08T12:41:53.143Z</time>
      </trkpt>
      <trkpt lat="46.97501" lon="6.87956">
        <ele>432</ele>
        <time>2021-05-08T12:41:54.001Z</time>
      </trkpt>
      <trkpt lat="46.975" lon="6.87956">
        <ele>432</ele>
        <time>2021-05-08T12:41:54.858Z</time>
      </trkpt>
      <trkpt lat="46.97488" lon="6.87978">
        <ele>432</ele>
        <time>2021-05-08T12:42:14.699Z</time>
      </trkpt>
      <trkpt lat="46.97461" lon="6.88023">
        <ele>432.29878350365</ele>
        <time>2021-05-08T12:42:59.938Z</time>
      </trkpt>
      <trkpt lat="46.97459" lon="6.88022">
        <ele>432.2</ele>
        <time>2021-05-08T12:43:00.451Z</time>
      </trkpt>
      <trkpt lat="46.97455" lon="6.8802">
        <ele>432.29987848</ele>
        <time>2021-05-08T12:43:06.019Z</time>
      </trkpt>
      <trkpt lat="46.97448" lon="6.88012">
        <ele>432.4</ele>
        <time>2021-05-08T12:43:16.239Z</time>
      </trkpt>
      <trkpt lat="46.9743" lon="6.8799">
        <ele>432.4</ele>
        <time>2021-05-08T12:43:40.436Z</time>
      </trkpt>
      <trkpt lat="46.97428" lon="6.87988">
        <ele>432.4</ele>
        <time>2021-05-08T12:43:42.936Z</time>
      </trkpt>
      <trkpt lat="46.97428" lon="6.87988">
        <ele>432.4</ele>
        <time>2021-05-08T12:43:43.346Z</time>
      </trkpt>
      <trkpt lat="46.97428" lon="6.87988">
        <ele>432.4</ele>
        <time>2021-05-08T12:43:43.755Z</time>
      </trkpt>
      <trkpt lat="46.9743" lon="6.8799">
        <ele>432.4</ele>
        <time>2021-05-08T12:43:46.255Z</time>
      </trkpt>
      <trkpt lat="46.97421" lon="6.87979">
        <ele>432.4</ele>
        <time>2021-05-08T12:43:58.353Z</time>
      </trkpt>
      <trkpt lat="46.97403" lon="6.87955">
        <ele>432.2</ele>
        <time>2021-05-08T12:44:07.349Z</time>
      </trkpt>
      <trkpt lat="46.97394" lon="6.87942">
        <ele>432.1002751</ele>
        <time>2021-05-08T12:44:12.041Z</time>
      </trkpt>
      <trkpt lat="46.97384" lon="6.87927">
        <ele>432</ele>
        <time>2021-05-08T12:44:25.381Z</time>
      </trkpt>
      <trkpt lat="46.97374" lon="6.87911">
        <ele>431.9</ele>
        <time>2021-05-08T12:44:39.232Z</time>
      </trkpt>
      <trkpt lat="46.97364" lon="6.87893">
        <ele>431.9</ele>
        <time>2021-05-08T12:44:55.583Z</time>
      </trkpt>
      <trkpt lat="46.97354" lon="6.87872">
        <ele>431.80063006467</ele>
        <time>2021-05-08T12:45:12.177Z</time>
      </trkpt>
      <trkpt lat="46.97332" lon="6.87893">
        <ele>431.1</ele>
        <time>2021-05-08T12:45:19.933Z</time>
      </trkpt>
      <trkpt lat="46.97325" lon="6.87901">
        <ele>430.9</ele>
        <time>2021-05-08T12:45:22.680Z</time>
      </trkpt>
      <trkpt lat="46.9732" lon="6.87908">
        <ele>430.69922175135</ele>
        <time>2021-05-08T12:45:24.672Z</time>
      </trkpt>
      <trkpt lat="46.97317" lon="6.879">
        <ele>430.6</ele>
        <time>2021-05-08T12:45:26.755Z</time>
      </trkpt>
      <trkpt lat="46.97313" lon="6.8789">
        <ele>430.5</ele>
        <time>2021-05-08T12:45:29.513Z</time>
      </trkpt>
      <trkpt lat="46.97306" lon="6.87866">
        <ele>430.5</ele>
        <time>2021-05-08T12:45:47.900Z</time>
      </trkpt>
      <trkpt lat="46.97307" lon="6.87866">
        <ele>430.59745992453</ele>
        <time>2021-05-08T12:45:50.394Z</time>
      </trkpt>
      <trkpt lat="46.97306" lon="6.87866">
        <ele>430.5</ele>
        <time>2021-05-08T12:45:50.535Z</time>
      </trkpt>
      <trkpt lat="46.97298" lon="6.87838">
        <ele>430.5</ele>
        <time>2021-05-08T12:46:11.918Z</time>
      </trkpt>
      <trkpt lat="46.9729" lon="6.87811">
        <ele>430.5</ele>
        <time>2021-05-08T12:46:32.654Z</time>
      </trkpt>
      <trkpt lat="46.9728" lon="6.87779">
        <ele>430.5</ele>
        <time>2021-05-08T12:46:57.448Z</time>
      </trkpt>
      <trkpt lat="46.97258" lon="6.87712">
        <ele>430.50036388777</ele>
        <time>2021-05-08T12:47:49.829Z</time>
      </trkpt>
      <trkpt lat="46.97247" lon="6.87682">
        <ele>430.5</ele>
        <time>2021-05-08T12:48:13.815Z</time>
      </trkpt>
      <trkpt lat="46.97248" lon="6.87683">
        <ele>430.6</ele>
        <time>2021-05-08T12:48:16.504Z</time>
      </trkpt>
      <trkpt lat="46.97247" lon="6.87682">
        <ele>430.5</ele>
        <time>2021-05-08T12:48:16.735Z</time>
      </trkpt>
      <trkpt lat="46.97233" lon="6.87643">
        <ele>430.5</ele>
        <time>2021-05-08T12:48:47.778Z</time>
      </trkpt>
      <trkpt lat="46.97218" lon="6.87607">
        <ele>430.5</ele>
        <time>2021-05-08T12:49:17.492Z</time>
      </trkpt>
      <trkpt lat="46.97199" lon="6.87562">
        <ele>430.49807420889</ele>
        <time>2021-05-08T12:49:54.740Z</time>
      </trkpt>
      <trkpt lat="46.97207" lon="6.87556">
        <ele>429.2</ele>
        <time>2021-05-08T12:49:56.760Z</time>
      </trkpt>
      <trkpt lat="46.9721" lon="6.87553">
        <ele>429</ele>
        <time>2021-05-08T12:49:57.580Z</time>
      </trkpt>
      <trkpt lat="46.97211" lon="6.87552">
        <ele>431.2</ele>
        <time>2021-05-08T12:50:02.401Z</time>
      </trkpt>
      <trkpt lat="46.97261" lon="6.87507">
        <ele>428.5</ele>
        <time>2021-05-08T12:50:16.724Z</time>
      </trkpt>
      <trkpt lat="46.97262" lon="6.87508">
        <ele>428.3</ele>
        <time>2021-05-08T12:50:16.996Z</time>
      </trkpt>
      <trkpt lat="46.97263" lon="6.87509">
        <ele>428.2</ele>
        <time>2021-05-08T12:50:17.268Z</time>
      </trkpt>
      <trkpt lat="46.97264" lon="6.87512">
        <ele>428.4</ele>
        <time>2021-05-08T12:50:22.734Z</time>
      </trkpt>
      <trkpt lat="46.97269" lon="6.87524">
        <ele>429.6</ele>
        <time>2021-05-08T12:50:56.821Z</time>
      </trkpt>
      <trkpt lat="46.97271" lon="6.87525">
        <ele>429.6</ele>
        <time>2021-05-08T12:50:59.003Z</time>
      </trkpt>
      <trkpt lat="46.97272" lon="6.87524">
        <ele>429.5</ele>
        <time>2021-05-08T12:50:59.275Z</time>
      </trkpt>
      <trkpt lat="46.97272" lon="6.87523">
        <ele>429.5</ele>
        <time>2021-05-08T12:50:59.979Z</time>
      </trkpt>
      <trkpt lat="46.97272" lon="6.87522">
        <ele>429.5</ele>
        <time>2021-05-08T12:51:00.684Z</time>
      </trkpt>
      <trkpt lat="46.97271" lon="6.87517">
        <ele>429.9</ele>
        <time>2021-05-08T12:51:11.554Z</time>
      </trkpt>
      <trkpt lat="46.97269" lon="6.87507">
        <ele>430.3</ele>
        <time>2021-05-08T12:51:24.938Z</time>
      </trkpt>
      <trkpt lat="46.97269" lon="6.87506">
        <ele>430.3</ele>
        <time>2021-05-08T12:51:25.642Z</time>
      </trkpt>
      <trkpt lat="46.97271" lon="6.87505">
        <ele>430.3</ele>
        <time>2021-05-08T12:51:27.824Z</time>
      </trkpt>
      <trkpt lat="46.97277" lon="6.87503">
        <ele>430.4</ele>
        <time>2021-05-08T12:51:35.287Z</time>
      </trkpt>
      <trkpt lat="46.97283" lon="6.87501">
        <ele>430.6</ele>
        <time>2021-05-08T12:51:44.333Z</time>
      </trkpt>
      <trkpt lat="46.97286" lon="6.87499">
        <ele>430.6</ele>
        <time>2021-05-08T12:51:47.736Z</time>
      </trkpt>
      <trkpt lat="46.9729" lon="6.87491">
        <ele>430.6</ele>
        <time>2021-05-08T12:51:54.722Z</time>
      </trkpt>
      <trkpt lat="46.97301" lon="6.87511">
        <ele>430.6</ele>
        <time>2021-05-08T12:52:12.818Z</time>
      </trkpt>
      <trkpt lat="46.97306" lon="6.87523">
        <ele>430.7</ele>
        <time>2021-05-08T12:52:23.768Z</time>
      </trkpt>
      <trkpt lat="46.97308" lon="6.87532">
        <ele>430.7</ele>
        <time>2021-05-08T12:52:30.436Z</time>
      </trkpt>
      <trkpt lat="46.97308" lon="6.87543">
        <ele>430.7</ele>
        <time>2021-05-08T12:52:38.185Z</time>
      </trkpt>
      <trkpt lat="46.97307" lon="6.87558">
        <ele>430.7</ele>
        <time>2021-05-08T12:52:48.802Z</time>
      </trkpt>
      <trkpt lat="46.97305" lon="6.87576">
        <ele>430.7</ele>
        <time>2021-05-08T12:53:01.649Z</time>
      </trkpt>
      <trkpt lat="46.97304" lon="6.87583">
        <ele>430.7</ele>
        <time>2021-05-08T12:53:06.687Z</time>
      </trkpt>
      <trkpt lat="46.97305" lon="6.87584">
        <ele>430.7</ele>
        <time>2021-05-08T12:53:07.476Z</time>
      </trkpt>
    </trkseg>
  </trk>
</gpx>